Provisional Data: Chest Creek near Patton, PA


Please select a monitoring station.
Please select start date.
Please select start date.

Toggle Unit: C/F Toggle Unit: C/F
Sample Time Temperature (C) Temperature (F) Specific Conductivity (mS/cm) pH   Turbidity (NTU+) DO (mg/L)
12/4/2020 12:00:00 AM 1.33 34.394 0.232 6.77 -1.83 13.05
12/4/2020 12:15:00 AM 1.31 34.358 0.232 6.77 -1.56 13.05
12/4/2020 12:30:00 AM 1.29 34.322 0.232 6.77 -1.89 13.05
12/4/2020 12:45:00 AM 1.28 34.304 0.232 6.77 -1.83 13.05
12/4/2020 1:00:00 AM 1.25 34.25 0.232 6.77 -2.01 13.05
12/4/2020 1:15:00 AM 1.23 34.214 0.232 6.78 -2.26 13.05
12/4/2020 1:30:00 AM 1.22 34.196 0.232 6.78 -2.36 13.05
12/4/2020 1:45:00 AM 1.2 34.16 0.232 6.77 -2.76 13.05
12/4/2020 2:00:00 AM 1.18 34.124 0.231 6.78 -2.62 13.05
12/4/2020 2:15:00 AM 1.17 34.106 0.231 6.78 -2.78 13.05
12/4/2020 2:30:00 AM 1.16 34.088 0.231 6.79 -2.92 13.05
12/4/2020 2:45:00 AM 1.17 34.106 0.231 6.78 -2.85 13.05
12/4/2020 3:00:00 AM 1.17 34.106 0.231 6.78 -3.08 13.05
12/4/2020 3:15:00 AM 1.2 34.16 0.231 6.78 -2.85 13.04
12/4/2020 3:30:00 AM 1.21 34.178 0.231 6.79 -2.93 13.05
12/4/2020 3:45:00 AM 1.23 34.214 0.231 6.78 -2.88 13.04
12/4/2020 4:00:00 AM 1.25 34.25 0.23 6.79 -2.9 13.04
12/4/2020 4:15:00 AM 1.27 34.286 0.23 6.78 -2.97 13.03
12/4/2020 4:30:00 AM 1.28 34.304 0.23 6.79 -2.89 13.03
12/4/2020 4:45:00 AM 1.28 34.304 0.23 6.78 -2.99 13.03
12/4/2020 5:00:00 AM 1.27 34.286 0.23 6.78 -2.79 13.02
12/4/2020 5:15:00 AM 1.25 34.25 0.23 6.78 -3.15 13.02
12/4/2020 5:30:00 AM 1.22 34.196 0.229 6.77 -2.92 13.03
12/4/2020 5:45:00 AM 1.22 34.196 0.229 6.78 -2.86 13.02
12/4/2020 6:00:00 AM 1.22 34.196 0.229 6.77 -2.75 13.02
12/4/2020 6:15:00 AM 1.21 34.178 0.229 6.77 -2.88 13.02
12/4/2020 6:30:00 AM 1.21 34.178 0.229 6.77 -3 13.02
12/4/2020 6:45:00 AM 1.22 34.196 0.229 6.78 -2.67 13.02
12/4/2020 7:00:00 AM 1.22 34.196 0.229 6.78 -2.79 13.02
12/4/2020 7:15:00 AM 1.22 34.196 0.229 6.77 -2.98 13.02
12/4/2020 7:30:00 AM 1.21 34.178 0.229 6.77 -2.74 13.03
12/4/2020 7:45:00 AM 1.2 34.16 0.229 6.77 -3.16 13.04
12/4/2020 8:00:00 AM 1.21 34.178 0.229 6.78 -2.77 13.06
12/4/2020 8:15:00 AM 1.2 34.16 0.229 6.79 -2.33 13.09
12/4/2020 8:30:00 AM 1.22 34.196 0.229 6.8 -2.97 13.13
12/4/2020 8:45:00 AM 1.26 34.268 0.229 6.79 -2.68 13.18
12/4/2020 9:00:00 AM 1.31 34.358 0.229 6.81 -2.56 13.22
12/4/2020 9:15:00 AM 1.37 34.466 0.229 6.82 -2.65 13.26
12/4/2020 9:30:00 AM 1.45 34.61 0.228 6.83 -3 13.3
12/4/2020 9:45:00 AM 1.54 34.772 0.228 6.84 -2.64 13.33
12/4/2020 10:00:00 AM 1.63 34.934 0.228 6.84 -3.12 13.36
12/4/2020 10:15:00 AM 1.72 35.096 0.228 6.86 -3.32 13.38
12/4/2020 10:30:00 AM 1.85 35.33 0.228 6.86 -2.98 13.4
12/4/2020 10:45:00 AM 1.96 35.528 0.228 6.87 -2.99 13.41
12/4/2020 11:00:00 AM 2.08 35.744 0.228 6.88 -3.26 13.42
12/4/2020 11:15:00 AM 2.21 35.978 0.228 6.89 -3.21 13.43
12/4/2020 11:30:00 AM 2.32 36.176 0.228 6.89 -2.85 13.43
12/4/2020 11:45:00 AM 2.45 36.41 0.228 6.89 -1.51 13.43
12/4/2020 12:00:00 PM 2.57 36.626 0.228 6.9 -2.93 13.43
12/4/2020 12:15:00 PM 2.65 36.77 0.228 6.9 -2.98 13.42
12/4/2020 12:30:00 PM 2.67 36.806 0.228 6.9 -3.09 13.41
12/4/2020 12:45:00 PM 2.66 36.788 0.23 6.88 -3.18 13.38
12/4/2020 1:00:00 PM 2.67 36.806 0.231 6.89 -3.43 13.37
12/4/2020 1:15:00 PM 2.65 36.77 0.232 6.88 -3.47 13.36
12/4/2020 1:30:00 PM 2.64 36.752 0.233 6.88 -3.17 13.35
12/4/2020 1:45:00 PM 2.63 36.734 0.233 6.88 -3.05 13.34
12/4/2020 2:00:00 PM 2.61 36.698 0.234 6.87 -3.3 13.34
12/4/2020 2:15:00 PM 2.62 36.716 0.234 6.87 -3.49 13.33
12/4/2020 2:30:00 PM 2.6 36.68 0.235 6.86 -3.44 13.3
12/4/2020 2:45:00 PM 2.6 36.68 0.235 6.86 -3.18 13.28
12/4/2020 3:00:00 PM 2.58 36.644 0.235 6.86 -2.91 13.26
12/4/2020 3:15:00 PM 2.57 36.626 0.235 6.86 -2.81 13.23
12/4/2020 3:30:00 PM 2.56 36.608 0.236 6.85 -3.13 13.2
12/4/2020 3:45:00 PM 2.54 36.572 0.238 6.85 -2.95 13.15
12/4/2020 4:00:00 PM 2.54 36.572 0.241 6.84 -2.45 13.11
12/4/2020 4:15:00 PM 2.52 36.536 0.244 6.85 -0.93 13.06
12/4/2020 4:30:00 PM 2.52 36.536 0.25 6.83 -1.55 13.02
12/4/2020 4:45:00 PM 2.52 36.536 0.256 6.83 0.19 12.98
12/4/2020 5:00:00 PM 2.51 36.518 0.256 6.82 0.3 12.94
12/4/2020 5:15:00 PM 2.51 36.518 0.255 6.82 0.09 12.91
12/4/2020 5:30:00 PM 2.51 36.518 0.255 6.83 1.37 12.88
12/4/2020 5:45:00 PM 2.51 36.518 0.256 6.82 0.64 12.85
12/4/2020 6:00:00 PM 2.51 36.518 0.257 6.82 1 12.83
12/4/2020 6:15:00 PM 2.51 36.518 0.255 6.81 1.13 12.82
12/4/2020 6:30:00 PM 2.51 36.518 0.254 6.81 0.88 12.8
12/4/2020 6:45:00 PM 2.51 36.518 0.254 6.8 1.48 12.78
12/4/2020 7:00:00 PM 2.52 36.536 0.253 6.81 1.48 12.77
12/4/2020 7:15:00 PM 2.53 36.554 0.252 6.81 2.73 12.75
12/4/2020 7:30:00 PM 2.54 36.572 0.251 6.8 0.8 12.74
12/4/2020 7:45:00 PM 2.55 36.59 0.249 6.8 0.42 12.73
12/4/2020 8:00:00 PM 2.55 36.59 0.247 6.8 0.14 12.71
12/4/2020 8:15:00 PM 2.55 36.59 0.246 6.79 -0.55 12.71
12/4/2020 8:30:00 PM 2.56 36.608 0.245 6.8 -0.83 12.7
12/4/2020 8:45:00 PM 2.57 36.626 0.244 6.79 -0.88 12.68
12/4/2020 9:00:00 PM 2.58 36.644 0.244 6.8 -1.28 12.68
12/4/2020 9:15:00 PM 2.59 36.662 0.244 6.8 -1.38 12.67
12/4/2020 9:30:00 PM 2.6 36.68 0.245 6.79 -1.27 12.66
12/4/2020 9:45:00 PM 2.61 36.698 0.245 6.79 -1.06 12.65
12/4/2020 10:00:00 PM 2.62 36.716 0.245 6.8 -0.68 12.64
12/4/2020 10:15:00 PM 2.63 36.734 0.245 6.8 -0.72 12.64
12/4/2020 10:30:00 PM 2.64 36.752 0.246 6.79 -0.78 12.63
12/4/2020 10:45:00 PM 2.65 36.77 0.246 6.8 -0.82 12.63
12/4/2020 11:00:00 PM 2.66 36.788 0.247 6.8 -0.84 12.62
12/4/2020 11:15:00 PM 2.67 36.806 0.247 6.8 -0.75 12.61
12/4/2020 11:30:00 PM 2.67 36.806 0.247 6.8 -0.69 12.61
12/4/2020 11:45:00 PM 2.68 36.824 0.247 6.81 -0.74 12.6
12/5/2020 12:00:00 AM 2.68 36.824 0.246 6.81 -0.78 12.59
12/5/2020 12:15:00 AM 2.68 36.824 0.246 6.83 0.97 12.59
12/5/2020 12:30:00 AM 2.68 36.824 0.245 6.8 -0.12 12.59
12/5/2020 12:45:00 AM 2.68 36.824 0.244 6.8 0.86 12.58
12/5/2020 1:00:00 AM 2.68 36.824 0.244 6.81 0.24 12.58
12/5/2020 1:15:00 AM 2.68 36.824 0.245 6.81 1.03 12.57
12/5/2020 1:30:00 AM 2.67 36.806 0.243 6.81 0.61 12.57
12/5/2020 1:45:00 AM 2.67 36.806 0.243 6.82 0.25 12.57
12/5/2020 2:00:00 AM 2.66 36.788 0.242 6.81 0.11 12.56
12/5/2020 2:15:00 AM 2.65 36.77 0.241 6.83 1.98 12.56
12/5/2020 2:30:00 AM 2.64 36.752 0.24 6.81 -0.14 12.55
12/5/2020 2:45:00 AM 2.65 36.77 0.239 6.82 0.29 12.55
12/5/2020 3:00:00 AM 2.65 36.77 0.238 6.82 -0.15 12.55
12/5/2020 3:15:00 AM 2.65 36.77 0.237 6.82 -0.19 12.55
12/5/2020 3:30:00 AM 2.66 36.788 0.236 6.82 0.35 12.54
12/5/2020 3:45:00 AM 2.66 36.788 0.235 6.83 -0.26 12.54
12/5/2020 4:00:00 AM 2.67 36.806 0.233 6.84 0.99 12.53
12/5/2020 4:15:00 AM 2.68 36.824 0.233 6.82 0.67 12.53
12/5/2020 4:30:00 AM 2.69 36.842 0.232 6.83 1.15 12.52
12/5/2020 4:45:00 AM 2.7 36.86 0.231 6.82 0.81 12.52
12/5/2020 5:00:00 AM 2.71 36.878 0.23 6.82 0.75 12.52
12/5/2020 5:15:00 AM 2.72 36.896 0.229 6.83 0.49 12.51
12/5/2020 5:30:00 AM 2.73 36.914 0.229 6.83 1.4 12.5
12/5/2020 5:45:00 AM 2.74 36.932 0.228 6.82 1.24 12.49
12/5/2020 6:00:00 AM 2.75 36.95 0.228 6.82 1 12.49
12/5/2020 6:15:00 AM 2.75 36.95 0.228 6.82 3.54 12.49
12/5/2020 6:30:00 AM 2.75 36.95 0.229 6.82 2.36 12.48
12/5/2020 6:45:00 AM 2.76 36.968 0.229 6.82 10.36 12.48
12/5/2020 7:00:00 AM 2.76 36.968 0.23 6.82 4.9 12.48
12/5/2020 7:15:00 AM 2.76 36.968 0.23 6.81 1.89 12.48
12/5/2020 7:30:00 AM 2.76 36.968 0.23 6.82 6.68 12.47
12/5/2020 7:45:00 AM 2.76 36.968 0.231 6.81 5.55 12.47
12/5/2020 8:00:00 AM 2.76 36.968 0.231 6.81 60.21 12.47
12/5/2020 8:15:00 AM 2.77 36.986 0.231 6.82 2.54 12.47
12/5/2020 8:30:00 AM 2.78 37.004 0.231 6.81 3.18 12.49
12/5/2020 8:45:00 AM 2.8 37.04 0.23 6.85 8.79 12.52
12/5/2020 9:00:00 AM 2.82 37.076 0.23 6.82 6.85 12.54
12/5/2020 9:15:00 AM 2.84 37.112 0.23 6.83 3.02 12.57
12/5/2020 9:30:00 AM 2.88 37.184 0.229 6.84 46.25 12.6
12/5/2020 9:45:00 AM 2.91 37.238 0.229 6.85 5.75 12.62
12/5/2020 10:00:00 AM 2.94 37.292 0.229 6.84 5.91 12.64
12/5/2020 10:15:00 AM 2.97 37.346 0.227 6.85 80.56 12.65
12/5/2020 10:30:00 AM 3 37.4 0.226 6.86 6.92 12.66
12/5/2020 10:45:00 AM 3.02 37.436 0.225 6.86 2.8 12.67
12/5/2020 11:00:00 AM 3.03 37.454 0.225 6.85 3.47 12.66
12/5/2020 11:15:00 AM 3.05 37.49 0.224 6.86 3.35 12.67
12/5/2020 11:30:00 AM 3.06 37.508 0.223 6.86 3.01 12.67
12/5/2020 11:45:00 AM 3.07 37.526 0.223 6.86 1.52 12.67
12/5/2020 12:00:00 PM 3.07 37.526 0.222 6.86 1.3 12.66
12/5/2020 12:15:00 PM 3.06 37.508 0.222 6.87 1.47 12.65
12/5/2020 12:30:00 PM 3.06 37.508 0.221 6.87 1.75 12.64
12/5/2020 12:45:00 PM 3.05 37.49 0.221 6.86 2.24 12.63
12/5/2020 1:00:00 PM 3.04 37.472 0.22 6.86 1.7 12.62
12/5/2020 1:15:00 PM 3.04 37.472 0.22 6.86 0.65 12.61
12/5/2020 1:30:00 PM 3.06 37.508 0.22 6.87 1.07 12.62
12/5/2020 1:45:00 PM 3.09 37.562 0.219 6.87 0.58 12.64
12/5/2020 2:00:00 PM 3.11 37.598 0.219 6.87 0.67 12.66
12/5/2020 2:15:00 PM 3.14 37.652 0.219 6.87 0.72 12.67
12/5/2020 2:30:00 PM 3.15 37.67 0.219 6.88 1.05 12.67
12/5/2020 2:45:00 PM 3.15 37.67 0.218 6.88 0.05 12.67
12/5/2020 3:00:00 PM 3.15 37.67 0.218 6.88 0.21 12.65
12/5/2020 3:15:00 PM 3.15 37.67 0.218 6.88 1.33 12.64
12/5/2020 3:30:00 PM 3.14 37.652 0.218 6.87 0.02 12.62
12/5/2020 3:45:00 PM 3.13 37.634 0.218 6.88 0.07 12.6
12/5/2020 4:00:00 PM 3.13 37.634 0.217 6.89 1.82 12.59
12/5/2020 4:15:00 PM 3.12 37.616 0.217 6.86 0.72 12.57
12/5/2020 4:30:00 PM 3.11 37.598 0.217 6.86 -0.14 12.54
12/5/2020 4:45:00 PM 3.1 37.58 0.216 6.85 0.45 12.53
12/5/2020 5:00:00 PM 3.09 37.562 0.216 6.85 0.12 12.51
12/5/2020 5:15:00 PM 3.08 37.544 0.216 6.85 0.37 12.49
12/5/2020 5:30:00 PM 3.07 37.526 0.215 6.83 1.27 12.48
12/5/2020 5:45:00 PM 3.06 37.508 0.216 6.84 0.46 12.47
12/5/2020 6:00:00 PM 3.06 37.508 0.216 6.83 0.28 12.46
12/5/2020 6:15:00 PM 3.06 37.508 0.215 6.85 2.71 12.45
12/5/2020 6:30:00 PM 3.06 37.508 0.215 6.83 0.82 12.44
12/5/2020 6:45:00 PM 3.06 37.508 0.215 6.84 0.85 12.44
12/5/2020 7:00:00 PM 3.05 37.49 0.215 6.83 0.73 12.44
12/5/2020 7:15:00 PM 3.05 37.49 0.215 6.83 0.98 12.43
12/5/2020 7:30:00 PM 3.05 37.49 0.215 6.82 0.76 12.43
12/5/2020 7:45:00 PM 3.04 37.472 0.214 6.82 0.88 12.42
12/5/2020 8:00:00 PM 3.04 37.472 0.214 6.83 0.24 12.42
12/5/2020 8:15:00 PM 3.03 37.454 0.213 6.82 0.38 12.41
12/5/2020 8:30:00 PM 3.02 37.436 0.213 6.82 0.75 12.41
12/5/2020 8:45:00 PM 3.02 37.436 0.213 6.81 0.92 12.41
12/5/2020 9:00:00 PM 3.01 37.418 0.213 6.81 0.03 12.4
12/5/2020 9:15:00 PM 3 37.4 0.213 6.82 0.2 12.41
12/5/2020 9:30:00 PM 2.99 37.382 0.213 6.82 0.94 12.4
12/5/2020 9:45:00 PM 2.99 37.382 0.214 6.82 0.67 12.4
12/5/2020 10:00:00 PM 2.98 37.364 0.213 6.83 0.48 12.4
12/5/2020 10:15:00 PM 2.98 37.364 0.214 6.82 1.47 12.39
12/5/2020 10:30:00 PM 2.97 37.346 0.215 6.83 0.69 12.39
12/5/2020 10:45:00 PM 2.96 37.328 0.215 6.82 0.54 12.39
12/5/2020 11:00:00 PM 2.96 37.328 0.215 6.83 1.57 12.39
12/5/2020 11:15:00 PM 2.95 37.31 0.216 6.82 1.06 12.39
12/5/2020 11:30:00 PM 2.93 37.274 0.216 6.83 0.67 12.39
12/5/2020 11:45:00 PM 2.86 37.148 0.216 6.82 0.74 12.39
12/6/2020 12:00:00 AM 2.86 37.148 0.217 6.82 1.51 12.39
12/6/2020 12:15:00 AM 2.87 37.166 0.217 6.82 1.22 12.39
12/6/2020 12:30:00 AM 2.88 37.184 0.218 6.82 0.66 12.39
12/6/2020 12:45:00 AM 2.88 37.184 0.218 6.82 1.35 12.39
12/6/2020 1:00:00 AM 2.88 37.184 0.218 6.81 0.68 12.39
12/6/2020 1:15:00 AM 2.87 37.166 0.218 6.82 0.91 12.38
12/6/2020 1:30:00 AM 2.86 37.148 0.218 6.81 1.32 12.39
12/6/2020 1:45:00 AM 2.85 37.13 0.218 6.82 1 12.39
12/6/2020 2:00:00 AM 2.84 37.112 0.218 6.81 0.75 12.39
12/6/2020 2:15:00 AM 2.83 37.094 0.218 6.81 0.3 12.39
12/6/2020 2:30:00 AM 2.83 37.094 0.218 6.81 0.44 12.39
12/6/2020 2:45:00 AM 2.81 37.058 0.218 6.81 -0.09 12.4
12/6/2020 3:00:00 AM 2.79 37.022 0.218 6.82 0.23 12.4
12/6/2020 3:15:00 AM 2.78 37.004 0.217 6.82 -0.11 12.4
12/6/2020 3:30:00 AM 2.76 36.968 0.217 6.81 0.04 12.4
12/6/2020 3:45:00 AM 2.74 36.932 0.217 6.8 0.48 12.4
12/6/2020 4:00:00 AM 2.73 36.914 0.216 6.81 -0.21 12.41
12/6/2020 4:15:00 AM 2.72 36.896 0.216 6.81 0.3 12.41
12/6/2020 4:30:00 AM 2.7 36.86 0.215 6.81 -0.01 12.41
12/6/2020 4:45:00 AM 2.69 36.842 0.215 6.81 0.02 12.41
12/6/2020 5:00:00 AM 2.68 36.824 0.214 6.82 0.21 12.42
12/6/2020 5:15:00 AM 2.66 36.788 0.214 6.8 0.15 12.42
12/6/2020 5:30:00 AM 2.65 36.77 0.213 6.81 0.2 12.42
12/6/2020 5:45:00 AM 2.64 36.752 0.213 6.8 0.26 12.42
12/6/2020 6:00:00 AM 2.62 36.716 0.213 6.8 -0.31 12.43
12/6/2020 6:15:00 AM 2.6 36.68 0.213 6.8 -0.53 12.43
12/6/2020 6:30:00 AM 2.58 36.644 0.212 6.81 -0.39 12.43
12/6/2020 6:45:00 AM 2.57 36.626 0.212 6.8 -0.24 12.44
12/6/2020 7:00:00 AM 2.55 36.59 0.212 6.8 -0.4 12.44
12/6/2020 7:15:00 AM 2.54 36.572 0.212 6.8 -0.5 12.44
12/6/2020 7:30:00 AM 2.53 36.554 0.212 6.8 -0.41 12.45
12/6/2020 7:45:00 AM 2.52 36.536 0.212 6.81 -0.26 12.46
12/6/2020 8:00:00 AM 2.51 36.518 0.212 6.8 -0.37 12.47
12/6/2020 8:15:00 AM 2.52 36.536 0.211 6.8 -0.21 12.5
12/6/2020 8:30:00 AM 2.52 36.536 0.211 6.8 0.28 12.52
12/6/2020 8:45:00 AM 2.53 36.554 0.211 6.82 -0.65 12.54
12/6/2020 9:00:00 AM 2.54 36.572 0.211 6.81 -0.81 12.57
12/6/2020 9:15:00 AM 2.55 36.59 0.211 6.83 -1.07 12.61
12/6/2020 9:30:00 AM 2.56 36.608 0.211 6.82 -0.52 12.63
12/6/2020 9:45:00 AM 2.57 36.626 0.211 6.83 -1.37 12.64
12/6/2020 10:00:00 AM 2.57 36.626 0.211 6.83 -1.35 12.66
12/6/2020 10:15:00 AM 2.57 36.626 0.211 6.83 -1.83 12.67
12/6/2020 10:30:00 AM 2.56 36.608 0.211 6.83 -1.76 12.68
12/6/2020 10:45:00 AM 2.57 36.626 0.211 6.83 -1.53 12.7
12/6/2020 11:00:00 AM 2.57 36.626 0.21 6.83 -1.57 12.71
12/6/2020 11:15:00 AM 2.58 36.644 0.21 6.83 -1.89 12.72
12/6/2020 11:30:00 AM 2.58 36.644 0.21 6.83 -1.69 12.74
12/6/2020 11:45:00 AM 2.59 36.662 0.21 6.84 -2.1 12.76
12/6/2020 12:00:00 PM 2.63 36.734 0.21 6.85 -1.78 12.79
12/6/2020 12:15:00 PM 2.66 36.788 0.21 6.85 -1.78 12.81
12/6/2020 12:30:00 PM 2.69 36.842 0.21 6.85 -2.33 12.82
12/6/2020 12:45:00 PM 2.7 36.86 0.21 6.85 -2.11 12.83
12/6/2020 1:00:00 PM 2.7 36.86 0.21 6.85 -2.25 12.84
12/6/2020 1:15:00 PM 2.69 36.842 0.21 6.85 -1.99 12.85
12/6/2020 1:30:00 PM 2.68 36.824 0.21 6.85 -1.89 12.85
12/6/2020 1:45:00 PM 2.67 36.806 0.21 6.86 -2.26 12.85
12/6/2020 2:00:00 PM 2.65 36.77 0.21 6.84 -2.24 12.84
12/6/2020 2:15:00 PM 2.64 36.752 0.21 6.86 -0.79 12.84
12/6/2020 2:30:00 PM 2.62 36.716 0.21 6.84 -2.34 12.84
12/6/2020 2:45:00 PM 2.6 36.68 0.209 6.84 -2.47 12.83
12/6/2020 3:00:00 PM 2.58 36.644 0.21 6.84 -2.31 12.83
12/6/2020 3:15:00 PM 2.56 36.608 0.21 6.84 -2.17 12.82
12/6/2020 3:30:00 PM 2.54 36.572 0.209 6.85 -2.24 12.82
12/6/2020 3:45:00 PM 2.53 36.554 0.209 6.84 -1.49 12.81
12/6/2020 4:00:00 PM 2.51 36.518 0.209 6.83 -2.71 12.8
12/6/2020 4:15:00 PM 2.48 36.464 0.209 6.84 -2.39 12.79
12/6/2020 4:30:00 PM 2.46 36.428 0.209 6.84 -1.04 12.78
12/6/2020 4:45:00 PM 2.43 36.374 0.209 6.83 -1.04 12.76
12/6/2020 5:00:00 PM 2.41 36.338 0.209 6.81 -2.61 12.74
12/6/2020 5:15:00 PM 2.4 36.32 0.209 6.81 -1.88 12.73
12/6/2020 5:30:00 PM 2.38 36.284 0.209 6.81 -2.34 12.72
12/6/2020 5:45:00 PM 2.37 36.266 0.209 6.81 -2.49 12.71
12/6/2020 6:00:00 PM 2.34 36.212 0.209 6.81 -2.75 12.71
12/6/2020 6:15:00 PM 2.32 36.176 0.209 6.8 -2.68 12.7
12/6/2020 6:30:00 PM 2.31 36.158 0.209 6.81 -2.59 12.7
12/6/2020 6:45:00 PM 2.29 36.122 0.208 6.8 -2.83 12.69
12/6/2020 7:00:00 PM 2.28 36.104 0.209 6.8 -2.45 12.7
12/6/2020 7:15:00 PM 2.26 36.068 0.209 6.8 -2.61 12.7
12/6/2020 7:30:00 PM 2.24 36.032 0.209 6.79 -2.46 12.7
12/6/2020 7:45:00 PM 2.21 35.978 0.208 6.81 -0.46 12.7
12/6/2020 8:00:00 PM 2.21 35.978 0.208 6.79 -2.23 12.7
12/6/2020 8:15:00 PM 2.19 35.942 0.208 6.79 -2.21 12.7
12/6/2020 8:30:00 PM 2.18 35.924 0.208 6.79 -2.22 12.7
12/6/2020 8:45:00 PM 2.16 35.888 0.208 6.79 -2.27 12.71
12/6/2020 9:00:00 PM 2.13 35.834 0.208 6.79 -2.63 12.7
12/6/2020 9:15:00 PM 2.11 35.798 0.208 6.79 -2.54 12.71
12/6/2020 9:30:00 PM 2.1 35.78 0.208 6.81 -0.86 12.71
12/6/2020 9:45:00 PM 2.09 35.762 0.207 6.8 -2.49 12.71
12/6/2020 10:00:00 PM 2.08 35.744 0.207 6.79 -2.56 12.71
12/6/2020 10:15:00 PM 2.06 35.708 0.207 6.8 -2.71 12.71
12/6/2020 10:30:00 PM 2.05 35.69 0.207 6.79 -2.77 12.72
12/6/2020 10:45:00 PM 2.03 35.654 0.207 6.8 -2.56 12.72
12/6/2020 11:00:00 PM 2.02 35.636 0.207 6.82 -0.88 12.71
12/6/2020 11:15:00 PM 2.01 35.618 0.207 6.8 -0.71 12.72
12/6/2020 11:30:00 PM 2 35.6 0.207 6.79 -2.25 12.72
12/6/2020 11:45:00 PM 1.99 35.582 0.207 6.79 -2.48 12.72
12/7/2020 12:00:00 AM 1.98 35.564 0.207 6.79 -2.3 12.72
12/7/2020 12:15:00 AM 1.97 35.546 0.207 6.81 -1.11 12.72
12/7/2020 12:30:00 AM 1.96 35.528 0.207 6.79 -2.47 12.73
12/7/2020 12:45:00 AM 1.94 35.492 0.207 6.79 -2.75 12.73
12/7/2020 1:00:00 AM 1.91 35.438 0.207 6.79 -2.87 12.73
12/7/2020 1:15:00 AM 1.89 35.402 0.207 6.81 -1.32 12.73
12/7/2020 1:30:00 AM 1.87 35.366 0.207 6.79 -2.7 12.73
12/7/2020 1:45:00 AM 1.86 35.348 0.207 6.79 -3.08 12.74
12/7/2020 2:00:00 AM 1.85 35.33 0.207 6.79 -2.84 12.74
12/7/2020 2:15:00 AM 1.85 35.33 0.207 6.8 -2.79 12.74
12/7/2020 2:30:00 AM 1.84 35.312 0.207 6.79 -2.84 12.74
12/7/2020 2:45:00 AM 1.83 35.294 0.207 6.79 -2.84 12.74
12/7/2020 3:00:00 AM 1.83 35.294 0.207 6.79 -2.91 12.74
12/7/2020 3:15:00 AM 1.81 35.258 0.207 6.79 -2.7 12.75
12/7/2020 3:30:00 AM 1.8 35.24 0.207 6.79 -3.16 12.75
12/7/2020 3:45:00 AM 1.79 35.222 0.207 6.79 -3.18 12.75
12/7/2020 4:00:00 AM 1.77 35.186 0.207 6.79 -2.85 12.75
12/7/2020 4:15:00 AM 1.76 35.168 0.207 6.79 -2.98 12.75
12/7/2020 4:30:00 AM 1.76 35.168 0.207 6.8 -3.18 12.76
12/7/2020 4:45:00 AM 1.74 35.132 0.207 6.8 -2.75 12.76
12/7/2020 5:00:00 AM 1.73 35.114 0.207 6.79 -3.1 12.77
12/7/2020 5:15:00 AM 1.72 35.096 0.207 6.8 -3.14 12.76
12/7/2020 5:30:00 AM 1.71 35.078 0.207 6.8 -3.24 12.77
12/7/2020 5:45:00 AM 1.7 35.06 0.207 6.79 -3.03 12.77
12/7/2020 6:00:00 AM 1.69 35.042 0.207 6.79 -3.22 12.77
12/7/2020 6:15:00 AM 1.68 35.024 0.207 6.81 -1.13 12.78
12/7/2020 6:30:00 AM 1.67 35.006 0.207 6.78 -3.15 12.78
12/7/2020 6:45:00 AM 1.66 34.988 0.207 6.79 -3.24 12.78
12/7/2020 7:00:00 AM 1.65 34.97 0.207 6.79 -3.31 12.79
12/7/2020 7:15:00 AM 1.64 34.952 0.207 6.78 -3.43 12.79
12/7/2020 7:30:00 AM 1.63 34.934 0.206 6.79 -2.95 12.79
12/7/2020 7:45:00 AM 1.62 34.916 0.206 6.79 -3.44 12.8
12/7/2020 8:00:00 AM 1.62 34.916 0.207 6.81 -1.46 12.81
12/7/2020 8:15:00 AM 1.61 34.898 0.207 6.79 -3.64 12.82
12/7/2020 8:30:00 AM 1.61 34.898 0.207 6.79 -3.36 12.83
12/7/2020 8:45:00 AM 1.61 34.898 0.207 6.8 -3.6 12.86
12/7/2020 9:00:00 AM 1.64 34.952 0.207 6.81 -3.39 12.9
12/7/2020 9:15:00 AM 1.68 35.024 0.207 6.82 -3.62 12.95
12/7/2020 9:30:00 AM 1.72 35.096 0.207 6.83 -3.16 12.99
12/7/2020 9:45:00 AM 1.77 35.186 0.206 6.84 -3.49 13.03
12/7/2020 10:00:00 AM 1.81 35.258 0.207 6.84 -3.33 13.06
12/7/2020 10:15:00 AM 1.82 35.276 0.206 6.86 -1.84 13.07
12/7/2020 10:30:00 AM 1.87 35.366 0.206 6.85 -3.78 13.1
12/7/2020 10:45:00 AM 1.89 35.402 0.206 6.87 -1.88 13.11
12/7/2020 11:00:00 AM 1.89 35.402 0.206 6.86 -3.51 13.13
12/7/2020 11:15:00 AM 1.9 35.42 0.206 6.86 -3.8 13.13
12/7/2020 11:30:00 AM 2.07 35.726 0.204 7.38 21.85 12.87
12/7/2020 11:45:00 AM 1.98 35.564 0.205 7.26 3.92 13.12
12/7/2020 12:00:00 PM 2 35.6 0.205 7.3 4.07 13.12
12/7/2020 12:15:00 PM 2.01 35.618 0.205 7.31 3.93 13.13
12/7/2020 12:30:00 PM 2.01 35.618 0.205 7.29 3.93 13.12
12/7/2020 12:45:00 PM 2.01 35.618 0.205 7.32 4.05 13.12
12/7/2020 1:00:00 PM 2 35.6 0.205 7.32 3.8 13.11
12/7/2020 1:15:00 PM 1.99 35.582 0.205 7.33 3.95 13.13
12/7/2020 1:30:00 PM 2.01 35.618 0.205 7.3 3.83 13.14
12/7/2020 1:45:00 PM 2.02 35.636 0.205 7.33 3.89 13.14
12/7/2020 2:00:00 PM 2.02 35.636 0.205 7.34 3.83 13.16
12/7/2020 2:15:00 PM 2.02 35.636 0.205 7.34 3.91 13.17
12/7/2020 2:30:00 PM 2.01 35.618 0.205 7.34 4.01 13.16
12/7/2020 2:45:00 PM 1.99 35.582 0.205 7.34 4.02 13.16
12/7/2020 3:00:00 PM 1.97 35.546 0.205 7.31 4.09 13.15
12/7/2020 3:15:00 PM 1.96 35.528 0.205 7.34 3.94 13.13
12/7/2020 3:30:00 PM 1.95 35.51 0.205 7.34 3.9 13.11
12/7/2020 3:45:00 PM 1.94 35.492 0.205 7.34 3.86 13.1
12/7/2020 4:00:00 PM 1.93 35.474 0.205 7.34 3.76 13.1
12/7/2020 4:15:00 PM 1.91 35.438 0.205 7.31 3.74 13.09
12/7/2020 4:30:00 PM 1.87 35.366 0.205 7.32 3.88 13.06
12/7/2020 4:45:00 PM 1.83 35.294 0.206 7.32 3.74 13.02
12/7/2020 5:00:00 PM 1.79 35.222 0.206 7.32 3.78 12.99
12/7/2020 5:15:00 PM 1.77 35.186 0.206 7.31 3.7 12.97
12/7/2020 5:30:00 PM 1.75 35.15 0.206 7.32 3.62 12.95
12/7/2020 5:45:00 PM 1.73 35.114 0.206 7.31 3.66 12.94
12/7/2020 6:00:00 PM 1.7 35.06 0.206 7.32 3.73 12.93
12/7/2020 6:15:00 PM 1.68 35.024 0.206 7.32 3.87 12.92
12/7/2020 6:30:00 PM 1.66 34.988 0.206 7.32 3.76 12.91
12/7/2020 6:45:00 PM 1.64 34.952 0.206 7.31 3.77 12.91
12/7/2020 7:00:00 PM 1.62 34.916 0.206 7.31 3.74 12.9
12/7/2020 7:15:00 PM 1.6 34.88 0.206 7.29 3.8 12.89
12/7/2020 7:30:00 PM 1.57 34.826 0.206 7.31 3.82 12.89
12/7/2020 7:45:00 PM 1.54 34.772 0.206 7.31 3.75 12.89
12/7/2020 8:00:00 PM 1.51 34.718 0.206 7.31 3.85 12.9
12/7/2020 8:15:00 PM 1.48 34.664 0.206 7.31 3.9 12.9
12/7/2020 8:30:00 PM 1.46 34.628 0.207 7.31 3.85 12.9
12/7/2020 8:45:00 PM 1.43 34.574 0.207 7.3 3.83 12.91
12/7/2020 9:00:00 PM 1.43 34.574 0.207 7.31 3.85 12.91
12/7/2020 9:15:00 PM 1.4 34.52 0.207 7.31 3.88 12.91
12/7/2020 9:30:00 PM 1.38 34.484 0.206 7.31 3.94 12.91
12/7/2020 9:45:00 PM 1.35 34.43 0.207 7.29 3.86 12.91
12/7/2020 10:00:00 PM 1.32 34.376 0.207 7.31 3.73 12.92
12/7/2020 10:15:00 PM 1.28 34.304 0.207 7.31 3.95 12.92
12/7/2020 10:30:00 PM 1.24 34.232 0.207 7.28 3.94 12.92
12/7/2020 10:45:00 PM 1.21 34.178 0.207 7.31 3.84 12.93
12/7/2020 11:00:00 PM 1.18 34.124 0.206 7.3 3.81 12.93
12/7/2020 11:15:00 PM 1.16 34.088 0.206 7.31 3.78 12.93
12/7/2020 11:30:00 PM 1.16 34.088 0.207 7.31 3.75 12.95
12/7/2020 11:45:00 PM 1.16 34.088 0.207 7.32 3.87 12.95
12/8/2020 12:00:00 AM 1.17 34.106 0.207 7.31 3.78 12.95
12/8/2020 12:15:00 AM 1.17 34.106 0.207 7.3 3.56 12.95
12/8/2020 12:30:00 AM 1.15 34.07 0.207 7.31 3.66 12.95
12/8/2020 12:45:00 AM 1.14 34.052 0.207 7.32 3.74 12.96
12/8/2020 1:00:00 AM 1.13 34.034 0.207 7.32 3.78 12.96
12/8/2020 1:15:00 AM 1.13 34.034 0.207 7.32 3.77 12.96
12/8/2020 1:30:00 AM 1.12 34.016 0.207 7.31 3.6 12.95
12/8/2020 1:45:00 AM 1.13 34.034 0.207 7.32 3.63 12.96
12/8/2020 2:00:00 AM 1.13 34.034 0.207 7.3 3.5 12.96
12/8/2020 2:15:00 AM 1.13 34.034 0.207 7.32 3.62 12.96
12/8/2020 2:30:00 AM 1.13 34.034 0.207 7.32 3.59 12.96
12/8/2020 2:45:00 AM 1.11 33.998 0.207 7.32 3.77 12.96
12/8/2020 3:00:00 AM 1.1 33.98 0.207 7.32 3.56 12.97
12/8/2020 3:15:00 AM 1.09 33.962 0.207 7.31 3.66 12.97
12/8/2020 3:30:00 AM 1.08 33.944 0.207 7.32 3.59 12.97
12/8/2020 3:45:00 AM 1.07 33.926 0.207 7.32 3.57 12.97
12/8/2020 4:00:00 AM 1.03 33.854 0.207 7.32 3.48 12.98
12/8/2020 4:15:00 AM 1.02 33.836 0.207 7.31 3.59 12.98
12/8/2020 4:30:00 AM 1 33.8 0.207 7.31 3.62 12.98
12/8/2020 4:45:00 AM 0.98 33.764 0.207 7.31 3.6 12.99
12/8/2020 5:00:00 AM 0.95 33.71 0.207 7.31 3.62 12.99
12/8/2020 5:15:00 AM 0.93 33.674 0.207 7.32 3.54 13.01
12/8/2020 5:30:00 AM 0.91 33.638 0.207 7.32 3.57 13.01
12/8/2020 5:45:00 AM 0.88 33.584 0.207 7.32 3.71 13.02
12/8/2020 6:00:00 AM 0.86 33.548 0.207 7.3 3.6 13.03
12/8/2020 6:15:00 AM 0.84 33.512 0.207 7.32 3.57 13.03
12/8/2020 6:30:00 AM 0.81 33.458 0.207 7.31 3.55 13.03
12/8/2020 6:45:00 AM 0.79 33.422 0.207 7.32 3.49 13.06
12/8/2020 7:00:00 AM 0.77 33.386 0.207 7.32 3.53 13.05
12/8/2020 7:15:00 AM 0.75 33.35 0.208 7.32 3.53 13.06
12/8/2020 7:30:00 AM 0.72 33.296 0.208 7.32 3.79 13.07
12/8/2020 7:45:00 AM 0.72 33.296 0.208 7.32 3.4 13.1
12/8/2020 8:00:00 AM 0.72 33.296 0.208 7.33 3.9 13.14
12/8/2020 8:15:00 AM 0.72 33.296 0.208 7.34 4.04 13.19
12/8/2020 8:30:00 AM 0.75 33.35 0.208 7.34 3.81 13.24
12/8/2020 8:45:00 AM 0.79 33.422 0.208 7.36 3.81 13.29
12/8/2020 9:00:00 AM 0.83 33.494 0.208 7.36 3.86 13.33
12/8/2020 9:15:00 AM 0.88 33.584 0.208 7.36 4.01 13.36
12/8/2020 9:30:00 AM 0.94 33.692 0.208 7.37 3.98 13.4
12/8/2020 9:45:00 AM 1.01 33.818 0.208 7.38 3.84 13.43
12/8/2020 10:00:00 AM 1.09 33.962 0.207 7.39 3.93 13.45
12/8/2020 10:15:00 AM 1.2 34.16 0.207 7.39 3.91 13.47
12/8/2020 10:30:00 AM 1.28 34.304 0.207 7.38 3.92 13.47
12/8/2020 10:45:00 AM 1.4 34.52 0.207 7.39 3.83 13.48
12/8/2020 11:00:00 AM 1.39 34.502 0.207 7.4 3.66 13.48
12/8/2020 11:15:00 AM 1.38 34.484 0.208 7.39 3.58 13.48
12/8/2020 11:30:00 AM 1.36 34.448 0.208 7.4 3.55 13.48
12/8/2020 11:45:00 AM 1.37 34.466 0.208 7.4 3.55 13.49
12/8/2020 12:00:00 PM 1.41 34.538 0.208 7.4 3.54 13.5
12/8/2020 12:15:00 PM 1.43 34.574 0.208 7.41 3.68 13.51
12/8/2020 12:30:00 PM 1.47 34.646 0.208 7.42 3.53 13.5
12/8/2020 12:45:00 PM 1.5 34.7 0.208 7.42 3.65 13.51
12/8/2020 1:00:00 PM 1.55 34.79 0.208 7.42 3.54 13.52
12/8/2020 1:15:00 PM 1.6 34.88 0.208 7.42 3.59 13.53
12/8/2020 1:30:00 PM 1.65 34.97 0.208 7.43 3.46 13.54
12/8/2020 1:45:00 PM 1.68 35.024 0.208 7.42 3.47 13.54
12/8/2020 2:00:00 PM 1.69 35.042 0.208 7.43 3.37 13.54
12/8/2020 2:15:00 PM 1.71 35.078 0.208 7.43 3.29 13.53
12/8/2020 2:30:00 PM 1.7 35.06 0.208 7.43 3.21 13.52
12/8/2020 2:45:00 PM 1.68 35.024 0.208 7.43 3.25 13.5
12/8/2020 3:00:00 PM 1.66 34.988 0.208 7.43 3.26 13.48
12/8/2020 3:15:00 PM 1.64 34.952 0.208 7.43 3.28 13.48
12/8/2020 3:30:00 PM 1.61 34.898 0.208 7.42 3.47 13.45
12/8/2020 3:45:00 PM 1.58 34.844 0.208 7.42 3.33 13.43
12/8/2020 4:00:00 PM 1.56 34.808 0.208 7.42 3.28 13.4
12/8/2020 4:15:00 PM 1.53 34.754 0.209 7.41 3.35 13.37
12/8/2020 4:30:00 PM 1.5 34.7 0.209 7.41 3.3 13.33
12/8/2020 4:45:00 PM 1.47 34.646 0.209 7.4 3.35 13.29
12/8/2020 5:00:00 PM 1.44 34.592 0.209 7.39 3.35 13.26
12/8/2020 5:15:00 PM 1.43 34.574 0.209 7.38 3.48 13.23
12/8/2020 5:30:00 PM 1.42 34.556 0.209 7.38 3.45 13.21
12/8/2020 5:45:00 PM 1.4 34.52 0.209 7.37 3.48 13.19
12/8/2020 6:00:00 PM 1.39 34.502 0.21 7.37 3.5 13.17
12/8/2020 6:15:00 PM 1.38 34.484 0.21 7.36 3.41 13.15
12/8/2020 6:30:00 PM 1.38 34.484 0.21 7.36 3.49 13.15
12/8/2020 6:45:00 PM 1.36 34.448 0.21 7.36 3.53 13.14
12/8/2020 7:00:00 PM 1.35 34.43 0.21 7.35 3.32 13.12
12/8/2020 7:15:00 PM 1.35 34.43 0.21 7.36 3.47 13.12
12/8/2020 7:30:00 PM 1.34 34.412 0.21 7.35 3.3 13.11
12/8/2020 7:45:00 PM 1.33 34.394 0.21 7.35 3.41 13.11
12/8/2020 8:00:00 PM 1.31 34.358 0.21 7.35 3.38 13.1
12/8/2020 8:15:00 PM 1.3 34.34 0.21 7.35 3.33 13.1
12/8/2020 8:30:00 PM 1.28 34.304 0.21 7.35 3.43 13.1
12/8/2020 8:45:00 PM 1.26 34.268 0.21 7.34 3.35 13.1
12/8/2020 9:00:00 PM 1.25 34.25 0.21 7.34 3.3 13.1
12/8/2020 9:15:00 PM 1.24 34.232 0.21 7.34 3.39 13.1
12/8/2020 9:30:00 PM 1.23 34.214 0.21 7.35 3.44 13.09
12/8/2020 9:45:00 PM 1.21 34.178 0.21 7.34 3.39 13.09
12/8/2020 10:00:00 PM 1.2 34.16 0.21 7.34 3.35 13.08
12/8/2020 10:15:00 PM 1.19 34.142 0.21 7.34 3.44 13.09
12/8/2020 10:30:00 PM 1.18 34.124 0.211 7.34 3.37 13.08
12/8/2020 10:45:00 PM 1.18 34.124 0.211 7.34 3.44 13.08
12/8/2020 11:00:00 PM 1.17 34.106 0.211 7.34 3.51 13.07
12/8/2020 11:15:00 PM 1.16 34.088 0.211 7.34 3.43 13.08
12/8/2020 11:30:00 PM 1.15 34.07 0.211 7.33 3.54 13.07
12/8/2020 11:45:00 PM 1.14 34.052 0.211 7.34 3.52 13.07
12/9/2020 12:00:00 AM 1.13 34.034 0.211 7.33 3.49 13.07
12/9/2020 12:15:00 AM 1.13 34.034 0.211 7.33 3.3 13.07
12/9/2020 12:30:00 AM 1.11 33.998 0.211 7.33 3.48 13.07
12/9/2020 12:45:00 AM 1.1 33.98 0.211 7.34 3.53 13.06
12/9/2020 1:00:00 AM 1.09 33.962 0.211 7.33 3.5 13.06
12/9/2020 1:15:00 AM 1.07 33.926 0.211 7.33 3.54 13.07
12/9/2020 1:30:00 AM 1.05 33.89 0.211 7.33 3.42 13.06
12/9/2020 1:45:00 AM 1.04 33.872 0.211 7.33 3.49 13.06
12/9/2020 2:00:00 AM 1.03 33.854 0.211 7.33 3.37 13.05
12/9/2020 2:15:00 AM 1.01 33.818 0.211 7.33 3.46 13.06
12/9/2020 2:30:00 AM 1.01 33.818 0.211 7.33 3.39 13.06
12/9/2020 2:45:00 AM 1 33.8 0.211 7.33 3.48 13.06
12/9/2020 3:00:00 AM 0.99 33.782 0.211 7.33 3.56 13.05
12/9/2020 3:15:00 AM 0.98 33.764 0.211 7.33 3.47 13.05
12/9/2020 3:30:00 AM 0.96 33.728 0.211 7.33 3.58 13.07
12/9/2020 3:45:00 AM 0.93 33.674 0.211 7.32 3.54 13.06
12/9/2020 4:00:00 AM 0.9 33.62 0.212 7.33 3.4 13.07
12/9/2020 4:15:00 AM 0.88 33.584 0.212 7.33 3.5 13.07
12/9/2020 4:30:00 AM 0.87 33.566 0.212 7.33 3.56 13.07
12/9/2020 4:45:00 AM 0.86 33.548 0.212 7.33 3.35 13.07
12/9/2020 5:00:00 AM 0.86 33.548 0.212 7.33 3.33 13.07
12/9/2020 5:15:00 AM 0.86 33.548 0.212 7.33 3.49 13.08
12/9/2020 5:30:00 AM 0.86 33.548 0.212 7.33 3.44 13.08
12/9/2020 5:45:00 AM 0.87 33.566 0.212 7.33 3.4 13.08
12/9/2020 6:00:00 AM 0.87 33.566 0.212 7.32 3.49 13.08
12/9/2020 6:15:00 AM 0.87 33.566 0.212 7.33 3.36 13.06
12/9/2020 6:30:00 AM 0.87 33.566 0.212 7.33 3.32 13.07
12/9/2020 6:45:00 AM 0.86 33.548 0.212 7.33 3.31 13.06
12/9/2020 7:00:00 AM 0.86 33.548 0.212 7.33 3.22 13.07
12/9/2020 7:15:00 AM 0.86 33.548 0.212 7.33 3.36 13.07
12/9/2020 7:30:00 AM 0.85 33.53 0.212 7.33 3.35 13.07
12/9/2020 7:45:00 AM 0.84 33.512 0.212 7.33 3.34 13.08
12/9/2020 8:00:00 AM 0.84 33.512 0.213 7.33 3.53 13.1
12/9/2020 8:15:00 AM 0.84 33.512 0.213 7.34 3.42 13.11
12/9/2020 8:30:00 AM 0.85 33.53 0.213 7.34 3.58 13.13
12/9/2020 8:45:00 AM 0.85 33.53 0.213 7.34 4.22 13.15
12/9/2020 9:00:00 AM 0.86 33.548 0.213 7.35 3.8 13.18
12/9/2020 9:15:00 AM 0.86 33.548 0.213 7.35 3.87 13.21
12/9/2020 9:30:00 AM 0.89 33.602 0.213 7.36 3.77 13.25
12/9/2020 9:45:00 AM 0.9 33.62 0.213 7.36 3.62 13.27
12/9/2020 10:00:00 AM 0.91 33.638 0.213 7.36 3.42 13.29
12/9/2020 10:15:00 AM 0.93 33.674 0.213 7.37 3.14 13.31
12/9/2020 10:30:00 AM 0.95 33.71 0.213 7.37 3.24 13.34
12/9/2020 10:45:00 AM 0.98 33.764 0.213 7.38 3.23 13.36
12/9/2020 11:00:00 AM 1 33.8 0.213 7.38 3.03 13.38
12/9/2020 11:15:00 AM 1.03 33.854 0.213 7.38 3.14 13.4
12/9/2020 11:30:00 AM 1.06 33.908 0.213 7.39 3.21 13.42
12/9/2020 11:45:00 AM 1.07 33.926 0.213 7.39 3.33 13.42
12/9/2020 12:00:00 PM 1.11 33.998 0.213 7.39 3.21 13.43
12/9/2020 12:15:00 PM 1.14 34.052 0.213 7.4 3.35 13.45
12/9/2020 12:30:00 PM 1.16 34.088 0.213 7.4 3.2 13.45
12/9/2020 12:45:00 PM 1.2 34.16 0.213 7.4 3.26 13.46
12/9/2020 1:00:00 PM 1.22 34.196 0.213 7.4 3.41 13.46
12/9/2020 1:15:00 PM 1.25 34.25 0.213 7.4 3.37 13.46
12/9/2020 1:30:00 PM 1.27 34.286 0.213 7.4 3.19 13.46
12/9/2020 1:45:00 PM 1.29 34.322 0.213 7.41 3.12 13.47
12/9/2020 2:00:00 PM 1.3 34.34 0.213 7.41 3.1 13.46
12/9/2020 2:15:00 PM 1.31 34.358 0.213 7.41 3.2 13.45
12/9/2020 2:30:00 PM 1.32 34.376 0.213 7.41 3.13 13.44
12/9/2020 2:45:00 PM 1.33 34.394 0.213 7.41 2.96 13.43
12/9/2020 3:00:00 PM 1.33 34.394 0.213 7.4 2.97 13.43
12/9/2020 3:15:00 PM 1.34 34.412 0.213 7.41 3.01 13.41
12/9/2020 3:30:00 PM 1.34 34.412 0.213 7.4 2.99 13.38
12/9/2020 3:45:00 PM 1.34 34.412 0.213 7.4 3.08 13.34
12/9/2020 4:00:00 PM 1.34 34.412 0.213 7.39 3.18 13.31
12/9/2020 4:15:00 PM 1.33 34.394 0.213 7.39 3.18 13.27
12/9/2020 4:30:00 PM 1.33 34.394 0.213 7.38 3.21 13.23
12/9/2020 4:45:00 PM 1.33 34.394 0.214 7.37 3.22 13.2
12/9/2020 5:00:00 PM 1.32 34.376 0.214 7.37 3.23 13.17
12/9/2020 5:15:00 PM 1.32 34.376 0.214 7.37 3.25 13.14
12/9/2020 5:30:00 PM 1.32 34.376 0.214 7.36 3.23 13.13
12/9/2020 5:45:00 PM 1.32 34.376 0.214 7.36 3.16 13.11
12/9/2020 6:00:00 PM 1.32 34.376 0.214 7.36 3.22 13.1
12/9/2020 6:15:00 PM 1.33 34.394 0.214 7.35 3.25 13.09
12/9/2020 6:30:00 PM 1.33 34.394 0.214 7.35 3.26 13.07
12/9/2020 6:45:00 PM 1.34 34.412 0.214 7.35 3.25 13.07
12/9/2020 7:00:00 PM 1.35 34.43 0.215 7.35 3.28 13.06
12/9/2020 7:15:00 PM 1.36 34.448 0.215 7.35 3.38 13.05
12/9/2020 7:30:00 PM 1.37 34.466 0.215 7.35 3.27 13.05
12/9/2020 7:45:00 PM 1.38 34.484 0.215 7.35 3.26 13.04
12/9/2020 8:00:00 PM 1.38 34.484 0.215 7.35 3.25 13.03
12/9/2020 8:15:00 PM 1.39 34.502 0.215 7.35 3.25 13.03
12/9/2020 8:30:00 PM 1.4 34.52 0.215 7.34 3.31 13.02
12/9/2020 8:45:00 PM 1.41 34.538 0.215 7.34 3.28 13.01
12/9/2020 9:00:00 PM 1.42 34.556 0.215 7.34 3.2 13.01
12/9/2020 9:15:00 PM 1.43 34.574 0.215 7.35 3.33 13
12/9/2020 9:30:00 PM 1.43 34.574 0.215 7.34 3.29 13
12/9/2020 9:45:00 PM 1.44 34.592 0.215 7.34 3.28 12.99
12/9/2020 10:00:00 PM 1.45 34.61 0.215 7.32 3.23 12.99
12/9/2020 10:15:00 PM 1.45 34.61 0.215 7.34 3.32 12.99
12/9/2020 10:30:00 PM 1.46 34.628 0.215 7.34 3.3 12.98
12/9/2020 10:45:00 PM 1.47 34.646 0.215 7.33 3.31 12.97
12/9/2020 11:00:00 PM 1.48 34.664 0.215 7.34 3.34 12.97
12/9/2020 11:15:00 PM 1.49 34.682 0.215 7.34 3.12 12.97
12/9/2020 11:30:00 PM 1.49 34.682 0.215 7.34 3.39 12.96
12/9/2020 11:45:00 PM 1.5 34.7 0.215 7.33 3.35 12.95
12/10/2020 12:00:00 AM 1.5 34.7 0.215 7.32 3.29 12.94
12/10/2020 12:15:00 AM 1.5 34.7 0.215 7.33 3.45 12.94
12/10/2020 12:30:00 AM 1.51 34.718 0.215 7.33 3.29 12.94
12/10/2020 12:45:00 AM 1.51 34.718 0.215 7.33 3.45 12.93
12/10/2020 1:00:00 AM 1.51 34.718 0.215 7.33 3.3 12.93
12/10/2020 1:15:00 AM 1.51 34.718 0.215 7.33 3.33 12.93
12/10/2020 1:30:00 AM 1.51 34.718 0.215 7.33 3.28 12.94
12/10/2020 1:45:00 AM 1.52 34.736 0.215 7.33 3.36 12.93
12/10/2020 2:00:00 AM 1.53 34.754 0.215 7.33 3.38 12.93
12/10/2020 2:15:00 AM 1.54 34.772 0.215 7.33 3.96 12.92
12/10/2020 2:30:00 AM 1.55 34.79 0.215 7.33 3.39 12.92
12/10/2020 2:45:00 AM 1.56 34.808 0.215 7.33 3.38 12.92
12/10/2020 3:00:00 AM 1.57 34.826 0.215 7.33 3.36 12.91
12/10/2020 3:15:00 AM 1.58 34.844 0.215 7.34 3.58 12.91
12/10/2020 3:30:00 AM 1.59 34.862 0.215 7.34 3.55 12.91
12/10/2020 3:45:00 AM 1.6 34.88 0.215 7.33 3.44 12.91
12/10/2020 4:00:00 AM 1.61 34.898 0.215 7.33 3.46 12.91
12/10/2020 4:15:00 AM 1.62 34.916 0.215 7.34 3.51 12.91
12/10/2020 4:30:00 AM 1.62 34.916 0.215 7.34 3.46 12.9
12/10/2020 4:45:00 AM 1.63 34.934 0.215 7.34 3.46 12.9
12/10/2020 5:00:00 AM 1.63 34.934 0.215 7.34 3.63 12.9
12/10/2020 5:15:00 AM 1.64 34.952 0.215 7.34 3.67 12.9
12/10/2020 5:30:00 AM 1.65 34.97 0.215 7.34 3.59 12.9
12/10/2020 5:45:00 AM 1.66 34.988 0.215 7.34 3.59 12.9
12/10/2020 6:00:00 AM 1.67 35.006 0.215 7.34 3.54 12.89
12/10/2020 6:15:00 AM 1.67 35.006 0.215 7.34 3.44 12.89
12/10/2020 6:30:00 AM 1.68 35.024 0.215 7.33 3.54 12.89
12/10/2020 6:45:00 AM 1.68 35.024 0.215 7.34 3.5 12.89
12/10/2020 7:00:00 AM 1.69 35.042 0.215 7.34 3.53 12.89
12/10/2020 7:15:00 AM 1.7 35.06 0.215 7.34 3.49 12.89
12/10/2020 7:30:00 AM 1.71 35.078 0.216 7.33 3.43 12.89
12/10/2020 7:45:00 AM 1.72 35.096 0.216 7.34 3.4 12.9
12/10/2020 8:00:00 AM 1.73 35.114 0.216 7.34 3.3 12.91
12/10/2020 8:15:00 AM 1.75 35.15 0.216 7.35 3.41 12.94
12/10/2020 8:30:00 AM 1.77 35.186 0.216 7.35 3.37 12.98
12/10/2020 8:45:00 AM 1.79 35.222 0.216 7.36 3.71 13.02
12/10/2020 9:00:00 AM 1.83 35.294 0.215 7.36 3.59 13.08
12/10/2020 9:15:00 AM 1.87 35.366 0.215 7.37 3.56 13.13
12/10/2020 9:30:00 AM 1.92 35.456 0.215 7.38 3.39 13.18
12/10/2020 9:45:00 AM 1.98 35.564 0.215 7.39 3.46 13.23
12/10/2020 10:00:00 AM 2.04 35.672 0.215 7.39 3.43 13.27
12/10/2020 10:15:00 AM 2.11 35.798 0.215 7.4 3.33 13.3
12/10/2020 10:30:00 AM 2.17 35.906 0.215 7.41 3.28 13.32
12/10/2020 10:45:00 AM 2.25 36.05 0.215 7.41 3.27 13.34
12/10/2020 11:00:00 AM 2.3 36.14 0.215 7.41 3.28 13.35
12/10/2020 11:15:00 AM 2.4 36.32 0.215 7.43 3.31 13.37
12/10/2020 11:30:00 AM 2.51 36.518 0.215 7.43 3.27 13.4
12/10/2020 11:45:00 AM 2.61 36.698 0.214 7.44 3.28 13.4
12/10/2020 12:00:00 PM 2.75 36.95 0.214 7.44 3.24 13.4
12/10/2020 12:15:00 PM 2.83 37.094 0.214 7.44 3.29 13.4
12/10/2020 12:30:00 PM 2.94 37.292 0.214 7.45 3.26 13.4
12/10/2020 12:45:00 PM 3.08 37.544 0.214 7.45 3.2 13.39
12/10/2020 1:00:00 PM 3.19 37.742 0.214 7.45 3.3 13.37
12/10/2020 1:15:00 PM 3.26 37.868 0.214 7.45 3.27 13.37
12/10/2020 1:30:00 PM 3.32 37.976 0.214 7.46 3.54 13.35
12/10/2020 1:45:00 PM 3.38 38.084 0.214 7.46 3.44 13.34
12/10/2020 2:00:00 PM 3.4 38.12 0.214 7.46 3.48 13.33
12/10/2020 2:15:00 PM 3.41 38.138 0.214 7.46 3.39 13.31
12/10/2020 2:30:00 PM 3.42 38.156 0.214 7.46 3.46 13.3
12/10/2020 2:45:00 PM 3.4 38.12 0.214 7.46 3.52 13.29
12/10/2020 3:00:00 PM 3.37 38.066 0.214 7.47 3.52 13.27
12/10/2020 3:15:00 PM 3.31 37.958 0.214 7.46 3.45 13.25
12/10/2020 3:30:00 PM 3.22 37.796 0.215 7.46 3.38 13.24
12/10/2020 3:45:00 PM 3.1 37.58 0.215 7.45 3.48 13.2
12/10/2020 4:00:00 PM 2.97 37.346 0.215 7.45 3.5 13.16
12/10/2020 4:15:00 PM 2.86 37.148 0.215 7.43 3.69 13.1
12/10/2020 4:30:00 PM 2.78 37.004 0.215 7.43 3.64 13.07
12/10/2020 4:45:00 PM 2.71 36.878 0.215 7.41 3.68 13.02
12/10/2020 5:00:00 PM 2.65 36.77 0.216 7.4 3.53 12.97
12/10/2020 5:15:00 PM 2.6 36.68 0.216 7.39 3.6 12.93
12/10/2020 5:30:00 PM 2.57 36.626 0.216 7.38 3.64 12.9
12/10/2020 5:45:00 PM 2.53 36.554 0.216 7.39 3.69 12.87
12/10/2020 6:00:00 PM 2.5 36.5 0.216 7.37 4 12.86
12/10/2020 6:15:00 PM 2.46 36.428 0.216 7.38 3.83 12.84
12/10/2020 6:30:00 PM 2.43 36.374 0.216 7.37 3.72 12.82
12/10/2020 6:45:00 PM 2.39 36.302 0.216 7.36 3.86 12.81
12/10/2020 7:00:00 PM 2.35 36.23 0.216 7.36 3.8 12.81
12/10/2020 7:15:00 PM 2.31 36.158 0.216 7.36 3.56 12.82
12/10/2020 7:30:00 PM 2.27 36.086 0.216 7.36 3.55 12.81
12/10/2020 7:45:00 PM 2.24 36.032 0.217 7.36 3.59 12.81
12/10/2020 8:00:00 PM 2.2 35.96 0.217 7.36 3.68 12.81
12/10/2020 8:15:00 PM 2.17 35.906 0.217 7.36 3.59 12.81
12/10/2020 8:30:00 PM 2.14 35.852 0.217 7.35 3.74 12.81
12/10/2020 8:45:00 PM 2.12 35.816 0.217 7.35 3.66 12.8
12/10/2020 9:00:00 PM 2.1 35.78 0.217 7.33 3.74 12.8
12/10/2020 9:15:00 PM 2.08 35.744 0.217 7.35 3.63 12.81
12/10/2020 9:30:00 PM 2.06 35.708 0.217 7.34 3.63 12.8
12/10/2020 9:45:00 PM 2.04 35.672 0.217 7.34 3.63 12.8
12/10/2020 10:00:00 PM 2.03 35.654 0.217 7.35 3.55 12.79
12/10/2020 10:15:00 PM 2.01 35.618 0.217 7.34 3.44 12.79
12/10/2020 10:30:00 PM 1.99 35.582 0.217 7.35 3.62 12.79
12/10/2020 10:45:00 PM 1.97 35.546 0.217 7.34 3.8 12.79
12/10/2020 11:00:00 PM 1.94 35.492 0.217 7.34 3.59 12.78
12/10/2020 11:15:00 PM 1.92 35.456 0.217 7.34 3.7 12.79
12/10/2020 11:30:00 PM 1.9 35.42 0.217 7.34 3.7 12.79
12/10/2020 11:45:00 PM 1.88 35.384 0.217 7.34 3.91 12.79
12/11/2020 12:00:00 AM 1.86 35.348 0.217 7.34 3.94 12.79
12/11/2020 12:15:00 AM 1.84 35.312 0.217 7.33 3.93 12.79
12/11/2020 12:30:00 AM 1.82 35.276 0.218 7.34 3.84 12.79
12/11/2020 12:45:00 AM 1.8 35.24 0.218 7.34 3.87 12.8
12/11/2020 1:00:00 AM 1.78 35.204 0.218 7.34 3.75 12.8
12/11/2020 1:15:00 AM 1.76 35.168 0.218 7.34 3.7 12.81
12/11/2020 1:30:00 AM 1.74 35.132 0.218 7.33 3.81 12.81
12/11/2020 1:45:00 AM 1.71 35.078 0.218 7.34 3.85 12.81
12/11/2020 2:00:00 AM 1.69 35.042 0.218 7.34 3.69 12.82
12/11/2020 2:15:00 AM 1.67 35.006 0.218 7.34 3.8 12.82
12/11/2020 2:30:00 AM 1.65 34.97 0.218 7.33 3.65 12.82
12/11/2020 2:45:00 AM 1.62 34.916 0.218 7.33 3.76 12.83
12/11/2020 3:00:00 AM 1.6 34.88 0.218 7.33 3.58 12.83
12/11/2020 3:15:00 AM 1.58 34.844 0.218 7.33 3.54 12.84
12/11/2020 3:30:00 AM 1.56 34.808 0.218 7.33 3.76 12.84
12/11/2020 3:45:00 AM 1.55 34.79 0.218 7.33 3.84 12.85
12/11/2020 4:00:00 AM 1.53 34.754 0.218 7.33 3.64 12.85
12/11/2020 4:15:00 AM 1.51 34.718 0.219 7.33 3.61 12.85
12/11/2020 4:30:00 AM 1.49 34.682 0.219 7.33 3.77 12.86
12/11/2020 4:45:00 AM 1.47 34.646 0.219 7.33 3.79 12.87
12/11/2020 5:00:00 AM 1.46 34.628 0.219 7.33 3.71 12.87
12/11/2020 5:15:00 AM 1.44 34.592 0.219 7.33 3.74 12.87
12/11/2020 5:30:00 AM 1.42 34.556 0.219 7.33 3.68 12.88
12/11/2020 5:45:00 AM 1.4 34.52 0.219 7.32 3.65 12.88
12/11/2020 6:00:00 AM 1.38 34.484 0.219 7.33 3.95 12.89
12/11/2020 6:15:00 AM 1.36 34.448 0.219 7.33 3.84 12.9
12/11/2020 6:30:00 AM 1.35 34.43 0.219 7.33 3.77 12.9
12/11/2020 6:45:00 AM 1.32 34.376 0.219 7.33 3.69 12.91
12/11/2020 7:00:00 AM 1.31 34.358 0.219 7.32 3.73 12.91
12/11/2020 7:15:00 AM 1.29 34.322 0.219 7.32 3.75 12.92
12/11/2020 7:30:00 AM 1.27 34.286 0.219 7.33 3.61 12.93
12/11/2020 7:45:00 AM 1.26 34.268 0.219 7.33 3.82 12.96
12/11/2020 8:00:00 AM 1.25 34.25 0.219 7.33 3.77 13.01
12/11/2020 8:15:00 AM 1.25 34.25 0.219 7.34 4.2 13.07
12/11/2020 8:30:00 AM 1.26 34.268 0.219 7.35 4.24 13.12
12/11/2020 8:45:00 AM 1.29 34.322 0.219 7.35 4.2 13.18
12/11/2020 9:00:00 AM 1.32 34.376 0.219 7.36 4.08 13.23
12/11/2020 9:15:00 AM 1.37 34.466 0.219 7.36 4.14 13.28
12/11/2020 9:30:00 AM 1.44 34.592 0.219 7.38 4.27 13.33
12/11/2020 9:45:00 AM 1.54 34.772 0.219 7.38 4.29 13.37
12/11/2020 10:00:00 AM 1.71 35.078 0.218 7.39 4.3 13.42
12/11/2020 10:15:00 AM 1.91 35.438 0.218 7.4 4.17 13.45
12/11/2020 10:30:00 AM 2.06 35.708 0.218 7.41 3.92 13.46
12/11/2020 10:45:00 AM 2.2 35.96 0.218 7.41 3.8 13.46
12/11/2020 11:00:00 AM 2.39 36.302 0.218 7.42 3.77 13.47
12/11/2020 11:15:00 AM 2.51 36.518 0.218 7.42 3.81 13.46
12/11/2020 11:30:00 AM 2.62 36.716 0.218 7.44 3.63 13.45
12/11/2020 11:45:00 AM 2.81 37.058 0.218 7.44 3.72 13.45
12/11/2020 12:00:00 PM 2.92 37.256 0.218 7.45 3.5 13.43
12/11/2020 12:15:00 PM 3.03 37.454 0.218 7.44 3.49 13.43
12/11/2020 12:30:00 PM 3.12 37.616 0.217 7.45 3.49 13.41
12/11/2020 12:45:00 PM 3.21 37.778 0.218 7.45 3.53 13.41
12/11/2020 1:00:00 PM 3.29 37.922 0.217 7.45 3.64 13.4
12/11/2020 1:15:00 PM 3.37 38.066 0.217 7.45 3.73 13.39
12/11/2020 1:30:00 PM 3.46 38.228 0.218 7.46 3.68 13.38
12/11/2020 1:45:00 PM 3.57 38.426 0.217 7.46 3.58 13.38
12/11/2020 2:00:00 PM 3.54 38.372 0.217 7.46 3.4 13.34
12/11/2020 2:15:00 PM 3.55 38.39 0.217 7.46 3.43 13.32
12/11/2020 2:30:00 PM 3.62 38.516 0.217 7.47 3.41 13.31
12/11/2020 2:45:00 PM 3.62 38.516 0.218 7.46 3.42 13.3
12/11/2020 3:00:00 PM 3.61 38.498 0.218 7.47 3.48 13.28
12/11/2020 3:15:00 PM 3.59 38.462 0.218 7.47 3.44 13.25
12/11/2020 3:30:00 PM 3.55 38.39 0.218 7.46 3.41 13.24
12/11/2020 3:45:00 PM 3.44 38.192 0.218 7.46 3.47 13.2
12/11/2020 4:00:00 PM 3.35 38.03 0.218 7.45 3.44 13.15
12/11/2020 4:15:00 PM 3.26 37.868 0.218 7.43 3.68 13.07
12/11/2020 4:30:00 PM 3.19 37.742 0.219 7.42 3.48 13.02
12/11/2020 4:45:00 PM 3.13 37.634 0.219 7.41 3.35 12.95
12/11/2020 5:00:00 PM 3.07 37.526 0.219 7.4 3.41 12.89
12/11/2020 5:15:00 PM 3.01 37.418 0.219 7.39 3.51 12.84
12/11/2020 5:30:00 PM 2.97 37.346 0.219 7.38 3.5 12.8
12/11/2020 5:45:00 PM 2.94 37.292 0.219 7.38 3.63 12.77
12/11/2020 6:00:00 PM 2.91 37.238 0.219 7.37 3.63 12.74
12/11/2020 6:15:00 PM 2.88 37.184 0.22 7.37 3.57 12.72
12/11/2020 6:30:00 PM 2.86 37.148 0.22 7.36 3.72 12.69
12/11/2020 6:45:00 PM 2.84 37.112 0.22 7.35 3.79 12.67
12/11/2020 7:00:00 PM 2.82 37.076 0.22 7.35 3.68 12.65
12/11/2020 7:15:00 PM 2.81 37.058 0.22 7.35 3.74 12.64
12/11/2020 7:30:00 PM 2.8 37.04 0.22 7.34 3.63 12.64
12/11/2020 7:45:00 PM 2.79 37.022 0.221 7.34 3.83 12.63
12/11/2020 8:00:00 PM 2.76 36.968 0.221 7.34 3.89 12.63
12/11/2020 8:15:00 PM 2.73 36.914 0.221 7.34 3.71 12.62
12/11/2020 8:30:00 PM 2.7 36.86 0.221 7.34 3.81 12.62
12/11/2020 8:45:00 PM 2.67 36.806 0.221 7.34 3.78 12.62
12/11/2020 9:00:00 PM 2.63 36.734 0.221 7.34 3.78 12.62
12/11/2020 9:15:00 PM 2.6 36.68 0.221 7.34 3.84 12.61
12/11/2020 9:30:00 PM 2.57 36.626 0.221 7.34 3.84 12.61
12/11/2020 9:45:00 PM 2.54 36.572 0.222 7.34 4.22 12.62
12/11/2020 10:00:00 PM 2.52 36.536 0.221 7.34 3.67 12.62
12/11/2020 10:15:00 PM 2.5 36.5 0.221 7.34 3.84 12.61
12/11/2020 10:30:00 PM 2.48 36.464 0.222 7.34 3.74 12.62
12/11/2020 10:45:00 PM 2.46 36.428 0.222 7.34 3.84 12.61
12/11/2020 11:00:00 PM 2.43 36.374 0.222 7.34 3.91 12.62
12/11/2020 11:15:00 PM 2.41 36.338 0.222 7.34 3.96 12.62
12/11/2020 11:30:00 PM 2.39 36.302 0.222 7.34 3.85 12.62
12/11/2020 11:45:00 PM 2.37 36.266 0.222 7.34 3.92 12.62
12/12/2020 12:00:00 AM 2.35 36.23 0.222 7.33 3.92 12.62
12/12/2020 12:15:00 AM 2.34 36.212 0.222 7.34 3.98 12.62
12/12/2020 12:30:00 AM 2.33 36.194 0.222 7.34 3.94 12.62
12/12/2020 12:45:00 AM 2.33 36.194 0.222 7.33 3.78 12.62
12/12/2020 1:00:00 AM 2.33 36.194 0.222 7.33 3.79 12.62
12/12/2020 1:15:00 AM 2.33 36.194 0.222 7.33 3.8 12.61
12/12/2020 1:30:00 AM 2.32 36.176 0.222 7.33 3.88 12.6
12/12/2020 1:45:00 AM 2.3 36.14 0.222 7.32 4 12.6
12/12/2020 2:00:00 AM 2.28 36.104 0.222 7.32 3.79 12.6
12/12/2020 2:15:00 AM 2.28 36.104 0.223 7.32 3.8 12.6
12/12/2020 2:30:00 AM 2.27 36.086 0.223 7.32 3.85 12.6
12/12/2020 2:45:00 AM 2.25 36.05 0.223 7.32 4.12 12.61
12/12/2020 3:00:00 AM 2.23 36.014 0.223 7.32 3.92 12.61
12/12/2020 3:15:00 AM 2.22 35.996 0.223 7.32 3.95 12.61
12/12/2020 3:30:00 AM 2.2 35.96 0.223 7.31 3.99 12.61
12/12/2020 3:45:00 AM 2.17 35.906 0.223 7.32 3.88 12.61
12/12/2020 4:00:00 AM 2.15 35.87 0.223 7.32 3.93 12.62
12/12/2020 4:15:00 AM 2.15 35.87 0.222 7.32 3.83 12.62
12/12/2020 4:30:00 AM 2.14 35.852 0.223 7.32 3.88 12.63
12/12/2020 4:45:00 AM 2.14 35.852 0.222 7.32 3.92 12.63
12/12/2020 5:00:00 AM 2.14 35.852 0.222 7.32 3.99 12.63
12/12/2020 5:15:00 AM 2.15 35.87 0.222 7.32 3.94 12.64
12/12/2020 5:30:00 AM 2.16 35.888 0.223 7.32 4 12.64
12/12/2020 5:45:00 AM 2.16 35.888 0.222 7.32 4.01 12.64
12/12/2020 6:00:00 AM 2.16 35.888 0.222 7.32 3.96 12.63
12/12/2020 6:15:00 AM 2.16 35.888 0.222 7.32 4.01 12.64
12/12/2020 6:30:00 AM 2.16 35.888 0.222 7.32 3.96 12.63
12/12/2020 6:45:00 AM 2.16 35.888 0.222 7.32 3.95 12.63
12/12/2020 7:00:00 AM 2.16 35.888 0.223 7.32 4.12 12.63
12/12/2020 7:15:00 AM 2.16 35.888 0.222 7.32 4.12 12.63
12/12/2020 7:30:00 AM 2.15 35.87 0.223 7.32 4.19 12.64
12/12/2020 7:45:00 AM 2.16 35.888 0.223 7.32 3.93 12.65
12/12/2020 8:00:00 AM 2.16 35.888 0.223 7.33 3.92 12.66
12/12/2020 8:15:00 AM 2.17 35.906 0.222 7.33 3.83 12.72
12/12/2020 8:30:00 AM 2.19 35.942 0.222 7.33 3.84 12.75
12/12/2020 8:45:00 AM 2.21 35.978 0.222 7.34 3.95 12.81
12/12/2020 9:00:00 AM 2.25 36.05 0.222 7.36 3.92 12.9
12/12/2020 9:15:00 AM 2.28 36.104 0.222 7.36 4.02 12.94
12/12/2020 9:30:00 AM 2.31 36.158 0.222 7.37 3.92 12.99
12/12/2020 9:45:00 AM 2.38 36.284 0.222 7.38 3.91 13.05
12/12/2020 10:00:00 AM 2.45 36.41 0.222 7.39 3.87 13.09
12/12/2020 10:15:00 AM 2.54 36.572 0.222 7.4 3.92 13.14
12/12/2020 10:30:00 AM 2.65 36.77 0.222 7.41 3.87 13.19
12/12/2020 10:45:00 AM 2.77 36.986 0.221 7.41 3.81 13.21
12/12/2020 11:00:00 AM 2.94 37.292 0.221 7.42 3.71 13.24
12/12/2020 11:15:00 AM 3.12 37.616 0.221 7.43 3.7 13.25
12/12/2020 11:30:00 AM 3.29 37.922 0.221 7.44 3.87 13.25
12/12/2020 11:45:00 AM 3.47 38.246 0.221 7.45 3.82 13.24
12/12/2020 12:00:00 PM 3.62 38.516 0.221 7.45 3.65 13.24
12/12/2020 12:15:00 PM 3.75 38.75 0.221 7.46 3.61 13.21
12/12/2020 12:30:00 PM 3.94 39.092 0.22 7.46 3.74 13.2
12/12/2020 12:45:00 PM 4.09 39.362 0.22 7.47 3.58 13.19
12/12/2020 1:00:00 PM 4.23 39.614 0.22 7.48 3.6 13.18
12/12/2020 1:15:00 PM 4.24 39.632 0.22 7.47 4.03 13.12
12/12/2020 1:30:00 PM 4.21 39.578 0.22 7.47 3.64 13.01
12/12/2020 1:45:00 PM 4.17 39.506 0.22 7.45 3.96 12.89
12/12/2020 2:00:00 PM 4.11 39.398 0.221 7.44 3.65 12.79
12/12/2020 2:15:00 PM 4.08 39.344 0.22 7.44 3.66 12.82
12/12/2020 2:30:00 PM 4.11 39.398 0.221 7.45 3.62 12.89
12/12/2020 2:45:00 PM 4.09 39.362 0.22 7.44 3.65 12.89
12/12/2020 3:00:00 PM 4.05 39.29 0.221 7.43 3.62 12.83
12/12/2020 3:15:00 PM 4.04 39.272 0.221 7.43 3.67 12.76
12/12/2020 3:30:00 PM 4.02 39.236 0.221 7.42 3.56 12.71
12/12/2020 3:45:00 PM 3.99 39.182 0.221 7.42 3.56 12.71
12/12/2020 4:00:00 PM 3.94 39.092 0.221 7.42 3.6 12.66
12/12/2020 4:15:00 PM 3.9 39.02 0.221 7.41 3.69 12.61
12/12/2020 4:30:00 PM 3.87 38.966 0.221 7.39 3.6 12.55
12/12/2020 4:45:00 PM 3.85 38.93 0.221 7.39 3.54 12.49
12/12/2020 5:00:00 PM 3.84 38.912 0.221 7.38 3.82 12.45
12/12/2020 5:15:00 PM 3.84 38.912 0.222 7.37 3.88 12.42
12/12/2020 5:30:00 PM 3.86 38.948 0.24 7.37 6.67 12.38
12/12/2020 5:45:00 PM 3.88 38.984 0.239 7.37 6.08 12.34
12/12/2020 6:00:00 PM 3.9 39.02 0.234 7.37 5.28 12.32
12/12/2020 6:15:00 PM 3.91 39.038 0.23 7.36 4.67 12.29
12/12/2020 6:30:00 PM 3.95 39.11 0.231 7.35 4.85 12.26
12/12/2020 6:45:00 PM 3.98 39.164 0.233 7.35 4.92 12.24
12/12/2020 7:00:00 PM 3.99 39.182 0.234 7.34 5.16 12.22
12/12/2020 7:15:00 PM 4 39.2 0.232 7.35 4.94 12.2
12/12/2020 7:30:00 PM 4.01 39.218 0.23 7.34 4.94 12.19
12/12/2020 7:45:00 PM 4.01 39.218 0.228 7.34 4.83 12.18
12/12/2020 8:00:00 PM 4.02 39.236 0.23 7.35 5.41 12.16
12/12/2020 8:15:00 PM 4.02 39.236 0.23 7.34 5.37 12.16
12/12/2020 8:30:00 PM 4.02 39.236 0.228 7.34 4.98 12.15
12/12/2020 8:45:00 PM 4.01 39.218 0.227 7.34 4.78 12.14
12/12/2020 9:00:00 PM 4.01 39.218 0.228 7.33 4.95 12.13
12/12/2020 9:15:00 PM 4 39.2 0.228 7.33 4.92 12.12
12/12/2020 9:30:00 PM 3.98 39.164 0.227 7.34 4.69 12.11
12/12/2020 9:45:00 PM 3.96 39.128 0.227 7.33 4.57 12.11
12/12/2020 10:00:00 PM 3.95 39.11 0.226 7.33 4.47 12.1
12/12/2020 10:15:00 PM 3.96 39.128 0.226 7.33 4.43 12.09
12/12/2020 10:30:00 PM 3.97 39.146 0.225 7.32 4.43 12.08
12/12/2020 10:45:00 PM 3.98 39.164 0.225 7.33 4.48 12.08
12/12/2020 11:00:00 PM 4.03 39.254 0.224 7.33 4.34 12.07
12/12/2020 11:15:00 PM 4.07 39.326 0.224 7.33 4.4 12.06
12/12/2020 11:30:00 PM 4.1 39.38 0.224 7.33 4.35 12.05
12/12/2020 11:45:00 PM 4.14 39.452 0.224 7.34 4.25 12.04
12/13/2020 12:00:00 AM 4.15 39.47 0.223 7.34 4.39 12.03
12/13/2020 12:15:00 AM 4.18 39.524 0.223 7.34 4.16 12.02
12/13/2020 12:30:00 AM 4.2 39.56 0.223 7.34 4.26 12.02
12/13/2020 12:45:00 AM 4.24 39.632 0.223 7.34 4.36 12.01
12/13/2020 1:00:00 AM 4.25 39.65 0.223 7.35 4.3 12
12/13/2020 1:15:00 AM 4.26 39.668 0.223 7.34 4.22 11.99
12/13/2020 1:30:00 AM 4.29 39.722 0.223 7.35 4.24 11.98
12/13/2020 1:45:00 AM 4.32 39.776 0.223 7.35 4.44 11.97
12/13/2020 2:00:00 AM 4.33 39.794 0.223 7.34 4.35 11.96
12/13/2020 2:15:00 AM 4.36 39.848 0.223 7.35 4.11 11.95
12/13/2020 2:30:00 AM 4.37 39.866 0.223 7.35 4.43 11.95
12/13/2020 2:45:00 AM 4.39 39.902 0.223 7.35 4.17 11.94
12/13/2020 3:00:00 AM 4.41 39.938 0.223 7.35 4.21 11.93
12/13/2020 3:15:00 AM 4.42 39.956 0.223 7.34 4.31 11.92
12/13/2020 3:30:00 AM 4.43 39.974 0.223 7.35 4.3 11.91
12/13/2020 3:45:00 AM 4.45 40.01 0.223 7.35 4.1 11.91
12/13/2020 4:00:00 AM 4.46 40.028 0.222 7.35 4.33 11.9
12/13/2020 4:15:00 AM 4.45 40.01 0.222 7.35 4.33 11.9
12/13/2020 4:30:00 AM 4.42 39.956 0.223 7.35 4.4 11.89
12/13/2020 4:45:00 AM 4.4 39.92 0.222 7.35 4.42 11.89
12/13/2020 5:00:00 AM 4.38 39.884 0.222 7.34 4.31 11.89
12/13/2020 5:15:00 AM 4.34 39.812 0.222 7.35 4.43 11.89
12/13/2020 5:30:00 AM 4.33 39.794 0.222 7.35 4.46 11.9
12/13/2020 5:45:00 AM 4.33 39.794 0.222 7.35 4.27 11.9
12/13/2020 6:00:00 AM 4.32 39.776 0.222 7.35 4.5 11.9
12/13/2020 6:15:00 AM 4.31 39.758 0.222 7.36 4.36 11.9
12/13/2020 6:30:00 AM 4.31 39.758 0.222 7.35 4.45 11.9
12/13/2020 6:45:00 AM 4.31 39.758 0.222 7.36 4.38 11.9
12/13/2020 7:00:00 AM 4.3 39.74 0.222 7.36 4.49 11.9
12/13/2020 7:15:00 AM 4.29 39.722 0.222 7.36 4.36 11.91
12/13/2020 7:30:00 AM 4.29 39.722 0.222 7.36 4.55 11.91
12/13/2020 7:45:00 AM 4.28 39.704 0.222 7.36 4.58 11.92
12/13/2020 8:00:00 AM 4.28 39.704 0.221 7.36 4.48 11.93
12/13/2020 8:15:00 AM 4.28 39.704 0.221 7.36 4.52 11.95
12/13/2020 8:30:00 AM 4.28 39.704 0.221 7.37 4.38 11.96
12/13/2020 8:45:00 AM 4.28 39.704 0.221 7.37 4.37 11.97
12/13/2020 9:00:00 AM 4.28 39.704 0.221 7.37 4.45 11.98
12/13/2020 9:15:00 AM 4.3 39.74 0.22 7.38 4.57 12.02
12/13/2020 9:30:00 AM 4.31 39.758 0.22 7.38 4.38 12.06
12/13/2020 9:45:00 AM 4.32 39.776 0.22 7.39 4.22 12.1
12/13/2020 10:00:00 AM 4.33 39.794 0.22 7.4 4.31 12.15
12/13/2020 10:15:00 AM 4.35 39.83 0.219 7.4 4.2 12.19
12/13/2020 10:30:00 AM 4.37 39.866 0.219 7.41 4.37 12.22
12/13/2020 10:45:00 AM 4.39 39.902 0.219 7.41 4.22 12.25
12/13/2020 11:00:00 AM 4.41 39.938 0.219 7.42 4.14 12.29
12/13/2020 11:15:00 AM 4.42 39.956 0.218 7.43 4.19 12.28
12/13/2020 11:30:00 AM 4.43 39.974 0.218 7.43 4.29 12.3
12/13/2020 11:45:00 AM 4.46 40.028 0.218 7.43 4.17 12.36
12/13/2020 12:00:00 PM 4.46 40.028 0.218 7.44 4.14 12.35
12/13/2020 12:15:00 PM 4.48 40.064 0.218 7.44 4.18 12.38
12/13/2020 12:30:00 PM 4.49 40.082 0.218 7.45 4.12 12.42
12/13/2020 12:45:00 PM 4.48 40.064 0.218 7.45 4.12 12.36
12/13/2020 1:00:00 PM 4.49 40.082 0.217 7.45 4.15 12.37
12/13/2020 1:15:00 PM 4.51 40.118 0.217 7.46 4.02 12.44
12/13/2020 1:30:00 PM 4.5 40.1 0.217 7.45 4.06 12.39
12/13/2020 1:45:00 PM 4.5 40.1 0.217 7.46 4.21 12.4
12/13/2020 2:00:00 PM 4.5 40.1 0.217 7.45 4.08 12.39
12/13/2020 2:15:00 PM 4.49 40.082 0.217 7.45 4.14 12.35
12/13/2020 2:30:00 PM 4.49 40.082 0.217 7.44 4.01 12.31
12/13/2020 2:45:00 PM 4.48 40.064 0.217 7.43 4.15 12.3
12/13/2020 3:00:00 PM 4.46 40.028 0.217 7.43 4.29 12.29
12/13/2020 3:15:00 PM 4.45 40.01 0.217 7.43 4.2 12.26
12/13/2020 3:30:00 PM 4.43 39.974 0.217 7.43 4.42 12.23
12/13/2020 3:45:00 PM 4.42 39.956 0.217 7.43 4.35 12.22
12/13/2020 4:00:00 PM 4.41 39.938 0.216 7.42 4.5 12.21
12/13/2020 4:15:00 PM 4.39 39.902 0.216 7.42 4.49 12.18
12/13/2020 4:30:00 PM 4.38 39.884 0.216 7.41 4.33 12.15
12/13/2020 4:45:00 PM 4.36 39.848 0.216 7.41 4.44 12.12
12/13/2020 5:00:00 PM 4.35 39.83 0.216 7.4 4.61 12.1
12/13/2020 5:15:00 PM 4.34 39.812 0.216 7.4 4.6 12.09
12/13/2020 5:30:00 PM 4.33 39.794 0.217 7.4 4.83 12.06
12/13/2020 5:45:00 PM 4.32 39.776 0.217 7.39 4.82 12.05
12/13/2020 6:00:00 PM 4.3 39.74 0.216 7.39 4.71 12.04
12/13/2020 6:15:00 PM 4.29 39.722 0.217 7.39 4.79 12.04
12/13/2020 6:30:00 PM 4.29 39.722 0.217 7.39 4.66 12.04
12/13/2020 6:45:00 PM 4.28 39.704 0.217 7.39 4.66 12.03
12/13/2020 7:00:00 PM 4.27 39.686 0.217 7.38 4.78 12.03
12/13/2020 7:15:00 PM 4.26 39.668 0.217 7.38 4.73 12.03
12/13/2020 7:30:00 PM 4.25 39.65 0.217 7.38 4.74 12.03
12/13/2020 7:45:00 PM 4.25 39.65 0.218 7.38 4.78 12.03
12/13/2020 8:00:00 PM 4.24 39.632 0.218 7.38 4.84 12.02
12/13/2020 8:15:00 PM 4.24 39.632 0.218 7.38 4.86 12.02
12/13/2020 8:30:00 PM 4.23 39.614 0.218 7.38 4.46 12
12/13/2020 8:45:00 PM 4.23 39.614 0.218 7.37 4.75 12
12/13/2020 9:00:00 PM 4.22 39.596 0.218 7.37 4.62 11.99
12/13/2020 9:15:00 PM 4.22 39.596 0.218 7.37 4.62 11.99
12/13/2020 9:30:00 PM 4.21 39.578 0.219 7.37 4.64 11.98
12/13/2020 9:45:00 PM 4.21 39.578 0.219 7.37 4.53 11.98
12/13/2020 10:00:00 PM 4.2 39.56 0.219 7.36 4.89 11.97
12/13/2020 10:15:00 PM 4.2 39.56 0.219 7.36 4.57 11.97
12/13/2020 10:30:00 PM 4.19 39.542 0.219 7.36 4.73 11.97
12/13/2020 10:45:00 PM 4.19 39.542 0.219 7.36 4.53 11.96
12/13/2020 11:00:00 PM 4.18 39.524 0.219 7.36 4.73 11.96
12/13/2020 11:15:00 PM 4.18 39.524 0.219 7.36 4.62 11.96
12/13/2020 11:30:00 PM 4.17 39.506 0.219 7.36 4.62 11.96
12/13/2020 11:45:00 PM 4.17 39.506 0.219 7.36 4.71 11.96
12/14/2020 12:00:00 AM 4.17 39.506 0.219 7.36 4.65 11.96
12/14/2020 12:15:00 AM 4.16 39.488 0.219 7.36 4.85 11.96
12/14/2020 12:30:00 AM 4.16 39.488 0.219 7.36 4.6 11.96
12/14/2020 12:45:00 AM 4.15 39.47 0.219 7.36 4.59 11.95
12/14/2020 1:00:00 AM 4.14 39.452 0.219 7.36 4.68 11.96
12/14/2020 1:15:00 AM 4.13 39.434 0.219 7.36 4.96 11.95
12/14/2020 1:30:00 AM 4.12 39.416 0.219 7.36 4.72 11.96
12/14/2020 1:45:00 AM 4.11 39.398 0.22 7.36 4.78 11.95
12/14/2020 2:00:00 AM 4.1 39.38 0.22 7.36 4.87 11.95
12/14/2020 2:15:00 AM 4.1 39.38 0.22 7.36 4.78 11.95
12/14/2020 2:30:00 AM 4.09 39.362 0.221 7.36 4.7 11.94
12/14/2020 2:45:00 AM 4.09 39.362 0.221 7.36 4.87 11.95
12/14/2020 3:00:00 AM 4.08 39.344 0.221 7.36 4.74 11.95
12/14/2020 3:15:00 AM 4.08 39.344 0.221 7.36 4.69 11.94
12/14/2020 3:30:00 AM 4.08 39.344 0.222 7.36 4.84 11.94
12/14/2020 3:45:00 AM 4.07 39.326 0.222 7.36 4.95 11.94
12/14/2020 4:00:00 AM 4.07 39.326 0.222 7.36 4.77 11.94
12/14/2020 4:15:00 AM 4.06 39.308 0.222 7.36 4.87 11.94
12/14/2020 4:30:00 AM 4.02 39.236 0.222 7.36 4.91 11.94
12/14/2020 4:45:00 AM 4 39.2 0.223 7.36 5.21 11.94
12/14/2020 5:00:00 AM 3.99 39.182 0.223 7.35 4.86 11.93
12/14/2020 5:15:00 AM 3.98 39.164 0.224 7.36 5.3 11.93
12/14/2020 5:30:00 AM 3.96 39.128 0.225 7.36 5.32 11.93
12/14/2020 5:45:00 AM 3.92 39.056 0.225 7.35 5.15 11.93
12/14/2020 6:00:00 AM 3.88 38.984 0.226 7.35 5.11 11.93
12/14/2020 6:15:00 AM 3.85 38.93 0.229 7.34 5.45 11.93
12/14/2020 6:30:00 AM 3.82 38.876 0.231 7.35 5.91 11.93
12/14/2020 6:45:00 AM 3.78 38.804 0.235 7.35 5.76 11.94
12/14/2020 7:00:00 AM 3.76 38.768 0.235 7.35 6.08 11.94
12/14/2020 7:15:00 AM 3.72 38.696 0.236 7.35 5.93 11.95
12/14/2020 7:30:00 AM 3.7 38.66 0.237 7.35 5.88 11.95
12/14/2020 7:45:00 AM 3.69 38.642 0.238 7.35 6.03 11.96
12/14/2020 8:00:00 AM 3.69 38.642 0.24 7.35 6.03 11.98
12/14/2020 8:15:00 AM 3.68 38.624 0.237 7.35 5.73 11.99
12/14/2020 8:30:00 AM 3.67 38.606 0.236 7.36 5.59 12.02
12/14/2020 8:45:00 AM 3.66 38.588 0.236 7.36 5.47 12.06
12/14/2020 9:00:00 AM 3.67 38.606 0.238 7.37 5.33 12.11
12/14/2020 9:15:00 AM 3.69 38.642 0.239 7.37 5.25 12.15
12/14/2020 9:30:00 AM 3.69 38.642 0.239 7.38 5.07 12.19
12/14/2020 9:45:00 AM 3.7 38.66 0.236 7.39 4.82 12.25
12/14/2020 10:00:00 AM 3.72 38.696 0.234 7.39 4.52 12.3
12/14/2020 10:15:00 AM 3.73 38.714 0.232 7.4 4.56 12.31
12/14/2020 10:30:00 AM 3.72 38.696 0.23 7.4 4.46 12.33
12/14/2020 10:45:00 AM 3.73 38.714 0.229 7.41 4.39 12.36
12/14/2020 11:00:00 AM 3.74 38.732 0.228 7.42 4.62 12.43
12/14/2020 11:15:00 AM 3.75 38.75 0.227 7.43 4.28 12.5
12/14/2020 11:30:00 AM 3.78 38.804 0.226 7.43 4.15 12.56
12/14/2020 11:45:00 AM 3.8 38.84 0.225 7.45 4.15 12.6
12/14/2020 12:00:00 PM 3.82 38.876 0.225 7.46 4.17 12.64
12/14/2020 12:15:00 PM 3.83 38.894 0.224 7.46 4.14 12.65
12/14/2020 12:30:00 PM 3.83 38.894 0.224 7.46 4.11 12.65
12/14/2020 12:45:00 PM 3.92 39.056 0.224 7.48 4.07 12.74
12/14/2020 1:00:00 PM 3.95 39.11 0.223 7.49 4.05 12.78
12/14/2020 1:15:00 PM 3.99 39.182 0.223 7.49 3.93 12.8
12/14/2020 1:30:00 PM 3.99 39.182 0.223 7.5 4.01 12.78
12/14/2020 1:45:00 PM 3.98 39.164 0.223 7.5 4.06 12.74
12/14/2020 2:00:00 PM 3.99 39.182 0.223 7.49 4.08 12.73
12/14/2020 2:15:00 PM 3.98 39.164 0.224 7.5 4.01 12.74
12/14/2020 2:30:00 PM 3.96 39.128 0.223 7.49 3.97 12.72
12/14/2020 2:45:00 PM 3.94 39.092 0.223 7.49 4.11 12.7
12/14/2020 3:00:00 PM 3.94 39.092 0.223 7.5 4.15 12.72
12/14/2020 3:15:00 PM 3.93 39.074 0.222 7.49 4.01 12.71
12/14/2020 3:30:00 PM 3.9 39.02 0.222 7.49 4 12.66
12/14/2020 3:45:00 PM 3.87 38.966 0.222 7.48 4.01 12.59
12/14/2020 4:00:00 PM 3.84 38.912 0.222 7.47 3.99 12.53
12/14/2020 4:15:00 PM 3.8 38.84 0.222 7.46 4.01 12.52
12/14/2020 4:30:00 PM 3.76 38.768 0.222 7.45 4.21 12.48
12/14/2020 4:45:00 PM 3.71 38.678 0.222 7.45 4.02 12.43
12/14/2020 5:00:00 PM 3.67 38.606 0.222 7.44 4.02 12.39
12/14/2020 5:15:00 PM 3.62 38.516 0.222 7.43 4.22 12.35
12/14/2020 5:30:00 PM 3.58 38.444 0.222 7.42 4.2 12.33
12/14/2020 5:45:00 PM 3.52 38.336 0.222 7.42 4.32 12.32
12/14/2020 6:00:00 PM 3.47 38.246 0.222 7.41 4.29 12.31
12/14/2020 6:15:00 PM 3.42 38.156 0.222 7.41 4.35 12.31
12/14/2020 6:30:00 PM 3.36 38.048 0.222 7.4 4.4 12.3
12/14/2020 6:45:00 PM 3.3 37.94 0.223 7.4 4.18 12.3
12/14/2020 7:00:00 PM 3.26 37.868 0.223 7.4 4.29 12.3
12/14/2020 7:15:00 PM 3.21 37.778 0.223 7.4 4.15 12.32
12/14/2020 7:30:00 PM 3.17 37.706 0.223 7.4 4.29 12.32
12/14/2020 7:45:00 PM 3.15 37.67 0.223 7.4 4.39 12.32
12/14/2020 8:00:00 PM 3.13 37.634 0.223 7.4 4.3 12.33
12/14/2020 8:15:00 PM 3.1 37.58 0.223 7.39 4.18 12.33
12/14/2020 8:30:00 PM 3.08 37.544 0.223 7.39 4.25 12.34
12/14/2020 8:45:00 PM 3.06 37.508 0.224 7.39 4.59 12.35
12/14/2020 9:00:00 PM 3.01 37.418 0.224 7.39 4.47 12.35
12/14/2020 9:15:00 PM 2.95 37.31 0.225 7.38 4.55 12.36
12/14/2020 9:30:00 PM 2.92 37.256 0.225 7.39 4.41 12.37
12/14/2020 9:45:00 PM 2.89 37.202 0.224 7.39 4.59 12.37
12/14/2020 10:00:00 PM 2.82 37.076 0.225 7.39 4.39 12.38
12/14/2020 10:15:00 PM 2.78 37.004 0.224 7.39 4.35 12.39
12/14/2020 10:30:00 PM 2.74 36.932 0.224 7.39 4.33 12.41
12/14/2020 10:45:00 PM 2.72 36.896 0.224 7.39 4.37 12.41
12/14/2020 11:00:00 PM 2.69 36.842 0.224 7.39 4.39 12.41
12/14/2020 11:15:00 PM 2.66 36.788 0.224 7.39 4.4 12.42
12/14/2020 11:30:00 PM 2.63 36.734 0.224 7.38 4.61 12.44
12/14/2020 11:45:00 PM 2.6 36.68 0.224 7.38 4.38 12.44
12/15/2020 12:00:00 AM 2.57 36.626 0.224 7.38 4.2 12.45
12/15/2020 12:15:00 AM 2.56 36.608 0.224 7.39 4.34 12.46
12/15/2020 12:30:00 AM 2.55 36.59 0.223 7.38 4.7 12.46
12/15/2020 12:45:00 AM 2.52 36.536 0.224 7.38 4.32 12.47
12/15/2020 1:00:00 AM 2.51 36.518 0.223 7.38 4.5 12.48
12/15/2020 1:15:00 AM 2.48 36.464 0.223 7.38 4.32 12.48
12/15/2020 1:30:00 AM 2.45 36.41 0.223 7.38 4.3 12.5
12/15/2020 1:45:00 AM 2.44 36.392 0.223 7.38 4.33 12.5
12/15/2020 2:00:00 AM 2.41 36.338 0.223 7.38 4.27 12.51
12/15/2020 2:15:00 AM 2.39 36.302 0.223 7.37 4.5 12.51
12/15/2020 2:30:00 AM 2.36 36.248 0.223 7.38 4.16 12.53
12/15/2020 2:45:00 AM 2.33 36.194 0.223 7.38 4.33 12.54
12/15/2020 3:00:00 AM 2.32 36.176 0.223 7.37 4.6 12.54
12/15/2020 3:15:00 AM 2.3 36.14 0.223 7.38 4.31 12.56
12/15/2020 3:30:00 AM 2.27 36.086 0.223 7.38 4.32 12.56
12/15/2020 3:45:00 AM 2.24 36.032 0.223 7.37 4.43 12.58
12/15/2020 4:00:00 AM 2.22 35.996 0.223 7.38 4.35 12.58
12/15/2020 4:15:00 AM 2.2 35.96 0.223 7.38 4.47 12.58
12/15/2020 4:30:00 AM 2.18 35.924 0.224 7.37 4.35 12.6
12/15/2020 4:45:00 AM 2.16 35.888 0.223 7.38 4.3 12.6
12/15/2020 5:00:00 AM 2.14 35.852 0.223 7.38 4.37 12.61
12/15/2020 5:15:00 AM 2.12 35.816 0.223 7.37 4.38 12.62
12/15/2020 5:30:00 AM 2.11 35.798 0.223 7.38 4.29 12.63
12/15/2020 5:45:00 AM 2.1 35.78 0.223 7.38 4.37 12.64
12/15/2020 6:00:00 AM 2.09 35.762 0.223 7.38 4.29 12.64
12/15/2020 6:15:00 AM 2.07 35.726 0.223 7.36 4.2 12.66
12/15/2020 6:30:00 AM 2.06 35.708 0.223 7.37 4.34 12.65
12/15/2020 6:45:00 AM 2.04 35.672 0.223 7.37 4.36 12.66
12/15/2020 7:00:00 AM 2.02 35.636 0.223 7.37 4.39 12.67
12/15/2020 7:15:00 AM 2 35.6 0.223 7.37 4.34 12.68
12/15/2020 7:30:00 AM 1.98 35.564 0.223 7.37 4.31 12.7
12/15/2020 7:45:00 AM 1.93 35.474 0.223 7.38 4.31 12.73
12/15/2020 8:00:00 AM 1.9 35.42 0.224 7.38 4.44 12.77
12/15/2020 8:15:00 AM 1.86 35.348 0.223 7.39 4.44 12.84
12/15/2020 8:30:00 AM 1.83 35.294 0.223 7.39 4.39 12.92
12/15/2020 8:45:00 AM 1.82 35.276 0.223 7.4 4.35 13
12/15/2020 9:00:00 AM 1.8 35.24 0.223 7.41 4.36 13.07
12/15/2020 9:15:00 AM 1.79 35.222 0.223 7.42 4.33 13.16
12/15/2020 9:30:00 AM 1.79 35.222 0.223 7.43 4.37 13.23
12/15/2020 9:45:00 AM 1.84 35.312 0.223 7.44 4.41 13.3
12/15/2020 10:00:00 AM 1.92 35.456 0.223 7.46 4.44 13.37
12/15/2020 10:15:00 AM 1.99 35.582 0.223 7.46 4.49 13.43
12/15/2020 10:30:00 AM 2.07 35.726 0.223 7.48 4.33 13.48
12/15/2020 10:45:00 AM 2.17 35.906 0.223 7.48 4.36 13.52
12/15/2020 11:00:00 AM 2.25 36.05 0.222 7.49 4.18 13.55
12/15/2020 11:15:00 AM 2.35 36.23 0.222 7.5 4.34 13.58
12/15/2020 11:30:00 AM 2.47 36.446 0.222 7.5 4.26 13.6
12/15/2020 11:45:00 AM 2.57 36.626 0.222 7.51 4.32 13.61
12/15/2020 12:00:00 PM 2.71 36.878 0.222 7.52 4.24 13.63
12/15/2020 12:15:00 PM 2.77 36.986 0.222 7.53 4.25 13.62
12/15/2020 12:30:00 PM 2.82 37.076 0.222 7.53 4.22 13.62
12/15/2020 12:45:00 PM 2.91 37.238 0.222 7.53 4.12 13.63
12/15/2020 1:00:00 PM 2.89 37.202 0.222 7.54 4.16 13.63
12/15/2020 1:15:00 PM 2.87 37.166 0.222 7.54 4.19 13.63
12/15/2020 1:30:00 PM 2.86 37.148 0.222 7.54 4.04 13.62
12/15/2020 1:45:00 PM 2.89 37.202 0.222 7.54 4.06 13.63
12/15/2020 2:00:00 PM 2.89 37.202 0.221 7.55 4.24 13.64
12/15/2020 2:15:00 PM 2.89 37.202 0.222 7.53 4.23 13.64
12/15/2020 2:30:00 PM 2.86 37.148 0.222 7.55 4.34 13.63
12/15/2020 2:45:00 PM 2.84 37.112 0.222 7.55 4.26 13.63
12/15/2020 3:00:00 PM 2.79 37.022 0.222 7.54 4.27 13.63
12/15/2020 3:15:00 PM 2.73 36.914 0.222 7.55 4.17 13.62
12/15/2020 3:30:00 PM 2.67 36.806 0.222 7.54 4.18 13.62
12/15/2020 3:45:00 PM 2.6 36.68 0.223 7.53 4.21 13.6
12/15/2020 4:00:00 PM 2.51 36.518 0.223 7.53 3.95 13.56
12/15/2020 4:15:00 PM 2.44 36.392 0.223 7.52 4.1 13.51
12/15/2020 4:30:00 PM 2.36 36.248 0.223 7.51 4.36 13.44
12/15/2020 4:45:00 PM 2.29 36.122 0.224 7.49 4.11 13.36
12/15/2020 5:00:00 PM 2.22 35.996 0.224 7.48 4.04 13.29
12/15/2020 5:15:00 PM 2.17 35.906 0.224 7.45 4.03 13.24
12/15/2020 5:30:00 PM 2.12 35.816 0.225 7.45 4.04 13.2
12/15/2020 5:45:00 PM 2.07 35.726 0.225 7.44 4.02 13.16
12/15/2020 6:00:00 PM 2.03 35.654 0.226 7.43 4.09 13.12
12/15/2020 6:15:00 PM 1.99 35.582 0.227 7.42 4.05 13.1
12/15/2020 6:30:00 PM 1.95 35.51 0.227 7.41 4.08 13.08
12/15/2020 6:45:00 PM 1.91 35.438 0.227 7.41 4.14 13.07
12/15/2020 7:00:00 PM 1.88 35.384 0.228 7.41 4.01 13.06
12/15/2020 7:15:00 PM 1.84 35.312 0.229 7.39 4.1 13.06
12/15/2020 7:30:00 PM 1.79 35.222 0.229 7.4 4.28 13.05
12/15/2020 7:45:00 PM 1.75 35.15 0.23 7.4 4.1 13.05
12/15/2020 8:00:00 PM 1.71 35.078 0.231 7.39 3.97 13.05
12/15/2020 8:15:00 PM 1.67 35.006 0.232 7.39 4.17 13.04
12/15/2020 8:30:00 PM 1.63 34.934 0.232 7.38 4.06 13.05
12/15/2020 8:45:00 PM 1.6 34.88 0.233 7.38 4.06 13.04
12/15/2020 9:00:00 PM 1.57 34.826 0.234 7.38 4.29 13.03
12/15/2020 9:15:00 PM 1.55 34.79 0.235 7.37 4.19 13.03
12/15/2020 9:30:00 PM 1.53 34.754 0.235 7.37 4.15 13.03
12/15/2020 9:45:00 PM 1.51 34.718 0.236 7.36 4.14 13.03
12/15/2020 10:00:00 PM 1.49 34.682 0.237 7.37 4.09 13.04
12/15/2020 10:15:00 PM 1.48 34.664 0.238 7.37 4.18 13.04
12/15/2020 10:30:00 PM 1.47 34.646 0.238 7.37 4.12 13.04
12/15/2020 10:45:00 PM 1.44 34.592 0.239 7.37 4.11 13.04
12/15/2020 11:00:00 PM 1.42 34.556 0.239 7.36 4.16 13.04
12/15/2020 11:15:00 PM 1.39 34.502 0.24 7.37 4.12 13.04
12/15/2020 11:30:00 PM 1.36 34.448 0.241 7.36 4.04 13.04
12/15/2020 11:45:00 PM 1.33 34.394 0.241 7.37 3.98 13.04
12/16/2020 12:00:00 AM 1.29 34.322 0.242 7.37 3.91 13.05
12/16/2020 12:15:00 AM 1.24 34.232 0.242 7.36 3.95 13.06
12/16/2020 12:30:00 AM 1.21 34.178 0.242 7.36 3.93 13.06
12/16/2020 12:45:00 AM 1.18 34.124 0.242 7.36 4.12 13.06
12/16/2020 1:00:00 AM 1.14 34.052 0.243 7.35 3.94 13.06
12/16/2020 1:15:00 AM 1.11 33.998 0.242 7.35 3.95 13.07
12/16/2020 1:30:00 AM 1.08 33.944 0.243 7.35 3.9 13.07
12/16/2020 1:45:00 AM 1.05 33.89 0.242 7.36 3.96 13.08
12/16/2020 2:00:00 AM 1.02 33.836 0.242 7.35 3.96 13.09
12/16/2020 2:15:00 AM 1 33.8 0.242 7.35 3.9 13.09
12/16/2020 2:30:00 AM 0.98 33.764 0.241 7.35 3.9 13.11
12/16/2020 2:45:00 AM 0.94 33.692 0.241 7.36 3.95 13.12
12/16/2020 3:00:00 AM 0.93 33.674 0.241 7.36 3.88 13.12
12/16/2020 3:15:00 AM 0.9 33.62 0.24 7.35 3.95 13.14
12/16/2020 3:30:00 AM 0.88 33.584 0.24 7.36 3.97 13.14
12/16/2020 3:45:00 AM 0.86 33.548 0.24 7.36 3.98 13.14
12/16/2020 4:00:00 AM 0.84 33.512 0.239 7.36 3.9 13.16
12/16/2020 4:15:00 AM 0.82 33.476 0.239 7.35 4.05 13.16
12/16/2020 4:30:00 AM 0.8 33.44 0.239 7.35 3.95 13.16
12/16/2020 4:45:00 AM 0.79 33.422 0.239 7.36 3.95 13.17
12/16/2020 5:00:00 AM 0.77 33.386 0.238 7.36 3.87 13.16
12/16/2020 5:15:00 AM 0.75 33.35 0.238 7.36 3.91 13.17
12/16/2020 5:30:00 AM 0.73 33.314 0.238 7.35 3.92 13.19
12/16/2020 5:45:00 AM 0.7 33.26 0.238 7.36 3.86 13.19
12/16/2020 6:00:00 AM 0.69 33.242 0.238 7.36 3.89 13.19
12/16/2020 6:15:00 AM 0.67 33.206 0.238 7.36 3.94 13.19
12/16/2020 6:30:00 AM 0.66 33.188 0.237 7.36 3.88 13.19
12/16/2020 6:45:00 AM 0.64 33.152 0.237 7.36 4.04 13.21
12/16/2020 7:00:00 AM 0.63 33.134 0.237 7.35 4.08 13.2
12/16/2020 7:15:00 AM 0.61 33.098 0.237 7.35 4.16 13.21
12/16/2020 7:30:00 AM 0.6 33.08 0.237 7.35 4.24 13.22
12/16/2020 7:45:00 AM 0.59 33.062 0.237 7.36 4.23 13.23
12/16/2020 8:00:00 AM 0.58 33.044 0.236 7.35 4.2 13.25
12/16/2020 8:15:00 AM 0.58 33.044 0.236 7.36 4.13 13.27
12/16/2020 8:30:00 AM 0.57 33.026 0.237 7.37 4.22 13.31
12/16/2020 8:45:00 AM 0.57 33.026 0.236 7.37 4.64 13.37
12/16/2020 9:00:00 AM 0.58 33.044 0.236 7.37 4.46 13.43
12/16/2020 9:15:00 AM 0.59 33.062 0.236 7.39 4.44 13.51
12/16/2020 9:30:00 AM 0.6 33.08 0.236 7.39 4.26 13.55
12/16/2020 9:45:00 AM 0.62 33.116 0.236 7.39 4.32 13.59
12/16/2020 10:00:00 AM 0.63 33.134 0.236 7.39 4.43 13.63
12/16/2020 10:15:00 AM 0.64 33.152 0.236 7.41 4.35 13.65
12/16/2020 10:30:00 AM 0.63 33.134 0.236 7.41 4.21 13.65
12/16/2020 10:45:00 AM 0.61 33.098 0.236 7.41 4.02 13.68
12/16/2020 11:00:00 AM 0.57 33.026 0.236 7.42 3.93 13.73
12/16/2020 11:15:00 AM 0.61 33.098 0.236 7.43 3.95 13.79
12/16/2020 11:30:00 AM 0.59 33.062 0.236 7.43 4.05 13.81
12/16/2020 11:45:00 AM 0.56 33.008 0.236 7.43 4 13.81
12/16/2020 12:00:00 PM 0.54 32.972 0.236 7.44 4.07 13.8
12/16/2020 12:15:00 PM 0.47 32.846 0.236 7.44 4.01 13.8
12/16/2020 12:30:00 PM 0.43 32.774 0.235 7.44 3.95 13.82
12/16/2020 12:45:00 PM 0.34 32.612 0.235 7.44 3.95 13.83
12/16/2020 1:00:00 PM 0.25 32.45 0.235 7.44 3.99 13.84
12/16/2020 1:15:00 PM 0.16 32.288 0.235 7.44 4.07 13.84
12/16/2020 1:30:00 PM 0.07 32.126 0.235 7.44 4.14 13.84
12/16/2020 1:45:00 PM -0.01 31.982 0.235 7.44 4.44 13.86
12/16/2020 2:00:00 PM -0.04 31.928 0.235 7.43 4.52 13.86
12/16/2020 2:15:00 PM -0.06 31.892 0.235 7.44 4.85 13.86
12/16/2020 2:30:00 PM -0.06 31.892 0.235 7.43 5.24 13.84
12/16/2020 2:45:00 PM -0.06 31.892 0.235 7.43 5.67 13.84
12/16/2020 3:00:00 PM -0.06 31.892 0.235 7.43 5.4 13.83
12/16/2020 3:15:00 PM -0.06 31.892 0.235 7.42 5.28 13.84
12/16/2020 3:30:00 PM -0.06 31.892 0.235 7.42 5.31 13.82
12/16/2020 3:45:00 PM -0.06 31.892 0.236 7.41 5.39 13.79
12/16/2020 4:00:00 PM -0.06 31.892 0.237 7.41 4.86 13.79
12/16/2020 4:15:00 PM -0.06 31.892 0.237 7.39 5.05 13.76
12/16/2020 4:30:00 PM -0.05 31.91 0.238 7.38 5.02 13.72
12/16/2020 4:45:00 PM -0.05 31.91 0.238 7.38 4.73 13.68
12/16/2020 5:00:00 PM -0.05 31.91 0.239 7.37 4.93 13.65
12/16/2020 5:15:00 PM -0.05 31.91 0.24 7.38 5.35 13.62
12/16/2020 5:30:00 PM -0.05 31.91 0.241 7.38 5.47 13.59
12/16/2020 5:45:00 PM -0.05 31.91 0.242 7.37 5.44 13.56
12/16/2020 6:00:00 PM -0.05 31.91 0.242 7.37 5.5 13.52
12/16/2020 6:15:00 PM -0.05 31.91 0.242 7.36 5.63 13.49
12/16/2020 6:30:00 PM -0.04 31.928 0.244 7.36 5.62 13.46
12/16/2020 6:45:00 PM -0.05 31.91 0.244 7.33 6.25 13.43
12/16/2020 7:00:00 PM -0.06 31.892 0.244 7.32 12.89 13.39
12/16/2020 7:15:00 PM -0.06 31.892 0.244 7.3 15.79 13.36
12/16/2020 7:30:00 PM -0.06 31.892 0.243 7.3 17.06 13.36
12/16/2020 7:45:00 PM -0.06 31.892 0.242 7.3 12.81 13.33
12/16/2020 8:00:00 PM -0.06 31.892 0.24 7.3 13.93 13.31
12/16/2020 8:15:00 PM -0.06 31.892 0.24 7.27 21.48 13.3
12/16/2020 8:30:00 PM -0.07 31.874 0.239 7.28 11.9 13.3
12/16/2020 8:45:00 PM -0.07 31.874 0.239 7.28 12.39 13.3
12/16/2020 9:00:00 PM -0.07 31.874 0.238 7.27 18.51 13.28
12/16/2020 9:15:00 PM -0.07 31.874 0.239 7.26 25.27 13.26
12/16/2020 9:30:00 PM -0.07 31.874 0.239 7.27 13.04 13.26
12/16/2020 9:45:00 PM -0.07 31.874 0.239 7.28 13.06 13.26
12/16/2020 10:00:00 PM -0.07 31.874 0.238 7.27 11.85 13.24
12/16/2020 10:15:00 PM -0.07 31.874 0.237 7.27 12.22 13.23
12/16/2020 10:30:00 PM -0.07 31.874 0.236 7.25 13.5 13.21
12/16/2020 10:45:00 PM -0.07 31.874 0.236 7.25 12.45 13.17
12/16/2020 11:00:00 PM -0.06 31.892 0.236 7.24 12.52 13.14
12/16/2020 11:15:00 PM -0.07 31.874 0.239 7.24 12.22 13.11
12/16/2020 11:30:00 PM -0.07 31.874 0.24 7.23 12.01 13.09
12/16/2020 11:45:00 PM -0.07 31.874 0.239 7.24 10.83 13.09
12/17/2020 12:00:00 AM -0.07 31.874 0.239 7.24 10.89 13.07
12/17/2020 12:15:00 AM -0.07 31.874 0.239 7.24 10.42 13.05
12/17/2020 12:30:00 AM -0.07 31.874 0.239 7.23 9.14 13.03
12/17/2020 12:45:00 AM -0.07 31.874 0.24 7.24 9.15 13
12/17/2020 1:00:00 AM -0.07 31.874 0.24 7.23 9.2 12.98
12/17/2020 1:15:00 AM -0.07 31.874 0.239 7.23 9.67 12.96
12/17/2020 1:30:00 AM -0.07 31.874 0.239 7.23 9.04 12.95
12/17/2020 1:45:00 AM -0.07 31.874 0.238 7.24 8.6 12.93
12/17/2020 2:00:00 AM -0.07 31.874 0.238 7.23 9.03 12.92
12/17/2020 2:15:00 AM -0.07 31.874 0.238 7.23 8.36 12.9
12/17/2020 2:30:00 AM -0.07 31.874 0.238 7.23 7.93 12.89
12/17/2020 2:45:00 AM -0.07 31.874 0.238 7.23 7.68 12.88
12/17/2020 3:00:00 AM -0.07 31.874 0.239 7.23 7.92 12.87
12/17/2020 3:15:00 AM -0.07 31.874 0.239 7.22 7.66 12.87
12/17/2020 3:30:00 AM -0.07 31.874 0.239 7.23 7.68 12.86
12/17/2020 3:45:00 AM -0.07 31.874 0.24 7.23 7.65 12.85
12/17/2020 4:00:00 AM -0.07 31.874 0.24 7.22 8.08 12.84
12/17/2020 4:15:00 AM -0.07 31.874 0.24 7.22 8.13 12.83
12/17/2020 4:30:00 AM -0.06 31.892 0.241 7.23 8.18 12.82
12/17/2020 4:45:00 AM -0.06 31.892 0.241 7.23 8.46 12.81
12/17/2020 5:00:00 AM -0.07 31.874 0.241 7.23 7.83 12.8
12/17/2020 5:15:00 AM -0.07 31.874 0.241 7.22 7.94 12.79
12/17/2020 5:30:00 AM -0.06 31.892 0.241 7.22 7.58 12.78
12/17/2020 5:45:00 AM -0.06 31.892 0.241 7.21 7.32 12.77
12/17/2020 6:00:00 AM -0.07 31.874 0.241 7.21 6.92 12.77
12/17/2020 6:15:00 AM -0.06 31.892 0.242 7.21 6.84 12.77
12/17/2020 6:30:00 AM -0.07 31.874 0.243 7.21 6.58 12.76
12/17/2020 6:45:00 AM -0.06 31.892 0.243 7.21 6.76 12.76
12/17/2020 7:00:00 AM -0.06 31.892 0.244 7.21 6.76 12.75
12/17/2020 7:15:00 AM -0.06 31.892 0.245 7.22 7.28 12.74
12/17/2020 7:30:00 AM -0.07 31.874 0.245 7.22 6.85 12.74
12/17/2020 7:45:00 AM -0.06 31.892 0.245 7.21 7.74 12.74
12/17/2020 8:00:00 AM -0.06 31.892 0.245 7.22 7.19 12.74
12/17/2020 8:15:00 AM -0.06 31.892 0.245 7.22 7.51 12.76
12/17/2020 8:30:00 AM -0.06 31.892 0.245 7.21 7.87 12.8
12/17/2020 8:45:00 AM -0.06 31.892 0.246 7.23 7.78 12.84
12/17/2020 9:00:00 AM -0.06 31.892 0.246 7.23 7.84 12.88
12/17/2020 9:15:00 AM -0.06 31.892 0.245 7.23 7.88 12.94
12/17/2020 9:30:00 AM -0.06 31.892 0.245 7.23 8.06 12.99
12/17/2020 9:45:00 AM -0.06 31.892 0.244 7.24 7.88 13.04
12/17/2020 10:00:00 AM -0.05 31.91 0.244 7.24 7.78 13.09
12/17/2020 10:15:00 AM -0.05 31.91 0.242 7.25 8.15 13.14
12/17/2020 10:30:00 AM -0.05 31.91 0.241 7.25 8.63 13.18
12/17/2020 10:45:00 AM -0.04 31.928 0.24 7.26 8.05 13.21
12/17/2020 11:00:00 AM -0.03 31.946 0.24 7.27 8.64 13.24
12/17/2020 11:15:00 AM -0.02 31.964 0.24 7.28 9 13.27
12/17/2020 11:30:00 AM -0.01 31.982 0.239 7.28 8.73 13.3
12/17/2020 11:45:00 AM 0.01 32.018 0.243 7.3 9.2 13.33
12/17/2020 12:00:00 PM 0.04 32.072 0.243 7.3 9.41 13.35
12/17/2020 12:15:00 PM 0.06 32.108 0.244 7.31 9.02 13.36
12/17/2020 12:30:00 PM 0.1 32.18 0.244 7.32 8.48 13.38
12/17/2020 12:45:00 PM 0.15 32.27 0.244 7.32 8.6 13.4
12/17/2020 1:00:00 PM 0.18 32.324 0.243 7.33 8.42 13.43
12/17/2020 1:15:00 PM 0.1 32.18 0.242 7.33 9.3 13.44
12/17/2020 1:30:00 PM 0.18 32.324 0.241 7.34 7.75 13.45
12/17/2020 1:45:00 PM 0.25 32.45 0.24 7.35 8.97 13.46
12/17/2020 2:00:00 PM 0.29 32.522 0.241 7.35 8.2 13.48
12/17/2020 2:15:00 PM 0.33 32.594 0.241 7.36 8.06 13.48
12/17/2020 2:30:00 PM 0.38 32.684 0.241 7.35 7.71 13.49
12/17/2020 2:45:00 PM 0.39 32.702 0.241 7.36 7.57 13.48
12/17/2020 3:00:00 PM 0.39 32.702 0.24 7.36 7.56 13.47
12/17/2020 3:15:00 PM 0.38 32.684 0.241 7.36 7.31 13.45
12/17/2020 3:30:00 PM 0.36 32.648 0.239 7.36 7.35 13.42
12/17/2020 3:45:00 PM 0.37 32.666 0.239 7.35 7.5 13.4
12/17/2020 4:00:00 PM 0.35 32.63 0.239 7.35 7.46 13.39
12/17/2020 4:15:00 PM 0.34 32.612 0.238 7.35 7.35 13.37
12/17/2020 4:30:00 PM 0.33 32.594 0.238 7.35 7.03 13.34
12/17/2020 4:45:00 PM 0.32 32.576 0.238 7.34 7.16 13.3
12/17/2020 5:00:00 PM 0.31 32.558 0.239 7.34 6.75 13.28
12/17/2020 5:15:00 PM 0.3 32.54 0.242 7.33 7.01 13.25
12/17/2020 5:30:00 PM 0.31 32.558 0.243 7.33 6.76 13.23
12/17/2020 5:45:00 PM 0.31 32.558 0.243 7.32 7.15 13.21
12/17/2020 6:00:00 PM 0.31 32.558 0.243 7.32 7.13 13.18
12/17/2020 6:15:00 PM 0.31 32.558 0.242 7.31 6.87 13.17
12/17/2020 6:30:00 PM 0.3 32.54 0.241 7.31 7.4 13.17
12/17/2020 6:45:00 PM 0.29 32.522 0.24 7.31 7.95 13.16
12/17/2020 7:00:00 PM 0.29 32.522 0.24 7.31 8.28 13.16
12/17/2020 7:15:00 PM 0.28 32.504 0.239 7.3 8.26 13.16
12/17/2020 7:30:00 PM 0.28 32.504 0.239 7.3 9.09 13.16
12/17/2020 7:45:00 PM 0.27 32.486 0.239 7.28 7.87 13.15
12/17/2020 8:00:00 PM 0.27 32.486 0.238 7.3 8.43 13.15
12/17/2020 8:15:00 PM 0.26 32.468 0.238 7.3 7.8 13.15
12/17/2020 8:30:00 PM 0.26 32.468 0.238 7.29 7.69 13.15
12/17/2020 8:45:00 PM 0.26 32.468 0.237 7.29 7.7 13.15
12/17/2020 9:00:00 PM 0.26 32.468 0.237 7.29 8.34 13.15
12/17/2020 9:15:00 PM 0.26 32.468 0.237 7.27 8.51 13.15
12/17/2020 9:30:00 PM 0.26 32.468 0.237 7.28 7.81 13.14
12/17/2020 9:45:00 PM 0.26 32.468 0.236 7.28 7.81 13.14
12/17/2020 10:00:00 PM 0.26 32.468 0.236 7.28 7.93 13.13
12/17/2020 10:15:00 PM 0.26 32.468 0.236 7.28 7.7 13.13
12/17/2020 10:30:00 PM 0.27 32.486 0.236 7.27 8.17 13.13
12/17/2020 10:45:00 PM 0.27 32.486 0.235 7.27 7.79 13.13
12/17/2020 11:00:00 PM 0.27 32.486 0.235 7.27 8.04 13.12
12/17/2020 11:15:00 PM 0.27 32.486 0.235 7.27 7.99 13.13
12/17/2020 11:30:00 PM 0.27 32.486 0.235 7.27 8.43 13.12
12/17/2020 11:45:00 PM 0.27 32.486 0.234 7.27 8.14 13.12
12/18/2020 12:00:00 AM 0.27 32.486 0.234 7.25 8.43 13.12
12/18/2020 12:15:00 AM 0.27 32.486 0.233 7.26 9.37 13.12
12/18/2020 12:30:00 AM 0.27 32.486 0.234 7.26 8.72 13.11
12/18/2020 12:45:00 AM 0.26 32.468 0.234 7.26 9.25 13.1
12/18/2020 1:00:00 AM 0.26 32.468 0.233 7.26 8.61 13.1
12/18/2020 1:15:00 AM 0.26 32.468 0.233 7.26 8.53 13.11
12/18/2020 1:30:00 AM 0.26 32.468 0.233 7.24 7.81 13.11
12/18/2020 1:45:00 AM 0.25 32.45 0.233 7.26 7.86 13.11
12/18/2020 2:00:00 AM 0.25 32.45 0.233 7.26 7.5 13.11
12/18/2020 2:15:00 AM 0.24 32.432 0.233 7.26 7.11 13.11
12/18/2020 2:30:00 AM 0.23 32.414 0.232 7.25 7.54 13.11
12/18/2020 2:45:00 AM 0.23 32.414 0.232 7.25 7.67 13.11
12/18/2020 3:00:00 AM 0.22 32.396 0.232 7.26 7.29 13.11
12/18/2020 3:15:00 AM 0.22 32.396 0.232 7.26 7.34 13.11
12/18/2020 3:30:00 AM 0.22 32.396 0.232 7.26 7.63 13.11
12/18/2020 3:45:00 AM 0.22 32.396 0.232 7.26 7.44 13.11
12/18/2020 4:00:00 AM 0.22 32.396 0.231 7.24 7.17 13.11
12/18/2020 4:15:00 AM 0.22 32.396 0.231 7.25 7.29 13.11
12/18/2020 4:30:00 AM 0.22 32.396 0.231 7.25 6.92 13.11
12/18/2020 4:45:00 AM 0.21 32.378 0.231 7.26 6.83 13.12
12/18/2020 5:00:00 AM 0.22 32.396 0.231 7.25 7.12 13.11
12/18/2020 5:15:00 AM 0.22 32.396 0.23 7.26 7.71 13.12
12/18/2020 5:30:00 AM 0.23 32.414 0.231 7.26 7.51 13.12
12/18/2020 5:45:00 AM 0.23 32.414 0.23 7.25 7.76 13.12
12/18/2020 6:00:00 AM 0.23 32.414 0.23 7.26 7.53 13.12
12/18/2020 6:15:00 AM 0.23 32.414 0.23 7.25 7.14 13.12
12/18/2020 6:30:00 AM 0.23 32.414 0.23 7.26 7.75 13.12
12/18/2020 6:45:00 AM 0.23 32.414 0.23 7.25 7.69 13.12
12/18/2020 7:00:00 AM 0.23 32.414 0.23 7.26 7.82 13.12
12/18/2020 7:15:00 AM 0.24 32.432 0.23 7.25 8.15 13.12
12/18/2020 7:30:00 AM 0.24 32.432 0.23 7.26 8.49 13.12
12/18/2020 7:45:00 AM 0.23 32.414 0.23 7.26 8.45 13.13
12/18/2020 8:00:00 AM 0.23 32.414 0.23 7.26 7.8 13.13
12/18/2020 8:15:00 AM 0.23 32.414 0.23 7.26 8.34 13.14
12/18/2020 8:30:00 AM 0.23 32.414 0.23 7.25 13.09 13.17
12/18/2020 8:45:00 AM 0.25 32.45 0.23 7.27 13.27 13.21
12/18/2020 9:00:00 AM 0.26 32.468 0.23 7.27 10.75 13.26
12/18/2020 9:15:00 AM 0.29 32.522 0.23 7.28 8.92 13.3
12/18/2020 9:30:00 AM 0.32 32.576 0.23 7.28 7.14 13.36
12/18/2020 9:45:00 AM 0.35 32.63 0.23 7.29 7.4 13.41
12/18/2020 10:00:00 AM 0.37 32.666 0.23 7.3 7.27 13.45
12/18/2020 10:15:00 AM 0.45 32.81 0.23 7.3 7.23 13.5
12/18/2020 10:30:00 AM 0.57 33.026 0.23 7.31 6.39 13.55
12/18/2020 10:45:00 AM 0.61 33.098 0.23 7.31 6.5 13.58
12/18/2020 11:00:00 AM 0.64 33.152 0.23 7.32 6.76 13.6
12/18/2020 11:15:00 AM 0.58 33.044 0.231 7.32 6.6 13.6
12/18/2020 11:30:00 AM 0.61 33.098 0.231 7.32 6.67 13.63
12/18/2020 11:45:00 AM 0.69 33.242 0.23 7.33 6.57 13.64
12/18/2020 12:00:00 PM 0.71 33.278 0.23 7.33 6.39 13.65
12/18/2020 12:15:00 PM 0.71 33.278 0.23 7.33 6.6 13.66
12/18/2020 12:30:00 PM 0.71 33.278 0.229 7.34 6.8 13.68
12/18/2020 12:45:00 PM 0.7 33.26 0.229 7.34 6.43 13.69
12/18/2020 1:00:00 PM 0.71 33.278 0.23 7.33 6.35 13.69
12/18/2020 1:15:00 PM 0.78 33.404 0.229 7.33 6.3 13.7
12/18/2020 1:30:00 PM 0.81 33.458 0.229 7.34 6.28 13.71
12/18/2020 1:45:00 PM 0.77 33.386 0.229 7.34 6.12 13.71
12/18/2020 2:00:00 PM 0.76 33.368 0.229 7.35 6.17 13.71
12/18/2020 2:15:00 PM 0.7 33.26 0.229 7.34 6.2 13.71
12/18/2020 2:30:00 PM 0.67 33.206 0.229 7.35 6.13 13.72
12/18/2020 2:45:00 PM 0.63 33.134 0.229 7.35 6.31 13.73
12/18/2020 3:00:00 PM 0.6 33.08 0.229 7.35 6.25 13.73
12/18/2020 3:15:00 PM 0.58 33.044 0.23 7.35 6.33 13.73
12/18/2020 3:30:00 PM 0.54 32.972 0.231 7.35 6.43 13.71
12/18/2020 3:45:00 PM 0.51 32.918 0.23 7.35 6.52 13.69
12/18/2020 4:00:00 PM 0.47 32.846 0.23 7.35 6.4 13.67
12/18/2020 4:15:00 PM 0.44 32.792 0.229 7.34 6.4 13.64
12/18/2020 4:30:00 PM 0.41 32.738 0.23 7.34 6.39 13.6
12/18/2020 4:45:00 PM 0.38 32.684 0.23 7.33 6.5 13.56
12/18/2020 5:00:00 PM 0.35 32.63 0.23 7.33 7.13 13.52
12/18/2020 5:15:00 PM 0.33 32.594 0.23 7.32 6.51 13.49
12/18/2020 5:30:00 PM 0.31 32.558 0.23 7.32 6.41 13.47
12/18/2020 5:45:00 PM 0.3 32.54 0.23 7.31 6.12 13.45
12/18/2020 6:00:00 PM 0.29 32.522 0.23 7.3 6.01 13.43
12/18/2020 6:15:00 PM 0.28 32.504 0.23 7.31 5.93 13.42
12/18/2020 6:30:00 PM 0.26 32.468 0.23 7.31 6.1 13.42
12/18/2020 6:45:00 PM 0.26 32.468 0.23 7.31 6.61 13.41
12/18/2020 7:00:00 PM 0.26 32.468 0.23 7.3 6.44 13.39
12/18/2020 7:15:00 PM 0.26 32.468 0.23 7.3 6.04 13.39
12/18/2020 7:30:00 PM 0.26 32.468 0.231 7.3 6.38 13.39
12/18/2020 7:45:00 PM 0.26 32.468 0.231 7.3 6.43 13.39
12/18/2020 8:00:00 PM 0.18 32.324 0.244 7.29 6.77 13.39
12/18/2020 8:15:00 PM 0.22 32.396 0.236 7.3 6.22 13.39
12/18/2020 8:30:00 PM 0.23 32.414 0.233 7.3 5.9 13.39
12/18/2020 8:45:00 PM 0.24 32.432 0.232 7.3 6.03 13.38
12/18/2020 9:00:00 PM 0.25 32.45 0.232 7.3 5.86 13.38
12/18/2020 9:15:00 PM 0.26 32.468 0.232 7.3 5.92 13.38
12/18/2020 9:30:00 PM 0.26 32.468 0.232 7.3 5.9 13.37
12/18/2020 9:45:00 PM 0.27 32.486 0.232 7.28 6.15 13.37
12/18/2020 10:00:00 PM 0.27 32.486 0.232 7.29 6.18 13.37
12/18/2020 10:15:00 PM 0.26 32.468 0.232 7.29 6.62 13.36
12/18/2020 10:30:00 PM 0.26 32.468 0.232 7.29 7.33 13.36
12/18/2020 10:45:00 PM 0.26 32.468 0.232 7.29 7.52 13.35
12/18/2020 11:00:00 PM 0.27 32.486 0.232 7.28 7.6 13.34
12/18/2020 11:15:00 PM 0.27 32.486 0.232 7.29 7.43 13.34
12/18/2020 11:30:00 PM 0.27 32.486 0.232 7.28 6.7 13.33
12/18/2020 11:45:00 PM 0.27 32.486 0.232 7.28 6.54 13.32
12/19/2020 12:00:00 AM 0.27 32.486 0.232 7.28 7.37 13.32
12/19/2020 12:15:00 AM 0.27 32.486 0.232 7.28 7.08 13.32
12/19/2020 12:30:00 AM 0.27 32.486 0.232 7.29 6.64 13.32
12/19/2020 12:45:00 AM 0.27 32.486 0.232 7.28 6.36 13.32
12/19/2020 1:00:00 AM 0.27 32.486 0.232 7.28 5.98 13.32
12/19/2020 1:15:00 AM 0.28 32.504 0.232 7.28 6.13 13.32
12/19/2020 1:30:00 AM 0.28 32.504 0.233 7.28 5.75 13.32
12/19/2020 1:45:00 AM 0.29 32.522 0.232 7.28 5.93 13.32
12/19/2020 2:00:00 AM 0.29 32.522 0.233 7.28 5.74 13.31
12/19/2020 2:15:00 AM 0.3 32.54 0.233 7.28 5.96 13.3
12/19/2020 2:30:00 AM 0.3 32.54 0.233 7.27 6.17 13.29
12/19/2020 2:45:00 AM 0.31 32.558 0.233 7.27 6.17 13.29
12/19/2020 3:00:00 AM 0.31 32.558 0.233 7.27 6.1 13.29
12/19/2020 3:15:00 AM 0.32 32.576 0.233 7.27 6.89 13.29
12/19/2020 3:30:00 AM 0.32 32.576 0.233 7.27 6.43 13.28
12/19/2020 3:45:00 AM 0.32 32.576 0.233 7.27 6.22 13.27
12/19/2020 4:00:00 AM 0.33 32.594 0.233 7.27 6.3 13.27
12/19/2020 4:15:00 AM 0.33 32.594 0.233 7.27 6.37 13.27
12/19/2020 4:30:00 AM 0.33 32.594 0.233 7.27 6.04 13.28
12/19/2020 4:45:00 AM 0.32 32.576 0.233 7.27 5.85 13.27
12/19/2020 5:00:00 AM 0.33 32.594 0.233 7.27 5.86 13.27
12/19/2020 5:15:00 AM 0.33 32.594 0.233 7.27 5.65 13.27
12/19/2020 5:30:00 AM 0.33 32.594 0.233 7.27 5.55 13.27
12/19/2020 5:45:00 AM 0.33 32.594 0.233 7.27 5.62 13.27
12/19/2020 6:00:00 AM 0.33 32.594 0.233 7.27 5.79 13.27
12/19/2020 6:15:00 AM 0.33 32.594 0.233 7.27 5.67 13.27
12/19/2020 6:30:00 AM 0.34 32.612 0.234 7.28 5.58 13.27
12/19/2020 6:45:00 AM 0.34 32.612 0.234 7.27 5.62 13.26
12/19/2020 7:00:00 AM 0.34 32.612 0.234 7.27 5.88 13.26
12/19/2020 7:15:00 AM 0.33 32.594 0.233 7.27 6.09 13.26
12/19/2020 7:30:00 AM 0.34 32.612 0.233 7.27 6.1 13.26
12/19/2020 7:45:00 AM 0.34 32.612 0.234 7.27 6.15 13.27
12/19/2020 8:00:00 AM 0.34 32.612 0.233 7.27 6.55 13.29
12/19/2020 8:15:00 AM 0.35 32.63 0.234 7.28 6.96 13.32
12/19/2020 8:30:00 AM 0.37 32.666 0.234 7.28 6.9 13.37
12/19/2020 8:45:00 AM 0.39 32.702 0.234 7.29 6.2 13.43
12/19/2020 9:00:00 AM 0.42 32.756 0.234 7.29 6.14 13.5
12/19/2020 9:15:00 AM 0.45 32.81 0.233 7.3 6.04 13.56
12/19/2020 9:30:00 AM 0.5 32.9 0.233 7.3 6.3 13.62
12/19/2020 9:45:00 AM 0.54 32.972 0.233 7.31 5.84 13.69
12/19/2020 10:00:00 AM 0.61 33.098 0.233 7.32 5.98 13.73
12/19/2020 10:15:00 AM 0.61 33.098 0.233 7.32 6.25 13.76
12/19/2020 10:30:00 AM 0.66 33.188 0.233 7.33 6.45 13.8
12/19/2020 10:45:00 AM 0.72 33.296 0.233 7.34 6.25 13.83
12/19/2020 11:00:00 AM 0.77 33.386 0.232 7.34 6.14 13.84
12/19/2020 11:15:00 AM 0.82 33.476 0.233 7.34 6.52 13.87
12/19/2020 11:30:00 AM 0.88 33.584 0.232 7.35 6.16 13.89
12/19/2020 11:45:00 AM 0.93 33.674 0.232 7.36 6.32 13.89
12/19/2020 12:00:00 PM 0.99 33.782 0.232 7.36 6.52 13.89
12/19/2020 12:15:00 PM 1.05 33.89 0.232 7.36 6.8 13.89
12/19/2020 12:30:00 PM 1.09 33.962 0.232 7.37 6.04 13.91
12/19/2020 12:45:00 PM 1.13 34.034 0.232 7.37 5.88 13.91
12/19/2020 1:00:00 PM 1.13 34.034 0.232 7.36 5.68 13.91
12/19/2020 1:15:00 PM 1.15 34.07 0.232 7.37 5.54 13.91
12/19/2020 1:30:00 PM 1.17 34.106 0.231 7.37 6.33 13.9
12/19/2020 1:45:00 PM 1.16 34.088 0.231 7.37 5.42 13.89
12/19/2020 2:00:00 PM 1.15 34.07 0.232 7.37 5.64 13.89
12/19/2020 2:15:00 PM 1.13 34.034 0.232 7.37 5.48 13.87
12/19/2020 2:30:00 PM 1.09 33.962 0.232 7.36 5.44 13.86
12/19/2020 2:45:00 PM 1.05 33.89 0.232 7.36 5.4 13.84
12/19/2020 3:00:00 PM 1.01 33.818 0.232 7.36 5.4 13.83
12/19/2020 3:15:00 PM 0.97 33.746 0.232 7.36 7.16 13.81
12/19/2020 3:30:00 PM 0.93 33.674 0.232 7.36 6.13 13.79
12/19/2020 3:45:00 PM 0.9 33.62 0.232 7.36 5.46 13.76
12/19/2020 4:00:00 PM 0.87 33.566 0.232 7.36 5.42 13.77
12/19/2020 4:15:00 PM 0.83 33.494 0.232 7.36 5.84 13.76
12/19/2020 4:30:00 PM 0.78 33.404 0.232 7.35 5.73 13.71
12/19/2020 4:45:00 PM 0.72 33.296 0.232 7.34 6.02 13.64
12/19/2020 5:00:00 PM 0.67 33.206 0.233 7.34 5.93 13.59
12/19/2020 5:15:00 PM 0.62 33.116 0.233 7.33 5.8 13.55
12/19/2020 5:30:00 PM 0.59 33.062 0.232 7.32 5.52 13.52
12/19/2020 5:45:00 PM 0.54 32.972 0.233 7.31 5.77 13.5
12/19/2020 6:00:00 PM 0.5 32.9 0.233 7.31 5.75 13.48
12/19/2020 6:15:00 PM 0.47 32.846 0.233 7.31 5.54 13.46
12/19/2020 6:30:00 PM 0.46 32.828 0.233 7.3 5.58 13.44
12/19/2020 6:45:00 PM 0.45 32.81 0.233 7.3 5.59 13.43
12/19/2020 7:00:00 PM 0.44 32.792 0.233 7.29 5.59 13.41
12/19/2020 7:15:00 PM 0.44 32.792 0.233 7.29 5.63 13.41
12/19/2020 7:30:00 PM 0.45 32.81 0.233 7.29 5.71 13.4
12/19/2020 7:45:00 PM 0.45 32.81 0.233 7.29 5.6 13.4
12/19/2020 8:00:00 PM 0.45 32.81 0.233 7.29 5.61 13.39
12/19/2020 8:15:00 PM 0.46 32.828 0.233 7.29 5.73 13.39
12/19/2020 8:30:00 PM 0.46 32.828 0.233 7.29 5.61 13.38
12/19/2020 8:45:00 PM 0.47 32.846 0.233 7.29 5.71 13.37
12/19/2020 9:00:00 PM 0.47 32.846 0.233 7.29 5.62 13.37
12/19/2020 9:15:00 PM 0.47 32.846 0.233 7.29 5.58 13.36
12/19/2020 9:30:00 PM 0.48 32.864 0.233 7.29 5.57 13.36
12/19/2020 9:45:00 PM 0.47 32.846 0.233 7.29 5.57 13.36
12/19/2020 10:00:00 PM 0.47 32.846 0.234 7.29 5.73 13.35
12/19/2020 10:15:00 PM 0.46 32.828 0.234 7.29 5.82 13.34
12/19/2020 10:30:00 PM 0.46 32.828 0.233 7.29 6.01 13.34
12/19/2020 10:45:00 PM 0.46 32.828 0.233 7.29 6.1 13.34
12/19/2020 11:00:00 PM 0.46 32.828 0.233 7.29 6.07 13.33
12/19/2020 11:15:00 PM 0.46 32.828 0.233 7.29 6.04 13.33
12/19/2020 11:30:00 PM 0.46 32.828 0.233 7.29 5.84 13.32
12/19/2020 11:45:00 PM 0.46 32.828 0.233 7.29 5.83 13.31
12/20/2020 12:00:00 AM 0.47 32.846 0.233 7.29 5.64 13.31
12/20/2020 12:15:00 AM 0.47 32.846 0.233 7.29 5.65 13.3
12/20/2020 12:30:00 AM 0.49 32.882 0.233 7.28 5.65 13.3
12/20/2020 12:45:00 AM 0.49 32.882 0.233 7.29 5.49 13.29
12/20/2020 1:00:00 AM 0.5 32.9 0.233 7.28 5.52 13.29
12/20/2020 1:15:00 AM 0.5 32.9 0.233 7.28 5.75 13.28
12/20/2020 1:30:00 AM 0.5 32.9 0.233 7.28 5.52 13.27
12/20/2020 1:45:00 AM 0.49 32.882 0.233 7.28 5.48 13.27
12/20/2020 2:00:00 AM 0.49 32.882 0.233 7.29 5.4 13.27
12/20/2020 2:15:00 AM 0.49 32.882 0.233 7.28 5.71 13.27
12/20/2020 2:30:00 AM 0.49 32.882 0.233 7.28 5.77 13.27
12/20/2020 2:45:00 AM 0.49 32.882 0.233 7.28 5.73 13.26
12/20/2020 3:00:00 AM 0.49 32.882 0.233 7.28 5.83 13.26
12/20/2020 3:15:00 AM 0.49 32.882 0.233 7.28 5.78 13.25
12/20/2020 3:30:00 AM 0.49 32.882 0.233 7.28 5.75 13.25
12/20/2020 3:45:00 AM 0.49 32.882 0.233 7.27 5.87 13.24
12/20/2020 4:00:00 AM 0.49 32.882 0.233 7.28 5.84 13.25
12/20/2020 4:15:00 AM 0.49 32.882 0.233 7.28 5.81 13.24
12/20/2020 4:30:00 AM 0.5 32.9 0.233 7.28 5.63 13.24
12/20/2020 4:45:00 AM 0.5 32.9 0.233 7.28 5.51 13.23
12/20/2020 5:00:00 AM 0.5 32.9 0.233 7.28 5.51 13.23
12/20/2020 5:15:00 AM 0.5 32.9 0.234 7.27 5.51 13.23
12/20/2020 5:30:00 AM 0.5 32.9 0.233 7.28 5.5 13.23
12/20/2020 5:45:00 AM 0.49 32.882 0.233 7.27 5.7 13.22
12/20/2020 6:00:00 AM 0.45 32.81 0.233 7.28 5.43 13.22
12/20/2020 6:15:00 AM 0.43 32.774 0.233 7.28 5.6 13.22
12/20/2020 6:30:00 AM 0.44 32.792 0.233 7.27 5.26 13.22
12/20/2020 6:45:00 AM 0.43 32.774 0.234 7.28 5.35 13.22
12/20/2020 7:00:00 AM 0.4 32.72 0.234 7.27 6.03 13.22
12/20/2020 7:15:00 AM 0.4 32.72 0.234 7.28 6.07 13.21
12/20/2020 7:30:00 AM 0.39 32.702 0.234 7.28 5.96 13.22
12/20/2020 7:45:00 AM 0.34 32.612 0.234 7.28 5.9 13.22
12/20/2020 8:00:00 AM 0.33 32.594 0.233 7.28 6.42 13.24
12/20/2020 8:15:00 AM 0.33 32.594 0.233 7.28 6.49 13.25
12/20/2020 8:30:00 AM 0.29 32.522 0.233 7.28 6.44 13.28
12/20/2020 8:45:00 AM 0.31 32.558 0.233 7.28 6.34 13.33
12/20/2020 9:00:00 AM 0.36 32.648 0.233 7.3 5.86 13.39
12/20/2020 9:15:00 AM 0.4 32.72 0.234 7.3 5.67 13.45
12/20/2020 9:30:00 AM 0.45 32.81 0.234 7.31 5.65 13.49
12/20/2020 9:45:00 AM 0.5 32.9 0.233 7.31 5.62 13.56
12/20/2020 10:00:00 AM 0.56 33.008 0.233 7.32 5.62 13.61
12/20/2020 10:15:00 AM 0.63 33.134 0.233 7.33 5.72 13.65
12/20/2020 10:30:00 AM 0.72 33.296 0.232 7.33 5.99 13.69
12/20/2020 10:45:00 AM 0.76 33.368 0.235 7.34 5.78 13.7
12/20/2020 11:00:00 AM 0.79 33.422 0.246 7.33 5.85 13.68
12/20/2020 11:15:00 AM 0.82 33.476 0.249 7.34 6.47 13.66
12/20/2020 11:30:00 AM 0.84 33.512 0.248 7.35 5.7 13.67
12/20/2020 11:45:00 AM 0.86 33.548 0.251 7.35 5.68 13.67
12/20/2020 12:00:00 PM 0.87 33.566 0.25 7.34 5.86 13.68
12/20/2020 12:15:00 PM 0.88 33.584 0.25 7.35 5.86 13.66
12/20/2020 12:30:00 PM 0.9 33.62 0.25 7.35 5.84 13.66
12/20/2020 12:45:00 PM 0.92 33.656 0.249 7.35 5.77 13.66
12/20/2020 1:00:00 PM 0.94 33.692 0.249 7.35 5.43 13.68
12/20/2020 1:15:00 PM 0.95 33.71 0.248 7.35 5.57 13.68
12/20/2020 1:30:00 PM 0.97 33.746 0.247 7.35 5.73 13.67
12/20/2020 1:45:00 PM 0.98 33.764 0.246 7.36 5.51 13.69
12/20/2020 2:00:00 PM 1 33.8 0.245 7.36 5.64 13.69
12/20/2020 2:15:00 PM 1.02 33.836 0.246 7.36 6.25 13.7
12/20/2020 2:30:00 PM 1.02 33.836 0.246 7.36 7.27 13.69
12/20/2020 2:45:00 PM 1.02 33.836 0.247 7.36 5.3 13.69
12/20/2020 3:00:00 PM 1.02 33.836 0.248 7.36 5.41 13.68
12/20/2020 3:15:00 PM 1.02 33.836 0.249 7.35 5.37 13.65
12/20/2020 3:30:00 PM 1 33.8 0.25 7.35 5.24 13.62
12/20/2020 3:45:00 PM 0.98 33.764 0.249 7.36 5.54 13.59
12/20/2020 4:00:00 PM 0.96 33.728 0.249 7.35 5.71 13.54
12/20/2020 4:15:00 PM 0.94 33.692 0.249 7.35 5.4 13.48
12/20/2020 4:30:00 PM 0.92 33.656 0.249 7.33 5.35 13.46
12/20/2020 4:45:00 PM 0.89 33.602 0.248 7.33 5.48 13.39
12/20/2020 5:00:00 PM 0.87 33.566 0.247 7.33 5.39 13.36
12/20/2020 5:15:00 PM 0.86 33.548 0.247 7.32 5.79 13.33
12/20/2020 5:30:00 PM 0.84 33.512 0.246 7.31 6.4 13.29
12/20/2020 5:45:00 PM 0.82 33.476 0.245 7.3 5.84 13.26
12/20/2020 6:00:00 PM 0.81 33.458 0.244 7.3 5.56 13.25
12/20/2020 6:15:00 PM 0.8 33.44 0.244 7.3 5.63 13.24
12/20/2020 6:30:00 PM 0.8 33.44 0.244 7.3 5.62 13.23
12/20/2020 6:45:00 PM 0.79 33.422 0.243 7.29 5.63 13.21
12/20/2020 7:00:00 PM 0.78 33.404 0.243 7.3 5.43 13.21
12/20/2020 7:15:00 PM 0.77 33.386 0.242 7.29 5.81 13.18
12/20/2020 7:30:00 PM 0.77 33.386 0.241 7.29 6.02 13.18
12/20/2020 7:45:00 PM 0.77 33.386 0.241 7.29 6.09 13.18
12/20/2020 8:00:00 PM 0.76 33.368 0.241 7.29 5.28 13.19
12/20/2020 8:15:00 PM 0.76 33.368 0.24 7.29 5.35 13.18
12/20/2020 8:30:00 PM 0.76 33.368 0.24 7.28 5.84 13.16
12/20/2020 8:45:00 PM 0.75 33.35 0.239 7.28 5.25 13.17
12/20/2020 9:00:00 PM 0.75 33.35 0.239 7.28 5.39 13.16
12/20/2020 9:15:00 PM 0.75 33.35 0.238 7.28 5.6 13.16
12/20/2020 9:30:00 PM 0.75 33.35 0.238 7.28 5.56 13.16
12/20/2020 9:45:00 PM 0.75 33.35 0.238 7.28 5.53 13.16
12/20/2020 10:00:00 PM 0.75 33.35 0.24 7.28 5.75 13.15
12/20/2020 10:15:00 PM 0.75 33.35 0.241 7.28 5.81 13.15
12/20/2020 10:30:00 PM 0.75 33.35 0.242 7.28 6.21 13.16
12/20/2020 10:45:00 PM 0.75 33.35 0.241 7.28 6.13 13.15
12/20/2020 11:00:00 PM 0.75 33.35 0.241 7.28 6.62 13.15
12/20/2020 11:15:00 PM 0.75 33.35 0.24 7.28 6.17 13.16
12/20/2020 11:30:00 PM 0.75 33.35 0.241 7.29 6.32 13.15
12/20/2020 11:45:00 PM 0.75 33.35 0.241 7.28 5.93 13.15
12/21/2020 12:00:00 AM 0.75 33.35 0.241 7.28 6.13 13.15
12/21/2020 12:15:00 AM 0.74 33.332 0.241 7.28 5.95 13.14
12/21/2020 12:30:00 AM 0.74 33.332 0.24 7.28 5.81 13.15
12/21/2020 12:45:00 AM 0.73 33.314 0.24 7.28 6.2 13.13
12/21/2020 1:00:00 AM 0.72 33.296 0.239 7.28 5.9 13.14
12/21/2020 1:15:00 AM 0.71 33.278 0.239 7.28 5.93 13.13
12/21/2020 1:30:00 AM 0.71 33.278 0.238 7.28 5.77 13.14
12/21/2020 1:45:00 AM 0.71 33.278 0.238 7.28 5.56 13.14
12/21/2020 2:00:00 AM 0.71 33.278 0.238 7.28 5.62 13.14
12/21/2020 2:15:00 AM 0.7 33.26 0.237 7.28 6.26 13.14
12/21/2020 2:30:00 AM 0.7 33.26 0.237 7.28 5.8 13.13
12/21/2020 2:45:00 AM 0.7 33.26 0.237 7.29 5.9 13.14
12/21/2020 3:00:00 AM 0.67 33.206 0.237 7.28 5.93 13.14
12/21/2020 3:15:00 AM 0.63 33.134 0.236 7.29 5.62 13.14
12/21/2020 3:30:00 AM 0.62 33.116 0.236 7.28 5.72 13.14
12/21/2020 3:45:00 AM 0.62 33.116 0.236 7.29 5.84 13.14
12/21/2020 4:00:00 AM 0.61 33.098 0.236 7.29 5.66 13.14
12/21/2020 4:15:00 AM 0.6 33.08 0.236 7.29 5.46 13.14
12/21/2020 4:30:00 AM 0.58 33.044 0.236 7.29 5.68 13.14
12/21/2020 4:45:00 AM 0.56 33.008 0.236 7.28 5.58 13.15
12/21/2020 5:00:00 AM 0.58 33.044 0.235 7.29 5.48 13.14
12/21/2020 5:15:00 AM 0.59 33.062 0.235 7.29 5.49 13.14
12/21/2020 5:30:00 AM 0.6 33.08 0.235 7.28 5.51 13.14
12/21/2020 5:45:00 AM 0.62 33.116 0.235 7.29 5.33 13.14
12/21/2020 6:00:00 AM 0.63 33.134 0.235 7.29 5.53 13.14
12/21/2020 6:15:00 AM 0.63 33.134 0.235 7.29 5.42 13.12
12/21/2020 6:30:00 AM 0.63 33.134 0.235 7.29 5.53 13.13
12/21/2020 6:45:00 AM 0.64 33.152 0.235 7.3 5.75 13.13
12/21/2020 7:00:00 AM 0.64 33.152 0.234 7.29 5.89 13.12
12/21/2020 7:15:00 AM 0.65 33.17 0.234 7.3 5.66 13.12
12/21/2020 7:30:00 AM 0.65 33.17 0.234 7.3 5.76 13.13
12/21/2020 7:45:00 AM 0.64 33.152 0.234 7.3 5.78 13.14
12/21/2020 8:00:00 AM 0.64 33.152 0.234 7.3 6.4 13.18
12/21/2020 8:15:00 AM 0.66 33.188 0.233 7.31 6.02 13.23
12/21/2020 8:30:00 AM 0.67 33.206 0.233 7.31 5.89 13.27
12/21/2020 8:45:00 AM 0.7 33.26 0.233 7.31 5.85 13.34
12/21/2020 9:00:00 AM 0.77 33.386 0.233 7.32 5.96 13.42
12/21/2020 9:15:00 AM 0.82 33.476 0.233 7.33 5.87 13.49
12/21/2020 9:30:00 AM 0.86 33.548 0.232 7.34 5.74 13.53
12/21/2020 9:45:00 AM 0.93 33.674 0.233 7.35 5.88 13.57
12/21/2020 10:00:00 AM 1.01 33.818 0.232 7.35 5.71 13.63
12/21/2020 10:15:00 AM 1.06 33.908 0.232 7.36 5.7 13.65
12/21/2020 10:30:00 AM 1.13 34.034 0.232 7.37 5.91 13.68
12/21/2020 10:45:00 AM 1.25 34.25 0.232 7.38 6.05 13.71
12/21/2020 11:00:00 AM 1.29 34.322 0.231 7.39 5.59 13.73
12/21/2020 11:15:00 AM 1.34 34.412 0.231 7.39 5.5 13.73
12/21/2020 11:30:00 AM 1.38 34.484 0.231 7.4 5.59 13.74
12/21/2020 11:45:00 AM 1.43 34.574 0.231 7.4 5.69 13.74
12/21/2020 12:00:00 PM 1.5 34.7 0.231 7.41 5.53 13.76
12/21/2020 12:15:00 PM 1.58 34.844 0.231 7.41 5.69 13.77
12/21/2020 12:30:00 PM 1.63 34.934 0.231 7.42 5.69 13.77
12/21/2020 12:45:00 PM 1.68 35.024 0.232 7.42 5.75 13.77
12/21/2020 1:00:00 PM 1.71 35.078 0.232 7.42 5.93 13.75
12/21/2020 1:15:00 PM 1.7 35.06 0.233 7.43 6.01 13.74
12/21/2020 1:30:00 PM 1.7 35.06 0.233 7.43 5.92 13.73
12/21/2020 1:45:00 PM 1.74 35.132 0.234 7.43 5.73 13.73
12/21/2020 2:00:00 PM 1.78 35.204 0.235 7.43 5.87 13.74
12/21/2020 2:15:00 PM 1.76 35.168 0.235 7.44 5.86 13.72
12/21/2020 2:30:00 PM 1.7 35.06 0.235 7.44 5.81 13.66
12/21/2020 2:45:00 PM 1.69 35.042 0.236 7.43 5.92 13.65
12/21/2020 3:00:00 PM 1.69 35.042 0.236 7.43 6.19 13.67
12/21/2020 3:15:00 PM 1.65 34.97 0.237 7.44 6.18 13.65
12/21/2020 3:30:00 PM 1.61 34.898 0.237 7.43 6.29 13.64
12/21/2020 3:45:00 PM 1.58 34.844 0.238 7.43 6.25 13.63
12/21/2020 4:00:00 PM 1.51 34.718 0.238 7.42 6.11 13.57
12/21/2020 4:15:00 PM 1.46 34.628 0.239 7.41 6.22 13.5
12/21/2020 4:30:00 PM 1.41 34.538 0.239 7.41 6.41 13.43
12/21/2020 4:45:00 PM 1.36 34.448 0.239 7.4 6.43 13.38
12/21/2020 5:00:00 PM 1.31 34.358 0.239 7.39 6.81 13.33
12/21/2020 5:15:00 PM 1.26 34.268 0.239 7.38 6.69 13.3
12/21/2020 5:30:00 PM 1.22 34.196 0.239 7.38 6.68 13.27
12/21/2020 5:45:00 PM 1.18 34.124 0.239 7.37 6.77 13.24
12/21/2020 6:00:00 PM 1.15 34.07 0.238 7.37 6.7 13.22
12/21/2020 6:15:00 PM 1.12 34.016 0.238 7.36 6.33 13.21
12/21/2020 6:30:00 PM 1.09 33.962 0.238 7.36 6.09 13.19
12/21/2020 6:45:00 PM 1.06 33.908 0.237 7.35 6.25 13.19
12/21/2020 7:00:00 PM 1.04 33.872 0.238 7.35 6 13.18
12/21/2020 7:15:00 PM 1.02 33.836 0.238 7.34 6.15 13.17
12/21/2020 7:30:00 PM 1.01 33.818 0.239 7.35 5.93 13.16
12/21/2020 7:45:00 PM 1 33.8 0.24 7.35 5.94 13.16
12/21/2020 8:00:00 PM 0.98 33.764 0.24 7.35 5.76 13.16
12/21/2020 8:15:00 PM 0.97 33.746 0.239 7.35 5.96 13.16
12/21/2020 8:30:00 PM 0.95 33.71 0.24 7.35 6.02 13.16
12/21/2020 8:45:00 PM 0.94 33.692 0.244 7.35 5.97 13.16
12/21/2020 9:00:00 PM 0.92 33.656 0.249 7.34 6.25 13.15
12/21/2020 9:15:00 PM 0.91 33.638 0.261 7.34 6.45 13.15
12/21/2020 9:30:00 PM 0.91 33.638 0.273 7.34 6.46 13.15
12/21/2020 9:45:00 PM 0.9 33.62 0.276 7.34 6.45 13.15
12/21/2020 10:00:00 PM 0.9 33.62 0.271 7.34 6.39 13.14
12/21/2020 10:15:00 PM 0.89 33.602 0.269 7.33 6.21 13.13
12/21/2020 10:30:00 PM 0.89 33.602 0.268 7.33 6.1 13.12
12/21/2020 10:45:00 PM 0.87 33.566 0.267 7.33 6.14 13.12
12/21/2020 11:00:00 PM 0.87 33.566 0.271 7.33 6.18 13.11
12/21/2020 11:15:00 PM 0.86 33.548 0.293 7.33 6.63 13.11
12/21/2020 11:30:00 PM 0.84 33.512 0.305 7.33 6.83 13.09
12/21/2020 11:45:00 PM 0.83 33.494 0.297 7.33 6.76 13.09
12/22/2020 12:00:00 AM 0.83 33.494 0.292 7.33 6.46 13.1
12/22/2020 12:15:00 AM 0.79 33.422 0.289 7.33 6.42 13.09
12/22/2020 12:30:00 AM 0.72 33.296 0.282 7.33 6.45 13.08
12/22/2020 12:45:00 AM 0.66 33.188 0.285 7.33 6.82 13.09
12/22/2020 1:00:00 AM 0.62 33.116 0.293 7.34 7.74 13.09
12/22/2020 1:15:00 AM 0.61 33.098 0.282 7.34 7.47 13.1
12/22/2020 1:30:00 AM 0.61 33.098 0.289 7.33 7.31 13.11
12/22/2020 1:45:00 AM 0.61 33.098 0.304 7.33 7.75 13.12
12/22/2020 2:00:00 AM 0.63 33.134 0.295 7.34 7.44 13.12
12/22/2020 2:15:00 AM 0.64 33.152 0.284 7.34 7.18 13.12
12/22/2020 2:30:00 AM 0.67 33.206 0.275 7.34 6.88 13.11
12/22/2020 2:45:00 AM 0.69 33.242 0.268 7.34 7.09 13.12
12/22/2020 3:00:00 AM 0.69 33.242 0.264 7.34 6.61 13.12
12/22/2020 3:15:00 AM 0.7 33.26 0.259 7.34 6.85 13.11
12/22/2020 3:30:00 AM 0.71 33.278 0.256 7.34 6.96 13.11
12/22/2020 3:45:00 AM 0.72 33.296 0.252 7.34 6.72 13.11
12/22/2020 4:00:00 AM 0.72 33.296 0.249 7.34 6.44 13.11
12/22/2020 4:15:00 AM 0.72 33.296 0.247 7.33 6.57 13.11
12/22/2020 4:30:00 AM 0.73 33.314 0.245 7.34 6.77 13.1
12/22/2020 4:45:00 AM 0.72 33.296 0.243 7.34 6.22 13.11
12/22/2020 5:00:00 AM 0.72 33.296 0.242 7.34 6.43 13.12
12/22/2020 5:15:00 AM 0.72 33.296 0.241 7.34 6.48 13.12
12/22/2020 5:30:00 AM 0.72 33.296 0.24 7.34 6.35 13.12
12/22/2020 5:45:00 AM 0.72 33.296 0.239 7.34 6.37 13.13
12/22/2020 6:00:00 AM 0.72 33.296 0.238 7.34 6.15 13.13
12/22/2020 6:15:00 AM 0.72 33.296 0.237 7.34 6.4 13.13
12/22/2020 6:30:00 AM 0.72 33.296 0.237 7.34 6.15 13.13
12/22/2020 6:45:00 AM 0.72 33.296 0.236 7.34 6.08 13.14
12/22/2020 7:00:00 AM 0.73 33.314 0.236 7.34 6.14 13.14
12/22/2020 7:15:00 AM 0.73 33.314 0.235 7.35 6.29 13.14
12/22/2020 7:30:00 AM 0.73 33.314 0.234 7.35 6.15 13.14
12/22/2020 7:45:00 AM 0.72 33.296 0.234 7.35 6.19 13.16
12/22/2020 8:00:00 AM 0.71 33.278 0.233 7.35 6.64 13.16
12/22/2020 8:15:00 AM 0.71 33.278 0.233 7.35 6.51 13.18
12/22/2020 8:30:00 AM 0.71 33.278 0.233 7.36 6.43 13.2
12/22/2020 8:45:00 AM 0.71 33.278 0.232 7.36 6.67 13.21
12/22/2020 9:00:00 AM 0.71 33.278 0.232 7.36 6.65 13.23
12/22/2020 9:15:00 AM 0.71 33.278 0.232 7.37 6.64 13.3
12/22/2020 9:30:00 AM 0.72 33.296 0.231 7.38 6.71 13.36
12/22/2020 9:45:00 AM 0.73 33.314 0.231 7.38 6.68 13.39
12/22/2020 10:00:00 AM 0.76 33.368 0.232 7.39 7.1 13.45
12/22/2020 10:15:00 AM 0.78 33.404 0.234 7.4 7.01 13.5
12/22/2020 10:30:00 AM 0.8 33.44 0.234 7.4 6.83 13.52
12/22/2020 10:45:00 AM 0.83 33.494 0.235 7.41 6.83 13.56
12/22/2020 11:00:00 AM 0.86 33.548 0.235 7.41 7.34 13.58
12/22/2020 11:15:00 AM 0.87 33.566 0.235 7.41 7.03 13.6
12/22/2020 11:30:00 AM 0.88 33.584 0.236 7.42 6.96 13.61
12/22/2020 11:45:00 AM 0.9 33.62 0.236 7.42 6.73 13.65
12/22/2020 12:00:00 PM 0.92 33.656 0.237 7.43 7.46 13.65
12/22/2020 12:15:00 PM 0.95 33.71 0.238 7.43 7.65 13.67
12/22/2020 12:30:00 PM 1.04 33.872 0.236 7.44 7.69 13.71
12/22/2020 12:45:00 PM 1.05 33.89 0.235 7.44 7.58 13.7
12/22/2020 1:00:00 PM 1.05 33.89 0.234 7.44 7.45 13.67
12/22/2020 1:15:00 PM 1.05 33.89 0.233 7.44 7.1 13.61
12/22/2020 1:30:00 PM 1.04 33.872 0.233 7.44 7.22 13.6
12/22/2020 1:45:00 PM 1.03 33.854 0.231 7.44 6.83 13.61
12/22/2020 2:00:00 PM 1 33.8 0.231 7.44 7.21 13.59
12/22/2020 2:15:00 PM 0.99 33.782 0.23 7.43 7.37 13.57
12/22/2020 2:30:00 PM 0.97 33.746 0.229 7.43 7.28 13.53
12/22/2020 2:45:00 PM 0.95 33.71 0.228 7.43 7.31 13.54
12/22/2020 3:00:00 PM 0.94 33.692 0.227 7.43 6.83 13.54
12/22/2020 3:15:00 PM 0.94 33.692 0.227 7.43 7.34 13.55
12/22/2020 3:30:00 PM 0.92 33.656 0.226 7.42 7.03 13.53
12/22/2020 3:45:00 PM 0.92 33.656 0.226 7.42 7.25 13.5
12/22/2020 4:00:00 PM 0.91 33.638 0.226 7.4 6.99 13.49
12/22/2020 4:15:00 PM 0.9 33.62 0.225 7.41 7.19 13.47
12/22/2020 4:30:00 PM 0.89 33.602 0.225 7.41 7.27 13.45
12/22/2020 4:45:00 PM 0.87 33.566 0.225 7.4 7.55 13.43
12/22/2020 5:00:00 PM 0.86 33.548 0.224 7.4 7.16 13.42
12/22/2020 5:15:00 PM 0.83 33.494 0.223 7.4 7.52 13.41
12/22/2020 5:30:00 PM 0.79 33.422 0.222 7.39 7.31 13.4
12/22/2020 5:45:00 PM 0.7 33.26 0.222 7.39 7.35 13.38
12/22/2020 6:00:00 PM 0.66 33.188 0.223 7.39 7.56 13.39
12/22/2020 6:15:00 PM 0.6 33.08 0.222 7.39 7.23 13.38
12/22/2020 6:30:00 PM 0.57 33.026 0.221 7.39 7.01 13.39
12/22/2020 6:45:00 PM 0.57 33.026 0.221 7.38 7.24 13.39
12/22/2020 7:00:00 PM 0.56 33.008 0.225 7.39 7.22 13.4
12/22/2020 7:15:00 PM 0.56 33.008 0.229 7.39 7.75 13.4
12/22/2020 7:30:00 PM 0.58 33.044 0.228 7.38 7.7 13.4
12/22/2020 7:45:00 PM 0.61 33.098 0.228 7.38 7.56 13.4
12/22/2020 8:00:00 PM 0.62 33.116 0.227 7.38 7.52 13.39
12/22/2020 8:15:00 PM 0.62 33.116 0.227 7.38 7.54 13.4
12/22/2020 8:30:00 PM 0.63 33.134 0.225 7.38 7.57 13.4
12/22/2020 8:45:00 PM 0.63 33.134 0.225 7.38 7.4 13.4
12/22/2020 9:00:00 PM 0.64 33.152 0.225 7.38 7.48 13.39
12/22/2020 9:15:00 PM 0.64 33.152 0.227 7.38 7.47 13.39
12/22/2020 9:30:00 PM 0.63 33.134 0.228 7.38 7.69 13.39
12/22/2020 9:45:00 PM 0.61 33.098 0.228 7.38 7.54 13.4
12/22/2020 10:00:00 PM 0.58 33.044 0.228 7.37 7.24 13.39
12/22/2020 10:15:00 PM 0.56 33.008 0.227 7.38 7.12 13.4
12/22/2020 10:30:00 PM 0.53 32.954 0.225 7.38 7.24 13.4
12/22/2020 10:45:00 PM 0.51 32.918 0.225 7.38 7.35 13.4
12/22/2020 11:00:00 PM 0.48 32.864 0.223 7.37 8.01 13.41
12/22/2020 11:15:00 PM 0.46 32.828 0.223 7.37 7.4 13.42
12/22/2020 11:30:00 PM 0.44 32.792 0.222 7.37 7.18 13.43
12/22/2020 11:45:00 PM 0.42 32.756 0.222 7.37 7.16 13.42
12/23/2020 12:00:00 AM 0.43 32.774 0.221 7.37 7.03 13.42
12/23/2020 12:15:00 AM 0.44 32.792 0.221 7.36 7.07 13.42
12/23/2020 12:30:00 AM 0.45 32.81 0.221 7.36 7.03 13.42
12/23/2020 12:45:00 AM 0.47 32.846 0.22 7.37 7.21 13.43
12/23/2020 1:00:00 AM 0.48 32.864 0.22 7.37 7.16 13.42
12/23/2020 1:15:00 AM 0.46 32.828 0.22 7.37 6.99 13.43
12/23/2020 1:30:00 AM 0.44 32.792 0.22 7.37 6.94 13.43
12/23/2020 1:45:00 AM 0.41 32.738 0.22 7.36 6.78 13.43
12/23/2020 2:00:00 AM 0.38 32.684 0.22 7.37 6.98 13.44
12/23/2020 2:15:00 AM 0.36 32.648 0.22 7.37 7.77 13.45
12/23/2020 2:30:00 AM 0.33 32.594 0.22 7.37 7.05 13.45
12/23/2020 2:45:00 AM 0.31 32.558 0.219 7.37 6.87 13.46
12/23/2020 3:00:00 AM 0.29 32.522 0.22 7.37 6.82 13.47
12/23/2020 3:15:00 AM 0.27 32.486 0.219 7.37 6.77 13.48
12/23/2020 3:30:00 AM 0.28 32.504 0.219 7.37 6.71 13.48
12/23/2020 3:45:00 AM 0.26 32.468 0.219 7.37 6.84 13.49
12/23/2020 4:00:00 AM 0.25 32.45 0.219 7.37 6.77 13.49
12/23/2020 4:15:00 AM 0.23 32.414 0.219 7.36 6.52 13.49
12/23/2020 4:30:00 AM 0.21 32.378 0.219 7.36 7.44 13.5
12/23/2020 4:45:00 AM 0.19 32.342 0.219 7.36 7.08 13.5
12/23/2020 5:00:00 AM 0.18 32.324 0.219 7.36 7.15 13.51
12/23/2020 5:15:00 AM 0.16 32.288 0.219 7.36 6.81 13.51
12/23/2020 5:30:00 AM 0.14 32.252 0.219 7.36 6.59 13.52
12/23/2020 5:45:00 AM 0.13 32.234 0.219 7.36 7.13 13.53
12/23/2020 6:00:00 AM 0.12 32.216 0.218 7.36 7.34 13.53
12/23/2020 6:15:00 AM 0.1 32.18 0.218 7.35 6.84 13.54
12/23/2020 6:30:00 AM 0.09 32.162 0.218 7.36 7.18 13.54
12/23/2020 6:45:00 AM 0.08 32.144 0.219 7.36 7.02 13.55
12/23/2020 7:00:00 AM 0.07 32.126 0.219 7.36 6.66 13.55
12/23/2020 7:15:00 AM 0.06 32.108 0.219 7.36 7.09 13.55
12/23/2020 7:30:00 AM 0.05 32.09 0.219 7.36 7.26 13.56
12/23/2020 7:45:00 AM 0.05 32.09 0.219 7.36 7.45 13.58
12/23/2020 8:00:00 AM 0.05 32.09 0.219 7.36 8.36 13.6
12/23/2020 8:15:00 AM 0.06 32.108 0.219 7.36 9.15 13.64
12/23/2020 8:30:00 AM 0.08 32.144 0.22 7.36 8.89 13.69
12/23/2020 8:45:00 AM 0.12 32.216 0.22 7.37 8.73 13.74
12/23/2020 9:00:00 AM 0.15 32.27 0.22 7.37 9.21 13.77
12/23/2020 9:15:00 AM 0.2 32.36 0.22 7.38 9.65 13.82
12/23/2020 9:30:00 AM 0.24 32.432 0.22 7.38 8.4 13.85
12/23/2020 9:45:00 AM 0.27 32.486 0.219 7.39 9.08 13.88
12/23/2020 10:00:00 AM 0.32 32.576 0.218 7.4 9.6 13.9
12/23/2020 10:15:00 AM 0.41 32.738 0.218 7.4 9.52 13.93
12/23/2020 10:30:00 AM 0.51 32.918 0.217 7.41 8.94 13.94
12/23/2020 10:45:00 AM 0.62 33.116 0.217 7.42 8.49 13.96
12/23/2020 11:00:00 AM 0.74 33.332 0.217 7.42 8.65 13.95
12/23/2020 11:15:00 AM 0.84 33.512 0.217 7.43 8.96 13.96
12/23/2020 11:30:00 AM 0.95 33.71 0.218 7.43 8.59 13.97
12/23/2020 11:45:00 AM 1.06 33.908 0.218 7.43 8.41 13.97
12/23/2020 12:00:00 PM 1.15 34.07 0.218 7.44 9.31 13.96
12/23/2020 12:15:00 PM 1.24 34.232 0.219 7.44 8.31 13.96
12/23/2020 12:30:00 PM 1.31 34.358 0.22 7.45 8.66 13.95
12/23/2020 12:45:00 PM 1.38 34.484 0.22 7.45 8.72 13.95
12/23/2020 1:00:00 PM 1.44 34.592 0.221 7.46 8.58 13.94
12/23/2020 1:15:00 PM 1.45 34.61 0.221 7.46 8.64 13.93
12/23/2020 1:30:00 PM 1.49 34.682 0.221 7.46 9.91 13.93
12/23/2020 1:45:00 PM 1.49 34.682 0.221 7.46 8.68 13.92
12/23/2020 2:00:00 PM 1.56 34.808 0.222 7.47 8.63 13.93
12/23/2020 2:15:00 PM 1.62 34.916 0.222 7.46 8.78 13.92
12/23/2020 2:30:00 PM 1.63 34.934 0.222 7.47 8.6 13.91
12/23/2020 2:45:00 PM 1.64 34.952 0.223 7.47 9.07 13.89
12/23/2020 3:00:00 PM 1.62 34.916 0.223 7.47 10 13.86
12/23/2020 3:15:00 PM 1.55 34.79 0.224 7.46 9.21 13.85
12/23/2020 3:30:00 PM 1.47 34.646 0.224 7.46 9.36 13.82
12/23/2020 3:45:00 PM 1.39 34.502 0.225 7.46 9.66 13.81
12/23/2020 4:00:00 PM 1.32 34.376 0.226 7.45 8.98 13.77
12/23/2020 4:15:00 PM 1.27 34.286 0.226 7.45 8.77 13.73
12/23/2020 4:30:00 PM 1.23 34.214 0.226 7.44 8.94 13.69
12/23/2020 4:45:00 PM 1.2 34.16 0.227 7.43 9.06 13.64
12/23/2020 5:00:00 PM 1.18 34.124 0.227 7.42 8.88 13.6
12/23/2020 5:15:00 PM 1.16 34.088 0.228 7.41 8.6 13.56
12/23/2020 5:30:00 PM 1.14 34.052 0.229 7.41 9.71 13.52
12/23/2020 5:45:00 PM 1.13 34.034 0.229 7.4 8 13.5
12/23/2020 6:00:00 PM 1.12 34.016 0.229 7.39 7.8 13.47
12/23/2020 6:15:00 PM 1.11 33.998 0.23 7.39 7.85 13.45
12/23/2020 6:30:00 PM 1.1 33.98 0.23 7.38 7.33 13.43
12/23/2020 6:45:00 PM 1.09 33.962 0.23 7.38 7.19 13.42
12/23/2020 7:00:00 PM 1.08 33.944 0.231 7.38 7.18 13.41
12/23/2020 7:15:00 PM 1.08 33.944 0.231 7.37 6.98 13.39
12/23/2020 7:30:00 PM 1.07 33.926 0.231 7.38 7.05 13.38
12/23/2020 7:45:00 PM 1.08 33.944 0.232 7.37 8.31 13.37
12/23/2020 8:00:00 PM 1.09 33.962 0.231 7.36 7.16 13.35
12/23/2020 8:15:00 PM 1.1 33.98 0.232 7.37 7.34 13.33
12/23/2020 8:30:00 PM 1.11 33.998 0.232 7.36 6.99 13.33
12/23/2020 8:45:00 PM 1.12 34.016 0.232 7.37 7.43 13.32
12/23/2020 9:00:00 PM 1.13 34.034 0.232 7.36 7.51 13.3
12/23/2020 9:15:00 PM 1.14 34.052 0.232 7.36 7.52 13.29
12/23/2020 9:30:00 PM 1.15 34.07 0.232 7.36 6.91 13.28
12/23/2020 9:45:00 PM 1.15 34.07 0.232 7.36 6.96 13.28
12/23/2020 10:00:00 PM 1.15 34.07 0.232 7.35 6.84 13.26
12/23/2020 10:15:00 PM 1.15 34.07 0.232 7.35 6.91 13.25
12/23/2020 10:30:00 PM 1.15 34.07 0.232 7.35 6.92 13.24
12/23/2020 10:45:00 PM 1.15 34.07 0.232 7.35 7.89 13.23
12/23/2020 11:00:00 PM 1.14 34.052 0.232 7.35 7.72 13.23
12/23/2020 11:15:00 PM 1.13 34.034 0.232 7.35 7.27 13.23
12/23/2020 11:30:00 PM 1.11 33.998 0.232 7.35 7.4 13.22
12/23/2020 11:45:00 PM 1.12 34.016 0.232 7.33 8.21 13.22
12/24/2020 12:00:00 AM 1.12 34.016 0.231 7.34 7.43 13.21
12/24/2020 12:15:00 AM 1.13 34.034 0.231 7.34 6.62 13.21
12/24/2020 12:30:00 AM 1.14 34.052 0.231 7.34 6.94 13.2
12/24/2020 12:45:00 AM 1.15 34.07 0.231 7.34 6.51 13.21
12/24/2020 1:00:00 AM 1.17 34.106 0.23 7.34 6.84 13.19
12/24/2020 1:15:00 AM 1.18 34.124 0.231 7.34 7.25 13.18
12/24/2020 1:30:00 AM 1.18 34.124 0.231 7.34 7.39 13.19
12/24/2020 1:45:00 AM 1.18 34.124 0.231 7.34 7.36 13.18
12/24/2020 2:00:00 AM 1.18 34.124 0.231 7.34 7.73 13.17
12/24/2020 2:15:00 AM 1.18 34.124 0.23 7.34 8.35 13.17
12/24/2020 2:30:00 AM 1.17 34.106 0.23 7.33 7.53 13.17
12/24/2020 2:45:00 AM 1.18 34.124 0.23 7.34 7.93 13.16
12/24/2020 3:00:00 AM 1.19 34.142 0.23 7.34 7.96 13.16
12/24/2020 3:15:00 AM 1.21 34.178 0.23 7.34 7.94 13.15
12/24/2020 3:30:00 AM 1.23 34.214 0.23 7.33 7.69 13.14
12/24/2020 3:45:00 AM 1.25 34.25 0.23 7.34 7.76 13.13
12/24/2020 4:00:00 AM 1.27 34.286 0.23 7.33 7.71 13.13
12/24/2020 4:15:00 AM 1.28 34.304 0.229 7.33 7.75 13.12
12/24/2020 4:30:00 AM 1.31 34.358 0.23 7.33 7.84 13.11
12/24/2020 4:45:00 AM 1.32 34.376 0.229 7.33 7.55 13.1
12/24/2020 5:00:00 AM 1.34 34.412 0.229 7.33 7.56 13.1
12/24/2020 5:15:00 AM 1.36 34.448 0.23 7.33 7.52 13.09
12/24/2020 5:30:00 AM 1.38 34.484 0.229 7.33 7.49 13.08
12/24/2020 5:45:00 AM 1.4 34.52 0.229 7.33 7.53 13.07
12/24/2020 6:00:00 AM 1.43 34.574 0.229 7.33 7.43 13.06
12/24/2020 6:15:00 AM 1.45 34.61 0.23 7.33 7.6 13.05
12/24/2020 6:30:00 AM 1.47 34.646 0.23 7.33 7.44 13.03
12/24/2020 6:45:00 AM 1.49 34.682 0.229 7.33 7.38 13.03
12/24/2020 7:00:00 AM 1.52 34.736 0.229 7.33 7.92 13.02
12/24/2020 7:15:00 AM 1.54 34.772 0.234 7.32 10.06 13.01
12/24/2020 7:30:00 AM 1.58 34.844 0.255 7.34 14.95 13
12/24/2020 7:45:00 AM 1.59 34.862 0.26 7.35 12.62 12.99
12/24/2020 8:00:00 AM 1.62 34.916 0.258 7.35 12.44 12.98
12/24/2020 8:15:00 AM 1.65 34.97 0.248 7.35 10.24 12.98
12/24/2020 8:30:00 AM 1.68 35.024 0.247 7.34 10.43 12.98
12/24/2020 8:45:00 AM 1.71 35.078 0.248 7.34 11.06 12.98
12/24/2020 9:00:00 AM 1.73 35.114 0.256 7.35 14.08 12.99
12/24/2020 9:15:00 AM 1.76 35.168 0.255 7.36 17.99 13
12/24/2020 9:30:00 AM 1.79 35.222 0.251 7.36 15.34 13.03
12/24/2020 9:45:00 AM 1.84 35.312 0.253 7.37 13.82 13.05
12/24/2020 10:00:00 AM 1.88 35.384 0.254 7.37 13.64 13.07
12/24/2020 10:15:00 AM 1.93 35.474 0.252 7.37 13.69 13.08
12/24/2020 10:30:00 AM 1.98 35.564 0.249 7.38 13.51 13.09
12/24/2020 10:45:00 AM 2.03 35.654 0.248 7.38 13.06 13.13
12/24/2020 11:00:00 AM 2.08 35.744 0.247 7.38 14.24 13.14
12/24/2020 11:15:00 AM 2.14 35.852 0.245 7.39 65.25 13.17
12/24/2020 11:30:00 AM 2.18 35.924 0.246 7.38 15.6 13.18
12/24/2020 11:45:00 AM 2.21 35.978 0.246 7.39 14 13.19
12/24/2020 12:00:00 PM 2.22 35.996 0.245 7.39 12.97 13.16
12/24/2020 12:15:00 PM 2.24 36.032 0.247 7.39 13.84 13.15
12/24/2020 12:30:00 PM 2.26 36.068 0.248 7.4 15.66 13.14
12/24/2020 12:45:00 PM 2.28 36.104 0.25 7.4 14.38 13.13
12/24/2020 1:00:00 PM 2.3 36.14 0.253 7.4 15.57 13.1
12/24/2020 1:15:00 PM 2.3 36.14 0.254 7.41 16.98 13.08
12/24/2020 1:30:00 PM 2.31 36.158 0.255 7.41 17.46 13.07
12/24/2020 1:45:00 PM 2.29 36.122 0.254 7.4 18.15 13.03
12/24/2020 2:00:00 PM 2.27 36.086 0.254 7.4 23.14 13.01
12/24/2020 2:15:00 PM 2.23 36.014 0.257 7.4 25.12 13
12/24/2020 2:30:00 PM 2.19 35.942 0.257 7.4 34.26 12.99
12/24/2020 2:45:00 PM 2.13 35.834 0.256 7.41 36.05 13
12/24/2020 3:00:00 PM 2.07 35.726 0.255 7.41 36.21 13
12/24/2020 3:15:00 PM 2.04 35.672 0.252 7.41 38.7 12.99
12/24/2020 3:30:00 PM 2.02 35.636 0.252 7.4 39.9 12.98
12/24/2020 3:45:00 PM 2.02 35.636 0.252 7.4 42.6 12.97
12/24/2020 4:00:00 PM 2 35.6 0.251 7.38 35.85 12.96
12/24/2020 4:15:00 PM 1.97 35.546 0.245 7.39 71.17 12.97
12/24/2020 4:30:00 PM 1.95 35.51 0.24 7.38 68.47 12.95
12/24/2020 4:45:00 PM 1.92 35.456 0.238 7.36 68.45 12.96
12/24/2020 5:00:00 PM 1.93 35.474 0.24 7.33 73.12 12.92
12/24/2020 5:15:00 PM 1.95 35.51 0.24 7.31 95.68 12.9
12/24/2020 5:30:00 PM 1.96 35.528 0.234 7.3 100.11 12.88
12/24/2020 5:45:00 PM 1.97 35.546 0.227 7.3 103.6 12.87
12/24/2020 6:00:00 PM 1.97 35.546 0.22 7.28 112.8 12.84
12/24/2020 6:15:00 PM 1.95 35.51 0.213 7.27 114.31 12.84
12/24/2020 6:30:00 PM 1.97 35.546 0.209 7.27 109.97 12.79
12/24/2020 6:45:00 PM 1.95 35.51 0.203 7.27 141.02 12.77
12/24/2020 7:00:00 PM 1.96 35.528 0.198 7.25 138.35 12.74
12/24/2020 7:15:00 PM 1.96 35.528 0.194 7.19 118.01 12.71
12/24/2020 7:30:00 PM 1.97 35.546 0.19 7.17 137.14 12.68
12/24/2020 7:45:00 PM 1.97 35.546 0.187 7.16 119.46 12.65
12/24/2020 8:00:00 PM 1.97 35.546 0.184 7.15 117.52 12.62
12/24/2020 8:15:00 PM 1.96 35.528 0.181 7.15 1846.36 12.59
12/24/2020 8:30:00 PM 1.94 35.492 0.178 7.07 136.01 12.56
12/24/2020 8:45:00 PM 1.93 35.474 0.175 7.15 127.89 12.54
12/24/2020 9:00:00 PM 1.9 35.42 0.173 7.1 127.73 12.52
12/24/2020 9:15:00 PM 1.87 35.366 0.172 7.09 148.5 12.5
12/24/2020 9:30:00 PM 1.85 35.33 0.171 7.09 1494.83 12.49
12/24/2020 9:45:00 PM 1.84 35.312 0.171 7.1 142.71 12.47
12/24/2020 10:00:00 PM 1.83 35.294 0.168 7.07 166.34 12.46
12/24/2020 10:15:00 PM 1.84 35.312 0.165 7.07 168.13 12.46
12/24/2020 10:30:00 PM 1.84 35.312 0.162 7.06 151.58 12.45
12/24/2020 10:45:00 PM 1.83 35.294 0.159 7.06 155.93 12.43
12/24/2020 11:00:00 PM 1.85 35.33 0.158 7.06 153.36 12.43
12/24/2020 11:15:00 PM 1.85 35.33 0.157 7.09 145.16 12.42
12/24/2020 11:30:00 PM 1.85 35.33 0.117 7.07 137.49 12.41
12/24/2020 11:45:00 PM 1.82 35.276 0.157 7.04 149.01 12.4
12/25/2020 12:00:00 AM 1.77 35.186 0.156 7.02 163.47 12.4
12/25/2020 12:15:00 AM 1.75 35.15 0.157 7.06 132 12.4
12/25/2020 12:30:00 AM 1.71 35.078 0.155 7.02 135.48 12.4
12/25/2020 12:45:00 AM 1.67 35.006 0.153 7.03 133.66 12.41
12/25/2020 1:00:00 AM 1.65 34.97 0.152 7.02 128.96 12.41
12/25/2020 1:15:00 AM 1.63 34.934 0.151 6.98 118.52 12.4
12/25/2020 1:30:00 AM 1.62 34.916 0.15 7.03 121 12.4
12/25/2020 1:45:00 AM 1.6 34.88 0.148 7.03 120.98 12.39
12/25/2020 2:00:00 AM 1.56 34.808 0.147 7.01 119.29 12.38
12/25/2020 2:15:00 AM 1.52 34.736 0.145 7 103.93 12.38
12/25/2020 2:30:00 AM 1.47 34.646 0.143 6.98 119.17 12.37
12/25/2020 2:45:00 AM 1.41 34.538 0.141 6.99 114.82 12.37
12/25/2020 3:00:00 AM 1.32 34.376 0.139 6.97 106 12.37
12/25/2020 3:15:00 AM 1.24 34.232 0.137 6.96 104.28 12.38
12/25/2020 3:30:00 AM 1.2 34.16 0.137 6.95 115.4 12.38
12/25/2020 3:45:00 AM 1.16 34.088 0.135 6.93 102.72 12.39
12/25/2020 4:00:00 AM 1.12 34.016 0.134 6.94 99.59 12.4
12/25/2020 4:15:00 AM 1.11 33.998 0.134 6.93 94.53 12.41
12/25/2020 4:30:00 AM 1.09 33.962 0.132 6.93 91.63 12.4
12/25/2020 4:45:00 AM 1.07 33.926 0.131 6.9 89.29 12.4
12/25/2020 5:00:00 AM 1.04 33.872 0.131 6.91 96.73 12.4
12/25/2020 5:15:00 AM 1.01 33.818 0.13 6.93 101.12 12.4
12/25/2020 5:30:00 AM 0.98 33.764 0.128 6.9 71.84 12.4
12/25/2020 5:45:00 AM 0.95 33.71 0.128 6.91 93.78 12.4
12/25/2020 6:00:00 AM 0.91 33.638 0.127 6.9 87.91 12.41
12/25/2020 6:15:00 AM 0.88 33.584 0.126 6.9 83.72 12.41
12/25/2020 6:30:00 AM 0.85 33.53 0.125 6.91 76.76 12.43
12/25/2020 6:45:00 AM 0.82 33.476 0.124 6.92 80.99 12.44
12/25/2020 7:00:00 AM 0.78 33.404 0.124 6.9 98.19 12.44
12/25/2020 7:15:00 AM 0.75 33.35 0.123 6.83 76.93 12.43
12/25/2020 7:30:00 AM 0.73 33.314 0.123 6.86 95.29 12.44
12/25/2020 7:45:00 AM 0.7 33.26 0.122 6.83 74.28 12.46
12/25/2020 8:00:00 AM 0.69 33.242 0.121 6.88 79.2 12.46
12/25/2020 8:15:00 AM 0.67 33.206 0.121 6.84 72.26 12.47
12/25/2020 8:30:00 AM 0.66 33.188 0.12 6.84 82.51 12.48
12/25/2020 8:45:00 AM 0.66 33.188 0.12 6.81 76.76 12.48
12/25/2020 9:00:00 AM 0.65 33.17 0.119 6.82 65.95 12.49
12/25/2020 9:15:00 AM 0.65 33.17 0.119 6.87 75.35 12.5
12/25/2020 9:30:00 AM 0.66 33.188 0.119 6.85 65.91 12.5
12/25/2020 9:45:00 AM 0.67 33.206 0.119 6.82 67.18 12.51
12/25/2020 10:00:00 AM 0.69 33.242 0.119 6.83 76.8 12.51
12/25/2020 10:15:00 AM 0.71 33.278 0.119 6.84 18017.43 12.52
12/25/2020 10:30:00 AM 0.75 33.35 0.119 6.83 61.19 12.51
12/25/2020 10:45:00 AM 0.79 33.422 0.119 6.84 61.2 12.51
12/25/2020 11:00:00 AM 0.83 33.494 0.119 6.84 61.4 12.52
12/25/2020 11:15:00 AM 0.86 33.548 0.12 6.85 52.92 12.51
12/25/2020 11:30:00 AM 0.9 33.62 0.12 6.84 55.16 12.52
12/25/2020 11:45:00 AM 0.93 33.674 0.121 6.83 45.09 12.51
12/25/2020 12:00:00 PM 0.96 33.728 0.12 6.85 45.17 12.52
12/25/2020 12:15:00 PM 1 33.8 0.12 6.85 48.31 12.51
12/25/2020 12:30:00 PM 1.04 33.872 0.12 6.84 51.58 12.51
12/25/2020 12:45:00 PM 1.08 33.944 0.121 6.87 44.37 12.52
12/25/2020 1:00:00 PM 1.11 33.998 0.121 6.86 112.92 12.52
12/25/2020 1:15:00 PM 1.15 34.07 0.121 6.86 73.15 12.51
12/25/2020 1:30:00 PM 1.17 34.106 0.121 6.85 56.45 12.51
12/25/2020 1:45:00 PM 1.21 34.178 0.121 6.86 47.86 12.52
12/25/2020 2:00:00 PM 1.23 34.214 0.121 6.85 44.15 12.52
12/25/2020 2:15:00 PM 1.25 34.25 0.121 6.87 59.79 12.52
12/25/2020 2:30:00 PM 1.27 34.286 0.121 6.87 38.13 12.52
12/25/2020 2:45:00 PM 1.3 34.34 0.121 6.86 32.4 12.52
12/25/2020 3:00:00 PM 1.32 34.376 0.122 6.86 36.25 12.52
12/25/2020 3:15:00 PM 1.33 34.394 0.122 6.86 37.8 12.53
12/25/2020 3:30:00 PM 1.34 34.412 0.122 6.86 30.83 12.53
12/25/2020 3:45:00 PM 1.34 34.412 0.123 6.86 34.41 12.53
12/25/2020 4:00:00 PM 1.35 34.43 0.123 6.84 29.09 12.53
12/25/2020 4:15:00 PM 1.35 34.43 0.123 6.84 30.62 12.53
12/25/2020 4:30:00 PM 1.34 34.412 0.035 6.84 36.43 12.54
12/25/2020 4:45:00 PM 1.34 34.412 0.033 6.87 34.56 12.54
12/25/2020 5:00:00 PM 1.34 34.412 0.051 6.86 42.68 12.54
12/25/2020 5:15:00 PM 1.34 34.412 0.051 6.91 29.2 12.54
12/25/2020 5:30:00 PM 1.34 34.412 0.125 6.82 30.37 12.54
12/25/2020 5:45:00 PM 1.33 34.394 0.126 6.87 26.64 12.54
12/25/2020 6:00:00 PM 1.33 34.394 0.126 6.88 29.63 12.54
12/25/2020 6:15:00 PM 1.32 34.376 0.127 6.87 25.28 12.55
12/25/2020 6:30:00 PM 1.32 34.376 0.128 6.89 31.67 12.55
12/25/2020 6:45:00 PM 1.32 34.376 0.128 6.89 28.5 12.55
12/25/2020 7:00:00 PM 1.32 34.376 0.08 6.9 25.43 12.56
12/25/2020 7:15:00 PM 1.31 34.358 0.13 6.9 29.98 12.55
12/25/2020 7:30:00 PM 1.31 34.358 0.13 6.89 26.3 12.56
12/25/2020 7:45:00 PM 1.31 34.358 0.131 6.9 26.62 12.56
12/25/2020 8:00:00 PM 1.3 34.34 0.132 6.89 26.13 12.57
12/25/2020 8:15:00 PM 1.3 34.34 0.132 6.9 26.07 12.57
12/25/2020 8:30:00 PM 1.29 34.322 0.133 6.92 24.69 12.57
12/25/2020 8:45:00 PM 1.29 34.322 0.133 6.92 25.21 12.57
12/25/2020 9:00:00 PM 1.28 34.304 0.134 6.91 25.42 12.58
12/25/2020 9:15:00 PM 1.27 34.286 0.134 6.92 25.38 12.58
12/25/2020 9:30:00 PM 1.26 34.268 0.134 6.91 24.99 12.59
12/25/2020 9:45:00 PM 1.25 34.25 0.135 6.92 25.53 12.59
12/25/2020 10:00:00 PM 1.25 34.25 0.136 6.9 25.32 12.6
12/25/2020 10:15:00 PM 1.25 34.25 0.136 6.93 47.41 12.6
12/25/2020 10:30:00 PM 1.24 34.232 0.136 6.93 28.85 12.6
12/25/2020 10:45:00 PM 1.23 34.214 0.137 6.92 22.72 12.6
12/25/2020 11:00:00 PM 1.22 34.196 0.137 6.92 23.82 12.61
12/25/2020 11:15:00 PM 1.2 34.16 0.138 6.93 21.32 12.61
12/25/2020 11:30:00 PM 1.18 34.124 0.138 6.92 23.57 12.62
12/25/2020 11:45:00 PM 1.17 34.106 0.139 6.91 21.7 12.62
12/26/2020 12:00:00 AM 1.16 34.088 0.139 6.94 23.62 12.64
12/26/2020 12:15:00 AM 1.15 34.07 0.14 6.93 78.35 12.64
12/26/2020 12:30:00 AM 1.14 34.052 0.14 6.96 21.66 12.65
12/26/2020 12:45:00 AM 1.12 34.016 0.141 6.92 22.25 12.65
12/26/2020 1:00:00 AM 1.11 33.998 0.141 6.93 21.69 12.65
12/26/2020 1:15:00 AM 1.1 33.98 0.141 6.94 22.61 12.66
12/26/2020 1:30:00 AM 1.09 33.962 0.142 6.94 38.69 12.67
12/26/2020 1:45:00 AM 1.07 33.926 0.142 6.94 22.43 12.68
12/26/2020 2:00:00 AM 1.06 33.908 0.143 6.94 19.79 12.68
12/26/2020 2:15:00 AM 1.04 33.872 0.143 6.93 21.77 12.69
12/26/2020 2:30:00 AM 1.02 33.836 0.143 6.93 21.23 12.7
12/26/2020 2:45:00 AM 1.01 33.818 0.143 6.91 21.62 12.7
12/26/2020 3:00:00 AM 1 33.8 0.143 6.96 25.31 12.71
12/26/2020 3:15:00 AM 0.99 33.782 0.144 6.94 119.91 12.72
12/26/2020 3:30:00 AM 0.98 33.764 0.144 6.93 21.52 12.73
12/26/2020 3:45:00 AM 0.96 33.728 0.144 6.95 21.04 12.74
12/26/2020 4:00:00 AM 0.95 33.71 0.144 6.94 20.69 12.74
12/26/2020 4:15:00 AM 0.93 33.674 0.145 6.94 144.59 12.76
12/26/2020 4:30:00 AM 0.91 33.638 0.145 6.94 18.65 12.76
12/26/2020 4:45:00 AM 0.89 33.602 0.145 6.95 20.12 12.77
12/26/2020 5:00:00 AM 0.88 33.584 0.146 6.95 19.56 12.78
12/26/2020 5:15:00 AM 0.86 33.548 0.146 6.96 18.32 12.78
12/26/2020 5:30:00 AM 0.85 33.53 0.146 6.97 19.96 12.8
12/26/2020 5:45:00 AM 0.83 33.494 0.147 6.96 19.42 12.81
12/26/2020 6:00:00 AM 0.81 33.458 0.147 6.96 19.96 12.82
12/26/2020 6:15:00 AM 0.8 33.44 0.148 6.95 19.52 12.83
12/26/2020 6:30:00 AM 0.79 33.422 0.145 6.97 21.19 12.84
12/26/2020 6:45:00 AM 0.78 33.404 0.148 6.97 16.95 12.85
12/26/2020 7:00:00 AM 0.76 33.368 0.148 6.96 18.82 12.85
12/26/2020 7:15:00 AM 0.74 33.332 0.148 6.98 22.02 12.87
12/26/2020 7:30:00 AM 0.72 33.296 0.149 6.98 19.35 12.87
12/26/2020 7:45:00 AM 0.71 33.278 0.149 6.97 17.76 12.9
12/26/2020 8:00:00 AM 0.7 33.26 0.149 6.97 18.24 12.91
12/26/2020 8:15:00 AM 0.69 33.242 0.149 6.96 18.13 12.92
12/26/2020 8:30:00 AM 0.68 33.224 0.149 6.98 17.15 12.92
12/26/2020 8:45:00 AM 0.68 33.224 0.15 6.98 18.1 12.93
12/26/2020 9:00:00 AM 0.67 33.206 0.15 6.96 17.05 12.94
12/26/2020 9:15:00 AM 0.68 33.224 0.15 6.97 16.89 12.96
12/26/2020 9:30:00 AM 0.68 33.224 0.15 6.96 16.94 12.96
12/26/2020 9:45:00 AM 0.69 33.242 0.151 6.98 16.74 12.98
12/26/2020 10:00:00 AM 0.69 33.242 0.151 6.96 16.46 12.98
12/26/2020 10:15:00 AM 0.69 33.242 0.151 6.98 16.81 12.99
12/26/2020 10:30:00 AM 0.69 33.242 0.151 6.98 16.86 13
12/26/2020 10:45:00 AM 0.7 33.26 0.151 6.98 15.86 13.01
12/26/2020 11:00:00 AM 0.71 33.278 0.151 6.98 16.74 13.02
12/26/2020 11:15:00 AM 0.72 33.296 0.152 6.98 15.96 13.03
12/26/2020 11:30:00 AM 0.74 33.332 0.152 6.99 16.09 13.03
12/26/2020 11:45:00 AM 0.74 33.332 0.152 6.98 16.15 13.05
12/26/2020 12:00:00 PM 0.74 33.332 0.152 6.98 14.65 13.05
12/26/2020 12:15:00 PM 0.74 33.332 0.153 6.99 15.44 13.06
12/26/2020 12:30:00 PM 0.75 33.35 0.152 6.99 15.7 13.06
12/26/2020 12:45:00 PM 0.75 33.35 0.153 7 16.63 13.07
12/26/2020 1:00:00 PM 0.76 33.368 0.153 7 15.1 13.08
12/26/2020 1:15:00 PM 0.76 33.368 0.153 7 15.9 13.08
12/26/2020 1:30:00 PM 0.76 33.368 0.153 7 15.82 13.08
12/26/2020 1:45:00 PM 0.77 33.386 0.153 6.99 14.12 13.09
12/26/2020 2:00:00 PM 0.77 33.386 0.153 7 14 13.1
12/26/2020 2:15:00 PM 0.77 33.386 0.154 7 14.59 13.1
12/26/2020 2:30:00 PM 0.77 33.386 0.154 7 14.37 13.1
12/26/2020 2:45:00 PM 0.77 33.386 0.154 7.01 13.99 13.12
12/26/2020 3:00:00 PM 0.77 33.386 0.154 7 13.91 13.12
12/26/2020 3:15:00 PM 0.77 33.386 0.154 7.01 14.06 13.12
12/26/2020 3:30:00 PM 0.76 33.368 0.155 7.01 14.17 13.12
12/26/2020 3:45:00 PM 0.76 33.368 0.155 7 14.24 13.13
12/26/2020 4:00:00 PM 0.75 33.35 0.155 7.01 14.25 13.13
12/26/2020 4:15:00 PM 0.74 33.332 0.155 7.01 14.45 13.14
12/26/2020 4:30:00 PM 0.73 33.314 0.155 7.01 13.52 13.13
12/26/2020 4:45:00 PM 0.72 33.296 0.155 6.99 14.14 13.12
12/26/2020 5:00:00 PM 0.71 33.278 0.156 7.01 13.7 13.14
12/26/2020 5:15:00 PM 0.7 33.26 0.156 7.01 13.93 13.13
12/26/2020 5:30:00 PM 0.7 33.26 0.156 6.99 13.76 13.14
12/26/2020 5:45:00 PM 0.69 33.242 0.156 7.02 13.28 13.14
12/26/2020 6:00:00 PM 0.69 33.242 0.156 7.01 13.26 13.14
12/26/2020 6:15:00 PM 0.69 33.242 0.157 7.02 12.61 13.14
12/26/2020 6:30:00 PM 0.68 33.224 0.157 7.01 12.57 13.13
12/26/2020 6:45:00 PM 0.68 33.224 0.157 7.01 12.4 13.14
12/26/2020 7:00:00 PM 0.68 33.224 0.157 7.02 12.06 13.13
12/26/2020 7:15:00 PM 0.67 33.206 0.157 7.02 12.44 13.14
12/26/2020 7:30:00 PM 0.67 33.206 0.158 7.02 12.2 13.14
12/26/2020 7:45:00 PM 0.66 33.188 0.158 7.01 12.28 13.15
12/26/2020 8:00:00 PM 0.66 33.188 0.158 7.02 12.05 13.15
12/26/2020 8:15:00 PM 0.66 33.188 0.159 7.02 11.84 13.15
12/26/2020 8:30:00 PM 0.66 33.188 0.159 7.02 12 13.16
12/26/2020 8:45:00 PM 0.66 33.188 0.159 7.03 11.7 13.15
12/26/2020 9:00:00 PM 0.66 33.188 0.159 7.03 11.7 13.16
12/26/2020 9:15:00 PM 0.67 33.206 0.159 7.03 11.34 13.16
12/26/2020 9:30:00 PM 0.66 33.188 0.16 7.02 11.33 13.17
12/26/2020 9:45:00 PM 0.66 33.188 0.16 7.03 11.18 13.17
12/26/2020 10:00:00 PM 0.66 33.188 0.16 7.04 11.2 13.17
12/26/2020 10:15:00 PM 0.67 33.206 0.16 7.03 11.16 13.17
12/26/2020 10:30:00 PM 0.67 33.206 0.16 7.03 10.97 13.16
12/26/2020 10:45:00 PM 0.68 33.224 0.16 7.03 11.06 13.16
12/26/2020 11:00:00 PM 0.69 33.242 0.16 7.03 10.88 13.17
12/26/2020 11:15:00 PM 0.69 33.242 0.16 7.02 11.4 13.18
12/26/2020 11:30:00 PM 0.7 33.26 0.16 7.04 10.86 13.17
12/26/2020 11:45:00 PM 0.71 33.278 0.161 7.04 10.82 13.16
12/27/2020 12:00:00 AM 0.72 33.296 0.161 7.04 10.86 13.17
12/27/2020 12:15:00 AM 0.73 33.314 0.161 7.04 10.39 13.17
12/27/2020 12:30:00 AM 0.73 33.314 0.161 7.04 10.53 13.16
12/27/2020 12:45:00 AM 0.74 33.332 0.161 7.04 10.59 13.17
12/27/2020 1:00:00 AM 0.74 33.332 0.161 7.04 10.39 13.17
12/27/2020 1:15:00 AM 0.75 33.35 0.162 7.03 10.49 13.17
12/27/2020 1:30:00 AM 0.75 33.35 0.161 7.04 10.32 13.18
12/27/2020 1:45:00 AM 0.76 33.368 0.162 7.04 10.2 13.17
12/27/2020 2:00:00 AM 0.77 33.386 0.162 7.04 10.29 13.17
12/27/2020 2:15:00 AM 0.77 33.386 0.162 7.05 10.34 13.17
12/27/2020 2:30:00 AM 0.78 33.404 0.162 7.05 10.21 13.16
12/27/2020 2:45:00 AM 0.79 33.422 0.162 7.05 9.93 13.17
12/27/2020 3:00:00 AM 0.79 33.422 0.162 7.05 9.99 13.17
12/27/2020 3:15:00 AM 0.8 33.44 0.162 7.04 10.24 13.17
12/27/2020 3:30:00 AM 0.81 33.458 0.162 7.05 10.05 13.17
12/27/2020 3:45:00 AM 0.81 33.458 0.162 7.05 10.12 13.18
12/27/2020 4:00:00 AM 0.82 33.476 0.162 7.06 9.64 13.17
12/27/2020 4:15:00 AM 0.82 33.476 0.163 7.05 10.23 13.17
12/27/2020 4:30:00 AM 0.83 33.494 0.162 7.06 9.96 13.18
12/27/2020 4:45:00 AM 0.83 33.494 0.162 7.04 9.97 13.18
12/27/2020 5:00:00 AM 0.83 33.494 0.163 7.06 9.48 13.18
12/27/2020 5:15:00 AM 0.83 33.494 0.163 7.06 9.62 13.17
12/27/2020 5:30:00 AM 0.83 33.494 0.163 7.06 9.42 13.18
12/27/2020 5:45:00 AM 0.81 33.458 0.163 7.06 9.69 13.18
12/27/2020 6:00:00 AM 0.78 33.404 0.163 7.05 9.73 13.18
12/27/2020 6:15:00 AM 0.76 33.368 0.163 7.06 10.07 13.19
12/27/2020 6:30:00 AM 0.75 33.35 0.163 7.06 9.92 13.19
12/27/2020 6:45:00 AM 0.73 33.314 0.163 7.05 9.79 13.2
12/27/2020 7:00:00 AM 0.71 33.278 0.163 7.06 9.38 13.2
12/27/2020 7:15:00 AM 0.69 33.242 0.163 7.06 9.35 13.21
12/27/2020 7:30:00 AM 0.68 33.224 0.164 7.06 9.63 13.22
12/27/2020 7:45:00 AM 0.66 33.188 0.164 7.06 9.45 13.22
12/27/2020 8:00:00 AM 0.65 33.17 0.164 7.07 9.73 13.22
12/27/2020 8:15:00 AM 0.64 33.152 0.164 7.06 9.59 13.24
12/27/2020 8:30:00 AM 0.64 33.152 0.164 7.06 10.95 13.25
12/27/2020 8:45:00 AM 0.66 33.188 0.164 7.06 9.66 13.25
12/27/2020 9:00:00 AM 0.68 33.224 0.164 7.07 9.8 13.26
12/27/2020 9:15:00 AM 0.7 33.26 0.164 7.07 10.05 13.27
12/27/2020 9:30:00 AM 0.72 33.296 0.164 7.07 9.58 13.28
12/27/2020 9:45:00 AM 0.75 33.35 0.164 7.07 9.58 13.27
12/27/2020 10:00:00 AM 0.79 33.422 0.165 7.07 9.21 13.29
12/27/2020 10:15:00 AM 0.85 33.53 0.164 7.07 9.05 13.27
12/27/2020 10:30:00 AM 0.89 33.602 0.165 7.07 9.17 13.28
12/27/2020 10:45:00 AM 0.98 33.764 0.165 7.07 9.36 13.28
12/27/2020 11:00:00 AM 1.02 33.836 0.165 7.08 9.26 13.27
12/27/2020 11:15:00 AM 1.1 33.98 0.165 7.08 9.04 13.28
12/27/2020 11:30:00 AM 1.18 34.124 0.165 7.08 8.69 13.27
12/27/2020 11:45:00 AM 1.25 34.25 0.165 7.08 9.27 13.27
12/27/2020 12:00:00 PM 1.32 34.376 0.165 7.09 8.79 13.26
12/27/2020 12:15:00 PM 1.39 34.502 0.166 7.09 8.72 13.25
12/27/2020 12:30:00 PM 1.43 34.574 0.167 7.09 8.9 13.25
12/27/2020 12:45:00 PM 1.46 34.628 0.173 7.09 9.33 13.24
12/27/2020 1:00:00 PM 1.48 34.664 0.172 7.08 9.58 13.23
12/27/2020 1:15:00 PM 1.5 34.7 0.171 7.09 9.21 13.23
12/27/2020 1:30:00 PM 1.54 34.772 0.171 7.09 9.19 13.22
12/27/2020 1:45:00 PM 1.57 34.826 0.171 7.09 9.03 13.22
12/27/2020 2:00:00 PM 1.6 34.88 0.174 7.09 8.94 13.22
12/27/2020 2:15:00 PM 1.6 34.88 0.176 7.09 9 13.21
12/27/2020 2:30:00 PM 1.61 34.898 0.176 7.1 9.67 13.21
12/27/2020 2:45:00 PM 1.6 34.88 0.177 7.1 10.31 13.21
12/27/2020 3:00:00 PM 1.6 34.88 0.177 7.1 9.71 13.2
12/27/2020 3:15:00 PM 1.6 34.88 0.176 7.09 9.31 13.19
12/27/2020 3:30:00 PM 1.6 34.88 0.176 7.1 9.37 13.19
12/27/2020 3:45:00 PM 1.59 34.862 0.175 7.1 9.17 13.18
12/27/2020 4:00:00 PM 1.58 34.844 0.174 7.1 9.38 13.17
12/27/2020 4:15:00 PM 1.57 34.826 0.174 7.1 8.99 13.17
12/27/2020 4:30:00 PM 1.55 34.79 0.173 7.1 9.14 13.15
12/27/2020 4:45:00 PM 1.53 34.754 0.173 7.1 8.86 13.15
12/27/2020 5:00:00 PM 1.52 34.736 0.172 7.1 8.99 13.14
12/27/2020 5:15:00 PM 1.5 34.7 0.171 7.1 8.82 13.13
12/27/2020 5:30:00 PM 1.49 34.682 0.171 7.1 8.7 13.12
12/27/2020 5:45:00 PM 1.49 34.682 0.17 7.09 9.11 13.12
12/27/2020 6:00:00 PM 1.48 34.664 0.17 7.1 9.58 13.11
12/27/2020 6:15:00 PM 1.48 34.664 0.17 7.1 9.86 13.1
12/27/2020 6:30:00 PM 1.49 34.682 0.17 7.1 9.33 13.09
12/27/2020 6:45:00 PM 1.5 34.7 0.169 7.1 8.64 13.09
12/27/2020 7:00:00 PM 1.51 34.718 0.169 7.1 8.43 13.08
12/27/2020 7:15:00 PM 1.51 34.718 0.17 7.1 8.07 13.07
12/27/2020 7:30:00 PM 1.51 34.718 0.169 7.1 7.69 13.07
12/27/2020 7:45:00 PM 1.52 34.736 0.17 7.11 7.53 13.06
12/27/2020 8:00:00 PM 1.52 34.736 0.169 7.1 7.5 13.05
12/27/2020 8:15:00 PM 1.52 34.736 0.17 7.11 7.53 13.05
12/27/2020 8:30:00 PM 1.52 34.736 0.17 7.1 7.67 13.04
12/27/2020 8:45:00 PM 1.52 34.736 0.17 7.1 7.65 13.05
12/27/2020 9:00:00 PM 1.52 34.736 0.17 7.11 7.59 13.04
12/27/2020 9:15:00 PM 1.52 34.736 0.17 7.1 7.5 13.04
12/27/2020 9:30:00 PM 1.52 34.736 0.17 7.11 7.37 13.04
12/27/2020 9:45:00 PM 1.52 34.736 0.17 7.11 7.53 13.03
12/27/2020 10:00:00 PM 1.52 34.736 0.17 7.1 7.63 13.03
12/27/2020 10:15:00 PM 1.52 34.736 0.17 7.1 7.66 13.02
12/27/2020 10:30:00 PM 1.52 34.736 0.17 7.1 7.38 13.03
12/27/2020 10:45:00 PM 1.52 34.736 0.17 7.1 7.32 13.03
12/27/2020 11:00:00 PM 1.52 34.736 0.17 7.1 7.45 13.02
12/27/2020 11:15:00 PM 1.53 34.754 0.171 7.1 7.45 13.02
12/27/2020 11:30:00 PM 1.53 34.754 0.17 7.09 7.38 13.02
12/27/2020 11:45:00 PM 1.53 34.754 0.171 7.11 7.23 13.02
12/28/2020 12:00:00 AM 1.53 34.754 0.17 7.11 7.46 13.01
12/28/2020 12:15:00 AM 1.53 34.754 0.17 7.11 7.41 13.01
12/28/2020 12:30:00 AM 1.53 34.754 0.171 7.08 7.23 13.01
12/28/2020 12:45:00 AM 1.53 34.754 0.171 7.11 7.17 13
12/28/2020 1:00:00 AM 1.53 34.754 0.171 7.1 7.29 13
12/28/2020 1:15:00 AM 1.54 34.772 0.171 7.1 7.35 12.99
12/28/2020 1:30:00 AM 1.54 34.772 0.171 7.11 7.04 12.99
12/28/2020 1:45:00 AM 1.55 34.79 0.171 7.11 7.27 12.99
12/28/2020 2:00:00 AM 1.56 34.808 0.171 7.11 6.98 12.98
12/28/2020 2:15:00 AM 1.57 34.826 0.172 7.1 7.22 12.98
12/28/2020 2:30:00 AM 1.59 34.862 0.172 7.11 6.93 12.98
12/28/2020 2:45:00 AM 1.6 34.88 0.172 7.11 6.79 12.97
12/28/2020 3:00:00 AM 1.61 34.898 0.173 7.11 6.99 12.97
12/28/2020 3:15:00 AM 1.62 34.916 0.174 7.11 7.97 12.96
12/28/2020 3:30:00 AM 1.64 34.952 0.174 7.12 7.22 12.96
12/28/2020 3:45:00 AM 1.65 34.97 0.175 7.11 6.99 12.95
12/28/2020 4:00:00 AM 1.65 34.97 0.175 7.12 6.72 12.94
12/28/2020 4:15:00 AM 1.66 34.988 0.176 7.11 7.17 12.94
12/28/2020 4:30:00 AM 1.68 35.024 0.177 7.11 6.97 12.94
12/28/2020 4:45:00 AM 1.69 35.042 0.178 7.11 7.33 12.93
12/28/2020 5:00:00 AM 1.71 35.078 0.178 7.12 7.05 12.93
12/28/2020 5:15:00 AM 1.72 35.096 0.179 7.12 6.87 12.92
12/28/2020 5:30:00 AM 1.74 35.132 0.179 7.11 6.9 12.92
12/28/2020 5:45:00 AM 1.76 35.168 0.18 7.11 7.05 12.91
12/28/2020 6:00:00 AM 1.77 35.186 0.18 7.12 6.86 12.9
12/28/2020 6:15:00 AM 1.79 35.222 0.18 7.12 7.63 12.9
12/28/2020 6:30:00 AM 1.81 35.258 0.18 7.11 6.71 12.89
12/28/2020 6:45:00 AM 1.82 35.276 0.18 7.11 6.67 12.89
12/28/2020 7:00:00 AM 1.84 35.312 0.18 7.12 7.61 12.88
12/28/2020 7:15:00 AM 1.85 35.33 0.179 7.11 6.74 12.87
12/28/2020 7:30:00 AM 1.88 35.384 0.179 7.12 6.56 12.87
12/28/2020 7:45:00 AM 1.9 35.42 0.179 7.12 7.14 12.86
12/28/2020 8:00:00 AM 1.93 35.474 0.179 7.12 6.98 12.86
12/28/2020 8:15:00 AM 1.94 35.492 0.179 7.12 7.14 12.86
12/28/2020 8:30:00 AM 1.96 35.528 0.179 7.13 7.24 12.86
12/28/2020 8:45:00 AM 2 35.6 0.178 7.13 7.76 12.86
12/28/2020 9:00:00 AM 2.05 35.69 0.178 7.12